<?xml version="1.0" encoding="UTF-8" standalone="no" ?>
<gpx xmlns="http://www.topografix.com/GPX/1/1" xmlns:xsi="http://www.w3.org/2001/XMLSchema-instance" xsi:schemaLocation="http://www.topografix.com/GPX/1/1 http://www.topografix.com/GPX/1/1/gpx.xsd" version="1.1" creator="VisuGPX - https://www.visugpx.com">
  <metadata>
    <name>lundi 2017 04 10</name>
    <desc><![CDATA[rando du lundi en groupe d'amis]]></desc>
  </metadata>
  <trk>
    <name><![CDATA[Lundi 2017 04 10]]></name>
    <trkseg>
      <trkpt lat="48.8575" lon="2.34676">
        <ele>38.400001525879</ele>
        <time>2017-04-10T18:21:58.000Z</time>
      </trkpt>
      <trkpt lat="48.85739" lon="2.34693">
        <ele>39.599998474121</ele>
        <time>2017-04-10T18:22:11.000Z</time>
      </trkpt>
      <trkpt lat="48.85735" lon="2.34694">
        <ele>40</ele>
        <time>2017-04-10T18:22:15.000Z</time>
      </trkpt>
      <trkpt lat="48.85716" lon="2.34687">
        <ele>40.599998474121</ele>
        <time>2017-04-10T18:22:24.000Z</time>
      </trkpt>
      <trkpt lat="48.85699" lon="2.34678">
        <ele>40.799999237061</ele>
        <time>2017-04-10T18:22:30.000Z</time>
      </trkpt>
      <trkpt lat="48.85678" lon="2.34668">
        <ele>42</ele>
        <time>2017-04-10T18:22:37.000Z</time>
      </trkpt>
      <trkpt lat="48.85659" lon="2.34657">
        <ele>43.599998474121</ele>
        <time>2017-04-10T18:22:44.000Z</time>
      </trkpt>
      <trkpt lat="48.85642" lon="2.34646">
        <ele>45</ele>
        <time>2017-04-10T18:22:50.000Z</time>
      </trkpt>
      <trkpt lat="48.85627" lon="2.34638">
        <ele>46.200000762939</ele>
        <time>2017-04-10T18:22:56.000Z</time>
      </trkpt>
      <trkpt lat="48.85625" lon="2.34638">
        <ele>46.400001525879</ele>
        <time>2017-04-10T18:22:59.000Z</time>
      </trkpt>
      <trkpt lat="48.85614" lon="2.34631">
        <ele>47.400001525879</ele>
        <time>2017-04-10T18:23:07.000Z</time>
      </trkpt>
      <trkpt lat="48.85595" lon="2.34622">
        <ele>47.799999237061</ele>
        <time>2017-04-10T18:23:19.000Z</time>
      </trkpt>
      <trkpt lat="48.85577" lon="2.34616">
        <ele>47.599998474121</ele>
        <time>2017-04-10T18:23:25.000Z</time>
      </trkpt>
      <trkpt lat="48.85558" lon="2.34605">
        <ele>47.400001525879</ele>
        <time>2017-04-10T18:23:30.000Z</time>
      </trkpt>
      <trkpt lat="48.8554" lon="2.34593">
        <ele>47.200000762939</ele>
        <time>2017-04-10T18:23:35.000Z</time>
      </trkpt>
      <trkpt lat="48.85525" lon="2.34576">
        <ele>46.799999237061</ele>
        <time>2017-04-10T18:23:40.000Z</time>
      </trkpt>
      <trkpt lat="48.85509" lon="2.34562">
        <ele>45.799999237061</ele>
        <time>2017-04-10T18:23:46.000Z</time>
      </trkpt>
      <trkpt lat="48.85494" lon="2.34547">
        <ele>44.799999237061</ele>
        <time>2017-04-10T18:23:51.000Z</time>
      </trkpt>
      <trkpt lat="48.85475" lon="2.34535">
        <ele>43.599998474121</ele>
        <time>2017-04-10T18:23:56.000Z</time>
      </trkpt>
      <trkpt lat="48.85457" lon="2.34519">
        <ele>42.200000762939</ele>
        <time>2017-04-10T18:24:03.000Z</time>
      </trkpt>
      <trkpt lat="48.85442" lon="2.34502">
        <ele>41.200000762939</ele>
        <time>2017-04-10T18:24:09.000Z</time>
      </trkpt>
      <trkpt lat="48.85426" lon="2.34484">
        <ele>41.400001525879</ele>
        <time>2017-04-10T18:24:15.000Z</time>
      </trkpt>
      <trkpt lat="48.85411" lon="2.34464">
        <ele>41.799999237061</ele>
        <time>2017-04-10T18:24:22.000Z</time>
      </trkpt>
      <trkpt lat="48.85395" lon="2.34445">
        <ele>42.200000762939</ele>
        <time>2017-04-10T18:24:30.000Z</time>
      </trkpt>
      <trkpt lat="48.85386" lon="2.34428">
        <ele>42.400001525879</ele>
        <time>2017-04-10T18:24:35.000Z</time>
      </trkpt>
      <trkpt lat="48.8539" lon="2.34406">
        <ele>41.799999237061</ele>
        <time>2017-04-10T18:24:40.000Z</time>
      </trkpt>
      <trkpt lat="48.85403" lon="2.34383">
        <ele>41.799999237061</ele>
        <time>2017-04-10T18:24:45.000Z</time>
      </trkpt>
      <trkpt lat="48.85415" lon="2.3436">
        <ele>41.400001525879</ele>
        <time>2017-04-10T18:24:49.000Z</time>
      </trkpt>
      <trkpt lat="48.85428" lon="2.34334">
        <ele>40.799999237061</ele>
        <time>2017-04-10T18:24:53.000Z</time>
      </trkpt>
      <trkpt lat="48.8544" lon="2.34307">
        <ele>40.799999237061</ele>
        <time>2017-04-10T18:24:57.000Z</time>
      </trkpt>
      <trkpt lat="48.85452" lon="2.34285">
        <ele>41.400001525879</ele>
        <time>2017-04-10T18:25:01.000Z</time>
      </trkpt>
      <trkpt lat="48.85464" lon="2.34258">
        <ele>41.799999237061</ele>
        <time>2017-04-10T18:25:06.000Z</time>
      </trkpt>
      <trkpt lat="48.85475" lon="2.34237">
        <ele>41.599998474121</ele>
        <time>2017-04-10T18:25:10.000Z</time>
      </trkpt>
      <trkpt lat="48.85489" lon="2.34212">
        <ele>41.799999237061</ele>
        <time>2017-04-10T18:25:15.000Z</time>
      </trkpt>
      <trkpt lat="48.855" lon="2.34188">
        <ele>40.799999237061</ele>
        <time>2017-04-10T18:25:20.000Z</time>
      </trkpt>
      <trkpt lat="48.85513" lon="2.34164">
        <ele>39.799999237061</ele>
        <time>2017-04-10T18:25:25.000Z</time>
      </trkpt>
      <trkpt lat="48.85529" lon="2.34143">
        <ele>41</ele>
        <time>2017-04-10T18:25:30.000Z</time>
      </trkpt>
      <trkpt lat="48.85543" lon="2.34123">
        <ele>44.200000762939</ele>
        <time>2017-04-10T18:25:35.000Z</time>
      </trkpt>
      <trkpt lat="48.85552" lon="2.3411">
        <ele>46</ele>
        <time>2017-04-10T18:25:38.000Z</time>
      </trkpt>
      <trkpt lat="48.85558" lon="2.34097">
        <ele>45</ele>
        <time>2017-04-10T18:25:41.000Z</time>
      </trkpt>
      <trkpt lat="48.85568" lon="2.3408">
        <ele>43.400001525879</ele>
        <time>2017-04-10T18:25:45.000Z</time>
      </trkpt>
      <trkpt lat="48.85581" lon="2.34061">
        <ele>44.400001525879</ele>
        <time>2017-04-10T18:25:50.000Z</time>
      </trkpt>
      <trkpt lat="48.85594" lon="2.3404">
        <ele>45.599998474121</ele>
        <time>2017-04-10T18:25:56.000Z</time>
      </trkpt>
      <trkpt lat="48.85606" lon="2.34029">
        <ele>46.200000762939</ele>
        <time>2017-04-10T18:26:03.000Z</time>
      </trkpt>
      <trkpt lat="48.85622" lon="2.34014">
        <ele>46.200000762939</ele>
        <time>2017-04-10T18:26:30.000Z</time>
      </trkpt>
      <trkpt lat="48.85636" lon="2.33993">
        <ele>42.599998474121</ele>
        <time>2017-04-10T18:26:35.000Z</time>
      </trkpt>
      <trkpt lat="48.85647" lon="2.33979">
        <ele>40.400001525879</ele>
        <time>2017-04-10T18:26:38.000Z</time>
      </trkpt>
      <trkpt lat="48.85659" lon="2.33957">
        <ele>38.799999237061</ele>
        <time>2017-04-10T18:26:42.000Z</time>
      </trkpt>
      <trkpt lat="48.85673" lon="2.33932">
        <ele>39.400001525879</ele>
        <time>2017-04-10T18:26:46.000Z</time>
      </trkpt>
      <trkpt lat="48.85687" lon="2.33907">
        <ele>39.200000762939</ele>
        <time>2017-04-10T18:26:50.000Z</time>
      </trkpt>
      <trkpt lat="48.85699" lon="2.33882">
        <ele>38.200000762939</ele>
        <time>2017-04-10T18:26:54.000Z</time>
      </trkpt>
      <trkpt lat="48.85712" lon="2.33857">
        <ele>36.799999237061</ele>
        <time>2017-04-10T18:26:58.000Z</time>
      </trkpt>
      <trkpt lat="48.85725" lon="2.33835">
        <ele>37.200000762939</ele>
        <time>2017-04-10T18:27:02.000Z</time>
      </trkpt>
      <trkpt lat="48.85733" lon="2.3382">
        <ele>37</ele>
        <time>2017-04-10T18:27:05.000Z</time>
      </trkpt>
      <trkpt lat="48.85744" lon="2.33798">
        <ele>36.200000762939</ele>
        <time>2017-04-10T18:27:09.000Z</time>
      </trkpt>
      <trkpt lat="48.85752" lon="2.33773">
        <ele>36.200000762939</ele>
        <time>2017-04-10T18:27:14.000Z</time>
      </trkpt>
      <trkpt lat="48.85754" lon="2.33769">
        <ele>36.200000762939</ele>
        <time>2017-04-10T18:27:15.000Z</time>
      </trkpt>
      <trkpt lat="48.8576" lon="2.33738">
        <ele>36.400001525879</ele>
        <time>2017-04-10T18:27:21.000Z</time>
      </trkpt>
      <trkpt lat="48.85763" lon="2.33727">
        <ele>36</ele>
        <time>2017-04-10T18:27:23.000Z</time>
      </trkpt>
      <trkpt lat="48.8577" lon="2.33697">
        <ele>35.200000762939</ele>
        <time>2017-04-10T18:27:28.000Z</time>
      </trkpt>
      <trkpt lat="48.85777" lon="2.33666">
        <ele>34.400001525879</ele>
        <time>2017-04-10T18:27:33.000Z</time>
      </trkpt>
      <trkpt lat="48.85779" lon="2.3366">
        <ele>34</ele>
        <time>2017-04-10T18:27:34.000Z</time>
      </trkpt>
      <trkpt lat="48.85783" lon="2.33647">
        <ele>34</ele>
        <time>2017-04-10T18:27:36.000Z</time>
      </trkpt>
      <trkpt lat="48.85788" lon="2.33619">
        <ele>35.200000762939</ele>
        <time>2017-04-10T18:27:41.000Z</time>
      </trkpt>
      <trkpt lat="48.85787" lon="2.33589">
        <ele>36.599998474121</ele>
        <time>2017-04-10T18:27:46.000Z</time>
      </trkpt>
      <trkpt lat="48.85786" lon="2.33562">
        <ele>37</ele>
        <time>2017-04-10T18:27:51.000Z</time>
      </trkpt>
      <trkpt lat="48.85788" lon="2.33532">
        <ele>37.200000762939</ele>
        <time>2017-04-10T18:27:57.000Z</time>
      </trkpt>
      <trkpt lat="48.85792" lon="2.33499">
        <ele>42.200000762939</ele>
        <time>2017-04-10T18:28:03.000Z</time>
      </trkpt>
      <trkpt lat="48.85799" lon="2.33471">
        <ele>43.400001525879</ele>
        <time>2017-04-10T18:28:08.000Z</time>
      </trkpt>
      <trkpt lat="48.85806" lon="2.33442">
        <ele>43.799999237061</ele>
        <time>2017-04-10T18:28:13.000Z</time>
      </trkpt>
      <trkpt lat="48.85811" lon="2.33414">
        <ele>45.400001525879</ele>
        <time>2017-04-10T18:28:18.000Z</time>
      </trkpt>
      <trkpt lat="48.85818" lon="2.33384">
        <ele>46</ele>
        <time>2017-04-10T18:28:23.000Z</time>
      </trkpt>
      <trkpt lat="48.85826" lon="2.33354">
        <ele>44.799999237061</ele>
        <time>2017-04-10T18:28:28.000Z</time>
      </trkpt>
      <trkpt lat="48.85835" lon="2.33326">
        <ele>43.599998474121</ele>
        <time>2017-04-10T18:28:33.000Z</time>
      </trkpt>
      <trkpt lat="48.85843" lon="2.33297">
        <ele>43.400001525879</ele>
        <time>2017-04-10T18:28:39.000Z</time>
      </trkpt>
      <trkpt lat="48.85852" lon="2.33273">
        <ele>42.599998474121</ele>
        <time>2017-04-10T18:28:54.000Z</time>
      </trkpt>
      <trkpt lat="48.8586" lon="2.33245">
        <ele>41.799999237061</ele>
        <time>2017-04-10T18:29:01.000Z</time>
      </trkpt>
      <trkpt lat="48.85867" lon="2.33218">
        <ele>41.599998474121</ele>
        <time>2017-04-10T18:29:07.000Z</time>
      </trkpt>
      <trkpt lat="48.85876" lon="2.33193">
        <ele>41.400001525879</ele>
        <time>2017-04-10T18:29:12.000Z</time>
      </trkpt>
      <trkpt lat="48.85884" lon="2.33167">
        <ele>40.200000762939</ele>
        <time>2017-04-10T18:29:17.000Z</time>
      </trkpt>
      <trkpt lat="48.85892" lon="2.33137">
        <ele>40.599998474121</ele>
        <time>2017-04-10T18:29:22.000Z</time>
      </trkpt>
      <trkpt lat="48.85898" lon="2.33111">
        <ele>41.200000762939</ele>
        <time>2017-04-10T18:29:26.000Z</time>
      </trkpt>
      <trkpt lat="48.85906" lon="2.33086">
        <ele>41.799999237061</ele>
        <time>2017-04-10T18:29:30.000Z</time>
      </trkpt>
      <trkpt lat="48.85916" lon="2.33057">
        <ele>40.799999237061</ele>
        <time>2017-04-10T18:29:35.000Z</time>
      </trkpt>
      <trkpt lat="48.85926" lon="2.33031">
        <ele>40.400001525879</ele>
        <time>2017-04-10T18:29:40.000Z</time>
      </trkpt>
      <trkpt lat="48.85933" lon="2.33003">
        <ele>40.599998474121</ele>
        <time>2017-04-10T18:29:45.000Z</time>
      </trkpt>
      <trkpt lat="48.85936" lon="2.32992">
        <ele>40.400001525879</ele>
        <time>2017-04-10T18:29:47.000Z</time>
      </trkpt>
      <trkpt lat="48.85944" lon="2.32966">
        <ele>41.599998474121</ele>
        <time>2017-04-10T18:29:53.000Z</time>
      </trkpt>
      <trkpt lat="48.85952" lon="2.32941">
        <ele>42.799999237061</ele>
        <time>2017-04-10T18:30:00.000Z</time>
      </trkpt>
      <trkpt lat="48.85962" lon="2.32914">
        <ele>42.599998474121</ele>
        <time>2017-04-10T18:30:07.000Z</time>
      </trkpt>
      <trkpt lat="48.8597" lon="2.32889">
        <ele>43</ele>
        <time>2017-04-10T18:30:13.000Z</time>
      </trkpt>
      <trkpt lat="48.85979" lon="2.32861">
        <ele>42.799999237061</ele>
        <time>2017-04-10T18:30:19.000Z</time>
      </trkpt>
      <trkpt lat="48.85989" lon="2.32837">
        <ele>40.799999237061</ele>
        <time>2017-04-10T18:30:26.000Z</time>
      </trkpt>
      <trkpt lat="48.85997" lon="2.32812">
        <ele>39.599998474121</ele>
        <time>2017-04-10T18:30:35.000Z</time>
      </trkpt>
      <trkpt lat="48.85999" lon="2.32811">
        <ele>39.400001525879</ele>
        <time>2017-04-10T18:30:37.000Z</time>
      </trkpt>
      <trkpt lat="48.86008" lon="2.32795">
        <ele>39.400001525879</ele>
        <time>2017-04-10T18:30:46.000Z</time>
      </trkpt>
      <trkpt lat="48.86019" lon="2.32771">
        <ele>39.799999237061</ele>
        <time>2017-04-10T18:30:52.000Z</time>
      </trkpt>
      <trkpt lat="48.8603" lon="2.32746">
        <ele>39.799999237061</ele>
        <time>2017-04-10T18:30:56.000Z</time>
      </trkpt>
      <trkpt lat="48.86041" lon="2.32722">
        <ele>40</ele>
        <time>2017-04-10T18:30:59.000Z</time>
      </trkpt>
      <trkpt lat="48.8605" lon="2.32697">
        <ele>40.599998474121</ele>
        <time>2017-04-10T18:31:02.000Z</time>
      </trkpt>
      <trkpt lat="48.86059" lon="2.32668">
        <ele>39.599998474121</ele>
        <time>2017-04-10T18:31:06.000Z</time>
      </trkpt>
      <trkpt lat="48.86069" lon="2.32641">
        <ele>37.200000762939</ele>
        <time>2017-04-10T18:31:10.000Z</time>
      </trkpt>
      <trkpt lat="48.86077" lon="2.32613">
        <ele>35.799999237061</ele>
        <time>2017-04-10T18:31:14.000Z</time>
      </trkpt>
      <trkpt lat="48.86084" lon="2.32583">
        <ele>35.200000762939</ele>
        <time>2017-04-10T18:31:18.000Z</time>
      </trkpt>
      <trkpt lat="48.86091" lon="2.32554">
        <ele>33.200000762939</ele>
        <time>2017-04-10T18:31:22.000Z</time>
      </trkpt>
      <trkpt lat="48.86099" lon="2.32523">
        <ele>34.200000762939</ele>
        <time>2017-04-10T18:31:26.000Z</time>
      </trkpt>
      <trkpt lat="48.86107" lon="2.32497">
        <ele>35</ele>
        <time>2017-04-10T18:31:30.000Z</time>
      </trkpt>
      <trkpt lat="48.86108" lon="2.3249">
        <ele>35</ele>
        <time>2017-04-10T18:31:31.000Z</time>
      </trkpt>
      <trkpt lat="48.86116" lon="2.32463">
        <ele>35.400001525879</ele>
        <time>2017-04-10T18:31:35.000Z</time>
      </trkpt>
      <trkpt lat="48.86125" lon="2.32435">
        <ele>35.799999237061</ele>
        <time>2017-04-10T18:31:39.000Z</time>
      </trkpt>
      <trkpt lat="48.86133" lon="2.32409">
        <ele>34.799999237061</ele>
        <time>2017-04-10T18:31:43.000Z</time>
      </trkpt>
      <trkpt lat="48.86136" lon="2.32398">
        <ele>35.200000762939</ele>
        <time>2017-04-10T18:31:45.000Z</time>
      </trkpt>
      <trkpt lat="48.86143" lon="2.32373">
        <ele>36</ele>
        <time>2017-04-10T18:31:49.000Z</time>
      </trkpt>
      <trkpt lat="48.86151" lon="2.32347">
        <ele>35.799999237061</ele>
        <time>2017-04-10T18:31:53.000Z</time>
      </trkpt>
      <trkpt lat="48.86156" lon="2.32328">
        <ele>35.599998474121</ele>
        <time>2017-04-10T18:31:56.000Z</time>
      </trkpt>
      <trkpt lat="48.86163" lon="2.32298">
        <ele>33.599998474121</ele>
        <time>2017-04-10T18:32:01.000Z</time>
      </trkpt>
      <trkpt lat="48.86172" lon="2.32269">
        <ele>34</ele>
        <time>2017-04-10T18:32:06.000Z</time>
      </trkpt>
      <trkpt lat="48.8618" lon="2.32239">
        <ele>34</ele>
        <time>2017-04-10T18:32:11.000Z</time>
      </trkpt>
      <trkpt lat="48.86189" lon="2.32211">
        <ele>35.599998474121</ele>
        <time>2017-04-10T18:32:16.000Z</time>
      </trkpt>
      <trkpt lat="48.86198" lon="2.32183">
        <ele>37.200000762939</ele>
        <time>2017-04-10T18:32:21.000Z</time>
      </trkpt>
      <trkpt lat="48.86208" lon="2.32157">
        <ele>36.799999237061</ele>
        <time>2017-04-10T18:32:26.000Z</time>
      </trkpt>
      <trkpt lat="48.86216" lon="2.32134">
        <ele>37.400001525879</ele>
        <time>2017-04-10T18:32:30.000Z</time>
      </trkpt>
      <trkpt lat="48.86219" lon="2.32122">
        <ele>37.799999237061</ele>
        <time>2017-04-10T18:32:32.000Z</time>
      </trkpt>
      <trkpt lat="48.86228" lon="2.32094">
        <ele>37.799999237061</ele>
        <time>2017-04-10T18:32:37.000Z</time>
      </trkpt>
      <trkpt lat="48.8623" lon="2.32088">
        <ele>37.799999237061</ele>
        <time>2017-04-10T18:32:38.000Z</time>
      </trkpt>
      <trkpt lat="48.86236" lon="2.32068">
        <ele>37</ele>
        <time>2017-04-10T18:32:41.000Z</time>
      </trkpt>
      <trkpt lat="48.86243" lon="2.32036">
        <ele>35.200000762939</ele>
        <time>2017-04-10T18:32:45.000Z</time>
      </trkpt>
      <trkpt lat="48.86252" lon="2.32008">
        <ele>34</ele>
        <time>2017-04-10T18:32:48.000Z</time>
      </trkpt>
      <trkpt lat="48.86262" lon="2.31978">
        <ele>32.200000762939</ele>
        <time>2017-04-10T18:32:51.000Z</time>
      </trkpt>
      <trkpt lat="48.86274" lon="2.31946">
        <ele>32.200000762939</ele>
        <time>2017-04-10T18:32:54.000Z</time>
      </trkpt>
      <trkpt lat="48.86286" lon="2.31913">
        <ele>31.799999237061</ele>
        <time>2017-04-10T18:32:57.000Z</time>
      </trkpt>
      <trkpt lat="48.86296" lon="2.31879">
        <ele>30.60000038147</ele>
        <time>2017-04-10T18:33:00.000Z</time>
      </trkpt>
      <trkpt lat="48.86302" lon="2.31852">
        <ele>31.60000038147</ele>
        <time>2017-04-10T18:33:03.000Z</time>
      </trkpt>
      <trkpt lat="48.8631" lon="2.31826">
        <ele>37.799999237061</ele>
        <time>2017-04-10T18:33:06.000Z</time>
      </trkpt>
      <trkpt lat="48.86316" lon="2.31809">
        <ele>39.599998474121</ele>
        <time>2017-04-10T18:33:08.000Z</time>
      </trkpt>
      <trkpt lat="48.86318" lon="2.318">
        <ele>40.599998474121</ele>
        <time>2017-04-10T18:33:09.000Z</time>
      </trkpt>
      <trkpt lat="48.86321" lon="2.31772">
        <ele>44.200000762939</ele>
        <time>2017-04-10T18:33:12.000Z</time>
      </trkpt>
      <trkpt lat="48.8632" lon="2.31763">
        <ele>45.200000762939</ele>
        <time>2017-04-10T18:33:13.000Z</time>
      </trkpt>
      <trkpt lat="48.86318" lon="2.31733">
        <ele>46.200000762939</ele>
        <time>2017-04-10T18:33:16.000Z</time>
      </trkpt>
      <trkpt lat="48.86317" lon="2.31703">
        <ele>42.799999237061</ele>
        <time>2017-04-10T18:33:19.000Z</time>
      </trkpt>
      <trkpt lat="48.86318" lon="2.31693">
        <ele>37.799999237061</ele>
        <time>2017-04-10T18:33:20.000Z</time>
      </trkpt>
      <trkpt lat="48.86317" lon="2.31662">
        <ele>24.60000038147</ele>
        <time>2017-04-10T18:33:23.000Z</time>
      </trkpt>
      <trkpt lat="48.86315" lon="2.3163">
        <ele>27</ele>
        <time>2017-04-10T18:33:26.000Z</time>
      </trkpt>
      <trkpt lat="48.86313" lon="2.31609">
        <ele>28.60000038147</ele>
        <time>2017-04-10T18:33:28.000Z</time>
      </trkpt>
      <trkpt lat="48.86313" lon="2.31587">
        <ele>30</ele>
        <time>2017-04-10T18:33:30.000Z</time>
      </trkpt>
      <trkpt lat="48.86312" lon="2.31557">
        <ele>29</ele>
        <time>2017-04-10T18:33:33.000Z</time>
      </trkpt>
      <trkpt lat="48.86312" lon="2.31526">
        <ele>29.60000038147</ele>
        <time>2017-04-10T18:33:36.000Z</time>
      </trkpt>
      <trkpt lat="48.86312" lon="2.31506">
        <ele>33</ele>
        <time>2017-04-10T18:33:38.000Z</time>
      </trkpt>
      <trkpt lat="48.86312" lon="2.31475">
        <ele>33</ele>
        <time>2017-04-10T18:33:42.000Z</time>
      </trkpt>
      <trkpt lat="48.86312" lon="2.31461">
        <ele>32</ele>
        <time>2017-04-10T18:33:44.000Z</time>
      </trkpt>
      <trkpt lat="48.86311" lon="2.31439">
        <ele>31.799999237061</ele>
        <time>2017-04-10T18:33:47.000Z</time>
      </trkpt>
      <trkpt lat="48.8631" lon="2.31423">
        <ele>32.599998474121</ele>
        <time>2017-04-10T18:33:49.000Z</time>
      </trkpt>
      <trkpt lat="48.86309" lon="2.31394">
        <ele>33.799999237061</ele>
        <time>2017-04-10T18:33:53.000Z</time>
      </trkpt>
      <trkpt lat="48.86308" lon="2.31365">
        <ele>35</ele>
        <time>2017-04-10T18:33:57.000Z</time>
      </trkpt>
      <trkpt lat="48.8631" lon="2.31337">
        <ele>33</ele>
        <time>2017-04-10T18:34:02.000Z</time>
      </trkpt>
      <trkpt lat="48.8631" lon="2.31307">
        <ele>32.599998474121</ele>
        <time>2017-04-10T18:34:05.000Z</time>
      </trkpt>
      <trkpt lat="48.86308" lon="2.31298">
        <ele>32.599998474121</ele>
        <time>2017-04-10T18:34:06.000Z</time>
      </trkpt>
      <trkpt lat="48.86307" lon="2.31268">
        <ele>32.200000762939</ele>
        <time>2017-04-10T18:34:10.000Z</time>
      </trkpt>
      <trkpt lat="48.86305" lon="2.3124">
        <ele>32</ele>
        <time>2017-04-10T18:34:14.000Z</time>
      </trkpt>
      <trkpt lat="48.86305" lon="2.31233">
        <ele>32</ele>
        <time>2017-04-10T18:34:15.000Z</time>
      </trkpt>
      <trkpt lat="48.86303" lon="2.31205">
        <ele>32.400001525879</ele>
        <time>2017-04-10T18:34:19.000Z</time>
      </trkpt>
      <trkpt lat="48.863" lon="2.31172">
        <ele>32.400001525879</ele>
        <time>2017-04-10T18:34:24.000Z</time>
      </trkpt>
      <trkpt lat="48.863" lon="2.3114">
        <ele>33.799999237061</ele>
        <time>2017-04-10T18:34:28.000Z</time>
      </trkpt>
      <trkpt lat="48.863" lon="2.31124">
        <ele>34.799999237061</ele>
        <time>2017-04-10T18:34:30.000Z</time>
      </trkpt>
      <trkpt lat="48.863" lon="2.31093">
        <ele>35.799999237061</ele>
        <time>2017-04-10T18:34:34.000Z</time>
      </trkpt>
      <trkpt lat="48.863" lon="2.31069">
        <ele>36.400001525879</ele>
        <time>2017-04-10T18:34:37.000Z</time>
      </trkpt>
      <trkpt lat="48.86301" lon="2.3104">
        <ele>38</ele>
        <time>2017-04-10T18:34:41.000Z</time>
      </trkpt>
      <trkpt lat="48.86299" lon="2.31006">
        <ele>38.400001525879</ele>
        <time>2017-04-10T18:34:45.000Z</time>
      </trkpt>
      <trkpt lat="48.863" lon="2.30997">
        <ele>37.799999237061</ele>
        <time>2017-04-10T18:34:46.000Z</time>
      </trkpt>
      <trkpt lat="48.86301" lon="2.30966">
        <ele>38.400001525879</ele>
        <time>2017-04-10T18:34:50.000Z</time>
      </trkpt>
      <trkpt lat="48.86299" lon="2.30938">
        <ele>39.400001525879</ele>
        <time>2017-04-10T18:34:54.000Z</time>
      </trkpt>
      <trkpt lat="48.86299" lon="2.30932">
        <ele>40.200000762939</ele>
        <time>2017-04-10T18:34:55.000Z</time>
      </trkpt>
      <trkpt lat="48.86299" lon="2.30912">
        <ele>41.799999237061</ele>
        <time>2017-04-10T18:34:58.000Z</time>
      </trkpt>
      <trkpt lat="48.86298" lon="2.30884">
        <ele>40.599998474121</ele>
        <time>2017-04-10T18:35:02.000Z</time>
      </trkpt>
      <trkpt lat="48.86297" lon="2.30851">
        <ele>39.400001525879</ele>
        <time>2017-04-10T18:35:07.000Z</time>
      </trkpt>
      <trkpt lat="48.86297" lon="2.30828">
        <ele>39</ele>
        <time>2017-04-10T18:35:10.000Z</time>
      </trkpt>
      <trkpt lat="48.86294" lon="2.308">
        <ele>37.599998474121</ele>
        <time>2017-04-10T18:35:14.000Z</time>
      </trkpt>
      <trkpt lat="48.86293" lon="2.30794">
        <ele>37.400001525879</ele>
        <time>2017-04-10T18:35:15.000Z</time>
      </trkpt>
      <trkpt lat="48.86291" lon="2.30768">
        <ele>36</ele>
        <time>2017-04-10T18:35:19.000Z</time>
      </trkpt>
      <trkpt lat="48.86292" lon="2.30741">
        <ele>37.400001525879</ele>
        <time>2017-04-10T18:35:23.000Z</time>
      </trkpt>
      <trkpt lat="48.86292" lon="2.30729">
        <ele>37.200000762939</ele>
        <time>2017-04-10T18:35:25.000Z</time>
      </trkpt>
      <trkpt lat="48.86294" lon="2.30705">
        <ele>37</ele>
        <time>2017-04-10T18:35:29.000Z</time>
      </trkpt>
      <trkpt lat="48.86295" lon="2.30676">
        <ele>35.799999237061</ele>
        <time>2017-04-10T18:35:34.000Z</time>
      </trkpt>
      <trkpt lat="48.86293" lon="2.30651">
        <ele>34.799999237061</ele>
        <time>2017-04-10T18:35:39.000Z</time>
      </trkpt>
      <trkpt lat="48.86288" lon="2.30622">
        <ele>35</ele>
        <time>2017-04-10T18:35:46.000Z</time>
      </trkpt>
      <trkpt lat="48.86283" lon="2.30594">
        <ele>35.400001525879</ele>
        <time>2017-04-10T18:35:54.000Z</time>
      </trkpt>
      <trkpt lat="48.86285" lon="2.30581">
        <ele>34.400001525879</ele>
        <time>2017-04-10T18:35:59.000Z</time>
      </trkpt>
      <trkpt lat="48.86289" lon="2.30567">
        <ele>34</ele>
        <time>2017-04-10T18:37:06.000Z</time>
      </trkpt>
      <trkpt lat="48.86288" lon="2.30547">
        <ele>34.599998474121</ele>
        <time>2017-04-10T18:37:13.000Z</time>
      </trkpt>
      <trkpt lat="48.86286" lon="2.3052">
        <ele>35.599998474121</ele>
        <time>2017-04-10T18:37:27.000Z</time>
      </trkpt>
      <trkpt lat="48.86284" lon="2.30516">
        <ele>36</ele>
        <time>2017-04-10T18:37:31.000Z</time>
      </trkpt>
      <trkpt lat="48.86284" lon="2.30515">
        <ele>36</ele>
        <time>2017-04-10T18:37:33.000Z</time>
      </trkpt>
      <trkpt lat="48.86288" lon="2.30532">
        <ele>35</ele>
        <time>2017-04-10T18:37:55.000Z</time>
      </trkpt>
      <trkpt lat="48.86291" lon="2.30518">
        <ele>34.799999237061</ele>
        <time>2017-04-10T18:38:02.000Z</time>
      </trkpt>
      <trkpt lat="48.86287" lon="2.30486">
        <ele>36.599998474121</ele>
        <time>2017-04-10T18:38:08.000Z</time>
      </trkpt>
      <trkpt lat="48.86288" lon="2.30455">
        <ele>39.400001525879</ele>
        <time>2017-04-10T18:38:13.000Z</time>
      </trkpt>
      <trkpt lat="48.86287" lon="2.30423">
        <ele>42.400001525879</ele>
        <time>2017-04-10T18:38:18.000Z</time>
      </trkpt>
      <trkpt lat="48.86285" lon="2.30392">
        <ele>42.400001525879</ele>
        <time>2017-04-10T18:38:23.000Z</time>
      </trkpt>
      <trkpt lat="48.86281" lon="2.30363">
        <ele>42.200000762939</ele>
        <time>2017-04-10T18:38:28.000Z</time>
      </trkpt>
      <trkpt lat="48.86281" lon="2.30329">
        <ele>41.400001525879</ele>
        <time>2017-04-10T18:38:33.000Z</time>
      </trkpt>
      <trkpt lat="48.86283" lon="2.30295">
        <ele>39.400001525879</ele>
        <time>2017-04-10T18:38:37.000Z</time>
      </trkpt>
      <trkpt lat="48.86285" lon="2.30262">
        <ele>37.400001525879</ele>
        <time>2017-04-10T18:38:41.000Z</time>
      </trkpt>
      <trkpt lat="48.86286" lon="2.30244">
        <ele>37.200000762939</ele>
        <time>2017-04-10T18:38:44.000Z</time>
      </trkpt>
      <trkpt lat="48.86286" lon="2.30221">
        <ele>36</ele>
        <time>2017-04-10T18:38:49.000Z</time>
      </trkpt>
      <trkpt lat="48.86285" lon="2.30206">
        <ele>35</ele>
        <time>2017-04-10T18:38:53.000Z</time>
      </trkpt>
      <trkpt lat="48.86286" lon="2.30202">
        <ele>34.799999237061</ele>
        <time>2017-04-10T18:38:54.000Z</time>
      </trkpt>
      <trkpt lat="48.86285" lon="2.30173">
        <ele>33.200000762939</ele>
        <time>2017-04-10T18:39:00.000Z</time>
      </trkpt>
      <trkpt lat="48.8628" lon="2.30145">
        <ele>34.400001525879</ele>
        <time>2017-04-10T18:39:05.000Z</time>
      </trkpt>
      <trkpt lat="48.86279" lon="2.30113">
        <ele>36.599998474121</ele>
        <time>2017-04-10T18:39:11.000Z</time>
      </trkpt>
      <trkpt lat="48.86282" lon="2.30082">
        <ele>37.799999237061</ele>
        <time>2017-04-10T18:39:16.000Z</time>
      </trkpt>
      <trkpt lat="48.86282" lon="2.30053">
        <ele>37</ele>
        <time>2017-04-10T18:39:21.000Z</time>
      </trkpt>
      <trkpt lat="48.86278" lon="2.30022">
        <ele>36.200000762939</ele>
        <time>2017-04-10T18:39:27.000Z</time>
      </trkpt>
      <trkpt lat="48.86274" lon="2.29993">
        <ele>35.599998474121</ele>
        <time>2017-04-10T18:39:32.000Z</time>
      </trkpt>
      <trkpt lat="48.86266" lon="2.29965">
        <ele>32.799999237061</ele>
        <time>2017-04-10T18:39:37.000Z</time>
      </trkpt>
      <trkpt lat="48.86257" lon="2.29936">
        <ele>30.200000762939</ele>
        <time>2017-04-10T18:39:43.000Z</time>
      </trkpt>
      <trkpt lat="48.8625" lon="2.29909">
        <ele>27.799999237061</ele>
        <time>2017-04-10T18:39:50.000Z</time>
      </trkpt>
      <trkpt lat="48.86244" lon="2.29884">
        <ele>27.39999961853</ele>
        <time>2017-04-10T18:39:57.000Z</time>
      </trkpt>
      <trkpt lat="48.8624" lon="2.29854">
        <ele>27.60000038147</ele>
        <time>2017-04-10T18:40:04.000Z</time>
      </trkpt>
      <trkpt lat="48.86234" lon="2.29824">
        <ele>28</ele>
        <time>2017-04-10T18:40:10.000Z</time>
      </trkpt>
      <trkpt lat="48.86229" lon="2.29798">
        <ele>29.200000762939</ele>
        <time>2017-04-10T18:40:16.000Z</time>
      </trkpt>
      <trkpt lat="48.86221" lon="2.2977">
        <ele>30.39999961853</ele>
        <time>2017-04-10T18:40:23.000Z</time>
      </trkpt>
      <trkpt lat="48.86222" lon="2.29767">
        <ele>30.200000762939</ele>
        <time>2017-04-10T18:40:25.000Z</time>
      </trkpt>
      <trkpt lat="48.86215" lon="2.2974">
        <ele>30.799999237061</ele>
        <time>2017-04-10T18:40:37.000Z</time>
      </trkpt>
      <trkpt lat="48.86206" lon="2.29717">
        <ele>31.200000762939</ele>
        <time>2017-04-10T18:40:44.000Z</time>
      </trkpt>
      <trkpt lat="48.86206" lon="2.29696">
        <ele>31</ele>
        <time>2017-04-10T18:40:50.000Z</time>
      </trkpt>
      <trkpt lat="48.86203" lon="2.29689">
        <ele>31.200000762939</ele>
        <time>2017-04-10T18:40:54.000Z</time>
      </trkpt>
      <trkpt lat="48.86206" lon="2.29685">
        <ele>30.799999237061</ele>
        <time>2017-04-10T18:41:02.000Z</time>
      </trkpt>
      <trkpt lat="48.86214" lon="2.29687">
        <ele>30.200000762939</ele>
        <time>2017-04-10T18:41:20.000Z</time>
      </trkpt>
      <trkpt lat="48.86216" lon="2.29717">
        <ele>30.39999961853</ele>
        <time>2017-04-10T18:41:30.000Z</time>
      </trkpt>
      <trkpt lat="48.86211" lon="2.29737">
        <ele>31</ele>
        <time>2017-04-10T18:41:40.000Z</time>
      </trkpt>
      <trkpt lat="48.86208" lon="2.29735">
        <ele>31.200000762939</ele>
        <time>2017-04-10T18:41:44.000Z</time>
      </trkpt>
      <trkpt lat="48.86195" lon="2.29725">
        <ele>32.400001525879</ele>
        <time>2017-04-10T18:41:58.000Z</time>
      </trkpt>
      <trkpt lat="48.86197" lon="2.29736">
        <ele>32.200000762939</ele>
        <time>2017-04-10T18:42:04.000Z</time>
      </trkpt>
      <trkpt lat="48.86199" lon="2.29738">
        <ele>32.200000762939</ele>
        <time>2017-04-10T18:42:05.000Z</time>
      </trkpt>
      <trkpt lat="48.86209" lon="2.29733">
        <ele>31.200000762939</ele>
        <time>2017-04-10T18:42:10.000Z</time>
      </trkpt>
      <trkpt lat="48.86225" lon="2.29717">
        <ele>29.60000038147</ele>
        <time>2017-04-10T18:42:17.000Z</time>
      </trkpt>
      <trkpt lat="48.86243" lon="2.29703">
        <ele>28.39999961853</ele>
        <time>2017-04-10T18:42:26.000Z</time>
      </trkpt>
      <trkpt lat="48.86259" lon="2.2969">
        <ele>27.39999961853</ele>
        <time>2017-04-10T18:42:34.000Z</time>
      </trkpt>
      <trkpt lat="48.86277" lon="2.29678">
        <ele>27.200000762939</ele>
        <time>2017-04-10T18:42:43.000Z</time>
      </trkpt>
      <trkpt lat="48.86293" lon="2.29663">
        <ele>28.799999237061</ele>
        <time>2017-04-10T18:42:51.000Z</time>
      </trkpt>
      <trkpt lat="48.86306" lon="2.29652">
        <ele>30.39999961853</ele>
        <time>2017-04-10T18:42:58.000Z</time>
      </trkpt>
      <trkpt lat="48.86321" lon="2.29643">
        <ele>32</ele>
        <time>2017-04-10T18:43:35.000Z</time>
      </trkpt>
      <trkpt lat="48.8633" lon="2.29658">
        <ele>32</ele>
        <time>2017-04-10T18:43:49.000Z</time>
      </trkpt>
      <trkpt lat="48.86341" lon="2.29653">
        <ele>33.200000762939</ele>
        <time>2017-04-10T18:44:02.000Z</time>
      </trkpt>
      <trkpt lat="48.8635" lon="2.29639">
        <ele>34</ele>
        <time>2017-04-10T18:44:30.000Z</time>
      </trkpt>
      <trkpt lat="48.86367" lon="2.29628">
        <ele>35.400001525879</ele>
        <time>2017-04-10T18:44:39.000Z</time>
      </trkpt>
      <trkpt lat="48.86383" lon="2.29612">
        <ele>36.799999237061</ele>
        <time>2017-04-10T18:44:46.000Z</time>
      </trkpt>
      <trkpt lat="48.864" lon="2.296">
        <ele>39</ele>
        <time>2017-04-10T18:44:52.000Z</time>
      </trkpt>
      <trkpt lat="48.86417" lon="2.29592">
        <ele>41.200000762939</ele>
        <time>2017-04-10T18:44:57.000Z</time>
      </trkpt>
      <trkpt lat="48.86428" lon="2.29584">
        <ele>42.599998474121</ele>
        <time>2017-04-10T18:45:03.000Z</time>
      </trkpt>
      <trkpt lat="48.86437" lon="2.29575">
        <ele>44</ele>
        <time>2017-04-10T18:45:35.000Z</time>
      </trkpt>
      <trkpt lat="48.86458" lon="2.29574">
        <ele>47</ele>
        <time>2017-04-10T18:45:48.000Z</time>
      </trkpt>
      <trkpt lat="48.86465" lon="2.29575">
        <ele>47.799999237061</ele>
        <time>2017-04-10T18:45:52.000Z</time>
      </trkpt>
      <trkpt lat="48.86471" lon="2.29575">
        <ele>48.599998474121</ele>
        <time>2017-04-10T18:45:57.000Z</time>
      </trkpt>
      <trkpt lat="48.86474" lon="2.29574">
        <ele>49</ele>
        <time>2017-04-10T18:45:58.000Z</time>
      </trkpt>
      <trkpt lat="48.8649" lon="2.29572">
        <ele>51.400001525879</ele>
        <time>2017-04-10T18:46:14.000Z</time>
      </trkpt>
      <trkpt lat="48.86494" lon="2.29572">
        <ele>51.799999237061</ele>
        <time>2017-04-10T18:46:18.000Z</time>
      </trkpt>
      <trkpt lat="48.86505" lon="2.29551">
        <ele>54.599998474121</ele>
        <time>2017-04-10T18:46:40.000Z</time>
      </trkpt>
      <trkpt lat="48.86507" lon="2.29521">
        <ele>56.200000762939</ele>
        <time>2017-04-10T18:46:48.000Z</time>
      </trkpt>
      <trkpt lat="48.86508" lon="2.29491">
        <ele>57.599998474121</ele>
        <time>2017-04-10T18:46:54.000Z</time>
      </trkpt>
      <trkpt lat="48.86507" lon="2.29463">
        <ele>57.400001525879</ele>
        <time>2017-04-10T18:47:00.000Z</time>
      </trkpt>
      <trkpt lat="48.86504" lon="2.29433">
        <ele>56.599998474121</ele>
        <time>2017-04-10T18:47:06.000Z</time>
      </trkpt>
      <trkpt lat="48.86495" lon="2.29402">
        <ele>55.599998474121</ele>
        <time>2017-04-10T18:47:11.000Z</time>
      </trkpt>
      <trkpt lat="48.86488" lon="2.29373">
        <ele>55.400001525879</ele>
        <time>2017-04-10T18:47:16.000Z</time>
      </trkpt>
      <trkpt lat="48.86485" lon="2.29346">
        <ele>56.200000762939</ele>
        <time>2017-04-10T18:47:21.000Z</time>
      </trkpt>
      <trkpt lat="48.86487" lon="2.29315">
        <ele>58</ele>
        <time>2017-04-10T18:47:27.000Z</time>
      </trkpt>
      <trkpt lat="48.8649" lon="2.29284">
        <ele>60.200000762939</ele>
        <time>2017-04-10T18:47:33.000Z</time>
      </trkpt>
      <trkpt lat="48.86497" lon="2.29254">
        <ele>62</ele>
        <time>2017-04-10T18:47:39.000Z</time>
      </trkpt>
      <trkpt lat="48.86502" lon="2.29226">
        <ele>63.200000762939</ele>
        <time>2017-04-10T18:47:45.000Z</time>
      </trkpt>
      <trkpt lat="48.86504" lon="2.29195">
        <ele>62.599998474121</ele>
        <time>2017-04-10T18:47:52.000Z</time>
      </trkpt>
      <trkpt lat="48.86504" lon="2.2919">
        <ele>62.400001525879</ele>
        <time>2017-04-10T18:47:53.000Z</time>
      </trkpt>
      <trkpt lat="48.86499" lon="2.2917">
        <ele>61.799999237061</ele>
        <time>2017-04-10T18:48:00.000Z</time>
      </trkpt>
      <trkpt lat="48.86492" lon="2.29163">
        <ele>61.599998474121</ele>
        <time>2017-04-10T18:48:16.000Z</time>
      </trkpt>
      <trkpt lat="48.86486" lon="2.29159">
        <ele>61.799999237061</ele>
        <time>2017-04-10T18:48:22.000Z</time>
      </trkpt>
      <trkpt lat="48.86493" lon="2.2914">
        <ele>63</ele>
        <time>2017-04-10T18:48:43.000Z</time>
      </trkpt>
      <trkpt lat="48.86484" lon="2.29141">
        <ele>62.799999237061</ele>
        <time>2017-04-10T18:49:42.000Z</time>
      </trkpt>
      <trkpt lat="48.86487" lon="2.29113">
        <ele>64.400001525879</ele>
        <time>2017-04-10T18:49:48.000Z</time>
      </trkpt>
      <trkpt lat="48.86493" lon="2.29083">
        <ele>65.800003051758</ele>
        <time>2017-04-10T18:49:54.000Z</time>
      </trkpt>
      <trkpt lat="48.86494" lon="2.29054">
        <ele>68.199996948242</ele>
        <time>2017-04-10T18:50:01.000Z</time>
      </trkpt>
      <trkpt lat="48.86492" lon="2.29043">
        <ele>68.800003051758</ele>
        <time>2017-04-10T18:50:05.000Z</time>
      </trkpt>
      <trkpt lat="48.86491" lon="2.29025">
        <ele>69.800003051758</ele>
        <time>2017-04-10T18:50:10.000Z</time>
      </trkpt>
      <trkpt lat="48.86495" lon="2.28995">
        <ele>71</ele>
        <time>2017-04-10T18:50:16.000Z</time>
      </trkpt>
      <trkpt lat="48.86498" lon="2.28963">
        <ele>70.800003051758</ele>
        <time>2017-04-10T18:50:22.000Z</time>
      </trkpt>
      <trkpt lat="48.86503" lon="2.28935">
        <ele>71.400001525879</ele>
        <time>2017-04-10T18:50:28.000Z</time>
      </trkpt>
      <trkpt lat="48.86501" lon="2.28906">
        <ele>72.199996948242</ele>
        <time>2017-04-10T18:50:35.000Z</time>
      </trkpt>
      <trkpt lat="48.86503" lon="2.28896">
        <ele>72.400001525879</ele>
        <time>2017-04-10T18:50:40.000Z</time>
      </trkpt>
      <trkpt lat="48.865" lon="2.28885">
        <ele>72.599998474121</ele>
        <time>2017-04-10T18:51:04.000Z</time>
      </trkpt>
      <trkpt lat="48.86498" lon="2.28856">
        <ele>72.599998474121</ele>
        <time>2017-04-10T18:51:15.000Z</time>
      </trkpt>
      <trkpt lat="48.86503" lon="2.28828">
        <ele>72.400001525879</ele>
        <time>2017-04-10T18:51:23.000Z</time>
      </trkpt>
      <trkpt lat="48.86502" lon="2.28799">
        <ele>71.599998474121</ele>
        <time>2017-04-10T18:51:30.000Z</time>
      </trkpt>
      <trkpt lat="48.86502" lon="2.2877">
        <ele>70.599998474121</ele>
        <time>2017-04-10T18:51:36.000Z</time>
      </trkpt>
      <trkpt lat="48.86496" lon="2.28742">
        <ele>70</ele>
        <time>2017-04-10T18:51:41.000Z</time>
      </trkpt>
      <trkpt lat="48.86494" lon="2.28713">
        <ele>70</ele>
        <time>2017-04-10T18:51:47.000Z</time>
      </trkpt>
      <trkpt lat="48.86495" lon="2.28688">
        <ele>71.199996948242</ele>
        <time>2017-04-10T18:51:53.000Z</time>
      </trkpt>
      <trkpt lat="48.86497" lon="2.28673">
        <ele>72</ele>
        <time>2017-04-10T18:51:59.000Z</time>
      </trkpt>
      <trkpt lat="48.86501" lon="2.28667">
        <ele>72.400001525879</ele>
        <time>2017-04-10T18:52:04.000Z</time>
      </trkpt>
      <trkpt lat="48.86512" lon="2.28643">
        <ele>73.400001525879</ele>
        <time>2017-04-10T18:52:14.000Z</time>
      </trkpt>
      <trkpt lat="48.86528" lon="2.28622">
        <ele>74.599998474121</ele>
        <time>2017-04-10T18:52:20.000Z</time>
      </trkpt>
      <trkpt lat="48.8653" lon="2.28593">
        <ele>75.599998474121</ele>
        <time>2017-04-10T18:52:25.000Z</time>
      </trkpt>
      <trkpt lat="48.86535" lon="2.28566">
        <ele>76.400001525879</ele>
        <time>2017-04-10T18:52:30.000Z</time>
      </trkpt>
      <trkpt lat="48.86544" lon="2.28542">
        <ele>77.400001525879</ele>
        <time>2017-04-10T18:52:37.000Z</time>
      </trkpt>
      <trkpt lat="48.8655" lon="2.28511">
        <ele>78.400001525879</ele>
        <time>2017-04-10T18:52:43.000Z</time>
      </trkpt>
      <trkpt lat="48.86552" lon="2.28479">
        <ele>78.199996948242</ele>
        <time>2017-04-10T18:52:49.000Z</time>
      </trkpt>
      <trkpt lat="48.86555" lon="2.28449">
        <ele>77.400001525879</ele>
        <time>2017-04-10T18:52:55.000Z</time>
      </trkpt>
      <trkpt lat="48.86555" lon="2.28419">
        <ele>76.400001525879</ele>
        <time>2017-04-10T18:53:01.000Z</time>
      </trkpt>
      <trkpt lat="48.86549" lon="2.28392">
        <ele>76.599998474121</ele>
        <time>2017-04-10T18:53:06.000Z</time>
      </trkpt>
      <trkpt lat="48.86557" lon="2.28365">
        <ele>76.800003051758</ele>
        <time>2017-04-10T18:53:12.000Z</time>
      </trkpt>
      <trkpt lat="48.86561" lon="2.28349">
        <ele>77.800003051758</ele>
        <time>2017-04-10T18:53:19.000Z</time>
      </trkpt>
      <trkpt lat="48.8656" lon="2.28344">
        <ele>78</ele>
        <time>2017-04-10T18:53:23.000Z</time>
      </trkpt>
      <trkpt lat="48.86558" lon="2.28327">
        <ele>78.800003051758</ele>
        <time>2017-04-10T18:53:32.000Z</time>
      </trkpt>
      <trkpt lat="48.86567" lon="2.28314">
        <ele>78.800003051758</ele>
        <time>2017-04-10T18:53:36.000Z</time>
      </trkpt>
      <trkpt lat="48.86582" lon="2.28291">
        <ele>78.400001525879</ele>
        <time>2017-04-10T18:53:41.000Z</time>
      </trkpt>
      <trkpt lat="48.86596" lon="2.28266">
        <ele>77</ele>
        <time>2017-04-10T18:53:46.000Z</time>
      </trkpt>
      <trkpt lat="48.8661" lon="2.28243">
        <ele>75.599998474121</ele>
        <time>2017-04-10T18:53:51.000Z</time>
      </trkpt>
      <trkpt lat="48.86619" lon="2.28215">
        <ele>73.599998474121</ele>
        <time>2017-04-10T18:53:56.000Z</time>
      </trkpt>
      <trkpt lat="48.8662" lon="2.2818">
        <ele>71.400001525879</ele>
        <time>2017-04-10T18:54:02.000Z</time>
      </trkpt>
      <trkpt lat="48.86629" lon="2.28154">
        <ele>70</ele>
        <time>2017-04-10T18:54:07.000Z</time>
      </trkpt>
      <trkpt lat="48.86638" lon="2.28124">
        <ele>67.800003051758</ele>
        <time>2017-04-10T18:54:12.000Z</time>
      </trkpt>
      <trkpt lat="48.86647" lon="2.28093">
        <ele>67.800003051758</ele>
        <time>2017-04-10T18:54:17.000Z</time>
      </trkpt>
      <trkpt lat="48.86654" lon="2.2807">
        <ele>68.199996948242</ele>
        <time>2017-04-10T18:54:21.000Z</time>
      </trkpt>
      <trkpt lat="48.86664" lon="2.28041">
        <ele>68.400001525879</ele>
        <time>2017-04-10T18:54:26.000Z</time>
      </trkpt>
      <trkpt lat="48.86667" lon="2.28023">
        <ele>68.199996948242</ele>
        <time>2017-04-10T18:54:29.000Z</time>
      </trkpt>
      <trkpt lat="48.86671" lon="2.28005">
        <ele>67.800003051758</ele>
        <time>2017-04-10T18:54:33.000Z</time>
      </trkpt>
      <trkpt lat="48.86673" lon="2.28001">
        <ele>67.800003051758</ele>
        <time>2017-04-10T18:54:34.000Z</time>
      </trkpt>
      <trkpt lat="48.86681" lon="2.27991">
        <ele>68</ele>
        <time>2017-04-10T18:54:37.000Z</time>
      </trkpt>
      <trkpt lat="48.86692" lon="2.27967">
        <ele>68</ele>
        <time>2017-04-10T18:54:42.000Z</time>
      </trkpt>
      <trkpt lat="48.86701" lon="2.27938">
        <ele>68.199996948242</ele>
        <time>2017-04-10T18:54:48.000Z</time>
      </trkpt>
      <trkpt lat="48.86708" lon="2.27911">
        <ele>68</ele>
        <time>2017-04-10T18:54:54.000Z</time>
      </trkpt>
      <trkpt lat="48.86714" lon="2.27883">
        <ele>68.400001525879</ele>
        <time>2017-04-10T18:55:01.000Z</time>
      </trkpt>
      <trkpt lat="48.86728" lon="2.27863">
        <ele>68.400001525879</ele>
        <time>2017-04-10T18:55:06.000Z</time>
      </trkpt>
      <trkpt lat="48.86742" lon="2.27842">
        <ele>66.400001525879</ele>
        <time>2017-04-10T18:55:11.000Z</time>
      </trkpt>
      <trkpt lat="48.86754" lon="2.27819">
        <ele>65.199996948242</ele>
        <time>2017-04-10T18:55:16.000Z</time>
      </trkpt>
      <trkpt lat="48.86759" lon="2.27789">
        <ele>63.799999237061</ele>
        <time>2017-04-10T18:55:21.000Z</time>
      </trkpt>
      <trkpt lat="48.86768" lon="2.27763">
        <ele>62</ele>
        <time>2017-04-10T18:55:26.000Z</time>
      </trkpt>
      <trkpt lat="48.86783" lon="2.27739">
        <ele>60.799999237061</ele>
        <time>2017-04-10T18:55:31.000Z</time>
      </trkpt>
      <trkpt lat="48.86779" lon="2.27697">
        <ele>60.400001525879</ele>
        <time>2017-04-10T18:55:37.000Z</time>
      </trkpt>
      <trkpt lat="48.86783" lon="2.27667">
        <ele>60</ele>
        <time>2017-04-10T18:55:41.000Z</time>
      </trkpt>
      <trkpt lat="48.86795" lon="2.27638">
        <ele>60.200000762939</ele>
        <time>2017-04-10T18:55:45.000Z</time>
      </trkpt>
      <trkpt lat="48.86806" lon="2.27611">
        <ele>60.400001525879</ele>
        <time>2017-04-10T18:55:49.000Z</time>
      </trkpt>
      <trkpt lat="48.86817" lon="2.27584">
        <ele>61</ele>
        <time>2017-04-10T18:55:53.000Z</time>
      </trkpt>
      <trkpt lat="48.86824" lon="2.27555">
        <ele>61.599998474121</ele>
        <time>2017-04-10T18:55:58.000Z</time>
      </trkpt>
      <trkpt lat="48.86829" lon="2.27545">
        <ele>61.400001525879</ele>
        <time>2017-04-10T18:56:00.000Z</time>
      </trkpt>
      <trkpt lat="48.86837" lon="2.2752">
        <ele>60.400001525879</ele>
        <time>2017-04-10T18:56:04.000Z</time>
      </trkpt>
      <trkpt lat="48.8684" lon="2.27515">
        <ele>60</ele>
        <time>2017-04-10T18:56:05.000Z</time>
      </trkpt>
      <trkpt lat="48.86848" lon="2.2749">
        <ele>59.200000762939</ele>
        <time>2017-04-10T18:56:09.000Z</time>
      </trkpt>
      <trkpt lat="48.86858" lon="2.27465">
        <ele>57.799999237061</ele>
        <time>2017-04-10T18:56:14.000Z</time>
      </trkpt>
      <trkpt lat="48.86865" lon="2.2745">
        <ele>57.200000762939</ele>
        <time>2017-04-10T18:56:17.000Z</time>
      </trkpt>
      <trkpt lat="48.86872" lon="2.27435">
        <ele>56.400001525879</ele>
        <time>2017-04-10T18:56:21.000Z</time>
      </trkpt>
      <trkpt lat="48.86873" lon="2.27408">
        <ele>55.200000762939</ele>
        <time>2017-04-10T18:56:29.000Z</time>
      </trkpt>
      <trkpt lat="48.86874" lon="2.27405">
        <ele>55.200000762939</ele>
        <time>2017-04-10T18:56:30.000Z</time>
      </trkpt>
      <trkpt lat="48.86885" lon="2.27382">
        <ele>54.599998474121</ele>
        <time>2017-04-10T18:56:39.000Z</time>
      </trkpt>
      <trkpt lat="48.86889" lon="2.27377">
        <ele>54.400001525879</ele>
        <time>2017-04-10T18:56:43.000Z</time>
      </trkpt>
      <trkpt lat="48.86896" lon="2.27362">
        <ele>54.400001525879</ele>
        <time>2017-04-10T18:56:55.000Z</time>
      </trkpt>
      <trkpt lat="48.86912" lon="2.27346">
        <ele>54.799999237061</ele>
        <time>2017-04-10T18:57:01.000Z</time>
      </trkpt>
      <trkpt lat="48.86914" lon="2.27341">
        <ele>54.799999237061</ele>
        <time>2017-04-10T18:57:02.000Z</time>
      </trkpt>
      <trkpt lat="48.86926" lon="2.27315">
        <ele>54.599998474121</ele>
        <time>2017-04-10T18:57:08.000Z</time>
      </trkpt>
      <trkpt lat="48.86936" lon="2.27286">
        <ele>56.400001525879</ele>
        <time>2017-04-10T18:57:14.000Z</time>
      </trkpt>
      <trkpt lat="48.86948" lon="2.2726">
        <ele>57</ele>
        <time>2017-04-10T18:57:19.000Z</time>
      </trkpt>
      <trkpt lat="48.86958" lon="2.27236">
        <ele>55.200000762939</ele>
        <time>2017-04-10T18:57:24.000Z</time>
      </trkpt>
      <trkpt lat="48.86964" lon="2.27227">
        <ele>54</ele>
        <time>2017-04-10T18:57:27.000Z</time>
      </trkpt>
      <trkpt lat="48.86971" lon="2.2723">
        <ele>53.599998474121</ele>
        <time>2017-04-10T18:57:31.000Z</time>
      </trkpt>
      <trkpt lat="48.86989" lon="2.27242">
        <ele>52.400001525879</ele>
        <time>2017-04-10T18:57:38.000Z</time>
      </trkpt>
      <trkpt lat="48.87006" lon="2.27259">
        <ele>50.799999237061</ele>
        <time>2017-04-10T18:57:43.000Z</time>
      </trkpt>
      <trkpt lat="48.87021" lon="2.27276">
        <ele>49.200000762939</ele>
        <time>2017-04-10T18:57:48.000Z</time>
      </trkpt>
      <trkpt lat="48.87035" lon="2.27295">
        <ele>48.799999237061</ele>
        <time>2017-04-10T18:57:53.000Z</time>
      </trkpt>
      <trkpt lat="48.87049" lon="2.27313">
        <ele>48.400001525879</ele>
        <time>2017-04-10T18:57:58.000Z</time>
      </trkpt>
      <trkpt lat="48.87063" lon="2.27335">
        <ele>48.200000762939</ele>
        <time>2017-04-10T18:58:04.000Z</time>
      </trkpt>
      <trkpt lat="48.87075" lon="2.27358">
        <ele>48.799999237061</ele>
        <time>2017-04-10T18:58:10.000Z</time>
      </trkpt>
      <trkpt lat="48.87086" lon="2.27382">
        <ele>49.400001525879</ele>
        <time>2017-04-10T18:58:15.000Z</time>
      </trkpt>
      <trkpt lat="48.871" lon="2.27402">
        <ele>49.799999237061</ele>
        <time>2017-04-10T18:58:21.000Z</time>
      </trkpt>
      <trkpt lat="48.87113" lon="2.27423">
        <ele>49.799999237061</ele>
        <time>2017-04-10T18:58:28.000Z</time>
      </trkpt>
      <trkpt lat="48.87117" lon="2.27427">
        <ele>49.599998474121</ele>
        <time>2017-04-10T18:58:32.000Z</time>
      </trkpt>
      <trkpt lat="48.87116" lon="2.27451">
        <ele>49</ele>
        <time>2017-04-10T18:58:58.000Z</time>
      </trkpt>
      <trkpt lat="48.87115" lon="2.2748">
        <ele>48.400001525879</ele>
        <time>2017-04-10T18:59:06.000Z</time>
      </trkpt>
      <trkpt lat="48.87104" lon="2.275">
        <ele>48.599998474121</ele>
        <time>2017-04-10T18:59:13.000Z</time>
      </trkpt>
      <trkpt lat="48.87097" lon="2.27529">
        <ele>53</ele>
        <time>2017-04-10T18:59:40.000Z</time>
      </trkpt>
      <trkpt lat="48.87106" lon="2.27556">
        <ele>55.200000762939</ele>
        <time>2017-04-10T18:59:47.000Z</time>
      </trkpt>
      <trkpt lat="48.8712" lon="2.27578">
        <ele>55.599998474121</ele>
        <time>2017-04-10T18:59:54.000Z</time>
      </trkpt>
      <trkpt lat="48.87136" lon="2.27589">
        <ele>53.200000762939</ele>
        <time>2017-04-10T19:00:03.000Z</time>
      </trkpt>
      <trkpt lat="48.87156" lon="2.27593">
        <ele>50.200000762939</ele>
        <time>2017-04-10T19:00:11.000Z</time>
      </trkpt>
      <trkpt lat="48.87166" lon="2.27612">
        <ele>48.400001525879</ele>
        <time>2017-04-10T19:00:21.000Z</time>
      </trkpt>
      <trkpt lat="48.87185" lon="2.27614">
        <ele>45.200000762939</ele>
        <time>2017-04-10T19:00:32.000Z</time>
      </trkpt>
      <trkpt lat="48.87199" lon="2.27628">
        <ele>44.799999237061</ele>
        <time>2017-04-10T19:00:39.000Z</time>
      </trkpt>
      <trkpt lat="48.87207" lon="2.27622">
        <ele>45</ele>
        <time>2017-04-10T19:00:43.000Z</time>
      </trkpt>
      <trkpt lat="48.87223" lon="2.27616">
        <ele>45.799999237061</ele>
        <time>2017-04-10T19:00:51.000Z</time>
      </trkpt>
      <trkpt lat="48.87242" lon="2.27624">
        <ele>46</ele>
        <time>2017-04-10T19:00:59.000Z</time>
      </trkpt>
      <trkpt lat="48.87248" lon="2.27631">
        <ele>46.200000762939</ele>
        <time>2017-04-10T19:01:03.000Z</time>
      </trkpt>
      <trkpt lat="48.87265" lon="2.27648">
        <ele>46.599998474121</ele>
        <time>2017-04-10T19:01:20.000Z</time>
      </trkpt>
      <trkpt lat="48.8728" lon="2.27666">
        <ele>47</ele>
        <time>2017-04-10T19:01:27.000Z</time>
      </trkpt>
      <trkpt lat="48.87296" lon="2.2768">
        <ele>47.599998474121</ele>
        <time>2017-04-10T19:01:32.000Z</time>
      </trkpt>
      <trkpt lat="48.87311" lon="2.27697">
        <ele>48.200000762939</ele>
        <time>2017-04-10T19:01:38.000Z</time>
      </trkpt>
      <trkpt lat="48.87327" lon="2.27716">
        <ele>49</ele>
        <time>2017-04-10T19:01:44.000Z</time>
      </trkpt>
      <trkpt lat="48.87342" lon="2.27738">
        <ele>50.200000762939</ele>
        <time>2017-04-10T19:01:51.000Z</time>
      </trkpt>
      <trkpt lat="48.87356" lon="2.27756">
        <ele>50.200000762939</ele>
        <time>2017-04-10T19:01:57.000Z</time>
      </trkpt>
      <trkpt lat="48.87372" lon="2.27768">
        <ele>49.200000762939</ele>
        <time>2017-04-10T19:02:02.000Z</time>
      </trkpt>
      <trkpt lat="48.87388" lon="2.27787">
        <ele>48.599998474121</ele>
        <time>2017-04-10T19:02:07.000Z</time>
      </trkpt>
      <trkpt lat="48.87405" lon="2.27805">
        <ele>47.799999237061</ele>
        <time>2017-04-10T19:02:13.000Z</time>
      </trkpt>
      <trkpt lat="48.87422" lon="2.27821">
        <ele>47</ele>
        <time>2017-04-10T19:02:18.000Z</time>
      </trkpt>
      <trkpt lat="48.87436" lon="2.2783">
        <ele>46.200000762939</ele>
        <time>2017-04-10T19:02:23.000Z</time>
      </trkpt>
      <trkpt lat="48.87448" lon="2.27842">
        <ele>46.200000762939</ele>
        <time>2017-04-10T19:02:29.000Z</time>
      </trkpt>
      <trkpt lat="48.87469" lon="2.27858">
        <ele>46</ele>
        <time>2017-04-10T19:02:35.000Z</time>
      </trkpt>
      <trkpt lat="48.87473" lon="2.27861">
        <ele>46</ele>
        <time>2017-04-10T19:02:36.000Z</time>
      </trkpt>
      <trkpt lat="48.87485" lon="2.27882">
        <ele>46.400001525879</ele>
        <time>2017-04-10T19:02:40.000Z</time>
      </trkpt>
      <trkpt lat="48.87501" lon="2.27915">
        <ele>47.799999237061</ele>
        <time>2017-04-10T19:02:44.000Z</time>
      </trkpt>
      <trkpt lat="48.87512" lon="2.27938">
        <ele>48.799999237061</ele>
        <time>2017-04-10T19:02:47.000Z</time>
      </trkpt>
      <trkpt lat="48.87526" lon="2.27955">
        <ele>49.200000762939</ele>
        <time>2017-04-10T19:02:51.000Z</time>
      </trkpt>
      <trkpt lat="48.87529" lon="2.27959">
        <ele>49.200000762939</ele>
        <time>2017-04-10T19:02:52.000Z</time>
      </trkpt>
      <trkpt lat="48.87541" lon="2.2798">
        <ele>49.400001525879</ele>
        <time>2017-04-10T19:02:57.000Z</time>
      </trkpt>
      <trkpt lat="48.87543" lon="2.27985">
        <ele>49.599998474121</ele>
        <time>2017-04-10T19:02:59.000Z</time>
      </trkpt>
      <trkpt lat="48.87546" lon="2.27991">
        <ele>49.799999237061</ele>
        <time>2017-04-10T19:03:01.000Z</time>
      </trkpt>
      <trkpt lat="48.87554" lon="2.28009">
        <ele>49.200000762939</ele>
        <time>2017-04-10T19:03:06.000Z</time>
      </trkpt>
      <trkpt lat="48.87568" lon="2.28034">
        <ele>47.599998474121</ele>
        <time>2017-04-10T19:03:12.000Z</time>
      </trkpt>
      <trkpt lat="48.87579" lon="2.28061">
        <ele>45.799999237061</ele>
        <time>2017-04-10T19:03:17.000Z</time>
      </trkpt>
      <trkpt lat="48.87587" lon="2.28087">
        <ele>44.799999237061</ele>
        <time>2017-04-10T19:03:22.000Z</time>
      </trkpt>
      <trkpt lat="48.87596" lon="2.28111">
        <ele>45.200000762939</ele>
        <time>2017-04-10T19:03:26.000Z</time>
      </trkpt>
      <trkpt lat="48.87604" lon="2.28137">
        <ele>46</ele>
        <time>2017-04-10T19:03:30.000Z</time>
      </trkpt>
      <trkpt lat="48.87613" lon="2.28163">
        <ele>46.599998474121</ele>
        <time>2017-04-10T19:03:34.000Z</time>
      </trkpt>
      <trkpt lat="48.87624" lon="2.28189">
        <ele>45.799999237061</ele>
        <time>2017-04-10T19:03:38.000Z</time>
      </trkpt>
      <trkpt lat="48.87634" lon="2.28213">
        <ele>45.200000762939</ele>
        <time>2017-04-10T19:03:43.000Z</time>
      </trkpt>
      <trkpt lat="48.87635" lon="2.28216">
        <ele>45.200000762939</ele>
        <time>2017-04-10T19:03:44.000Z</time>
      </trkpt>
      <trkpt lat="48.87641" lon="2.28228">
        <ele>44.799999237061</ele>
        <time>2017-04-10T19:03:48.000Z</time>
      </trkpt>
      <trkpt lat="48.87651" lon="2.2824">
        <ele>44</ele>
        <time>2017-04-10T19:03:52.000Z</time>
      </trkpt>
      <trkpt lat="48.8767" lon="2.28255">
        <ele>43</ele>
        <time>2017-04-10T19:03:58.000Z</time>
      </trkpt>
      <trkpt lat="48.87679" lon="2.28257">
        <ele>42.200000762939</ele>
        <time>2017-04-10T19:04:03.000Z</time>
      </trkpt>
      <trkpt lat="48.87688" lon="2.28239">
        <ele>40.200000762939</ele>
        <time>2017-04-10T19:04:34.000Z</time>
      </trkpt>
      <trkpt lat="48.87692" lon="2.28208">
        <ele>40.799999237061</ele>
        <time>2017-04-10T19:04:40.000Z</time>
      </trkpt>
      <trkpt lat="48.87698" lon="2.28181">
        <ele>41.200000762939</ele>
        <time>2017-04-10T19:04:45.000Z</time>
      </trkpt>
      <trkpt lat="48.87709" lon="2.28159">
        <ele>40.799999237061</ele>
        <time>2017-04-10T19:04:50.000Z</time>
      </trkpt>
      <trkpt lat="48.87722" lon="2.2814">
        <ele>39.599998474121</ele>
        <time>2017-04-10T19:04:55.000Z</time>
      </trkpt>
      <trkpt lat="48.87735" lon="2.2812">
        <ele>38.400001525879</ele>
        <time>2017-04-10T19:05:03.000Z</time>
      </trkpt>
      <trkpt lat="48.87738" lon="2.28111">
        <ele>38.400001525879</ele>
        <time>2017-04-10T19:05:07.000Z</time>
      </trkpt>
      <trkpt lat="48.87753" lon="2.28099">
        <ele>38.200000762939</ele>
        <time>2017-04-10T19:05:33.000Z</time>
      </trkpt>
      <trkpt lat="48.87772" lon="2.28089">
        <ele>38</ele>
        <time>2017-04-10T19:05:41.000Z</time>
      </trkpt>
      <trkpt lat="48.8779" lon="2.28083">
        <ele>37.799999237061</ele>
        <time>2017-04-10T19:05:47.000Z</time>
      </trkpt>
      <trkpt lat="48.87808" lon="2.28068">
        <ele>37.599998474121</ele>
        <time>2017-04-10T19:05:54.000Z</time>
      </trkpt>
      <trkpt lat="48.87822" lon="2.28044">
        <ele>37.400001525879</ele>
        <time>2017-04-10T19:06:00.000Z</time>
      </trkpt>
      <trkpt lat="48.8783" lon="2.28019">
        <ele>39.799999237061</ele>
        <time>2017-04-10T19:06:06.000Z</time>
      </trkpt>
      <trkpt lat="48.87831" lon="2.28012">
        <ele>40.400001525879</ele>
        <time>2017-04-10T19:06:08.000Z</time>
      </trkpt>
      <trkpt lat="48.87833" lon="2.27998">
        <ele>41.400001525879</ele>
        <time>2017-04-10T19:06:13.000Z</time>
      </trkpt>
      <trkpt lat="48.87833" lon="2.27988">
        <ele>42.200000762939</ele>
        <time>2017-04-10T19:06:19.000Z</time>
      </trkpt>
      <trkpt lat="48.87825" lon="2.27975">
        <ele>42.599998474121</ele>
        <time>2017-04-10T19:06:23.000Z</time>
      </trkpt>
      <trkpt lat="48.87809" lon="2.2796">
        <ele>42.799999237061</ele>
        <time>2017-04-10T19:06:28.000Z</time>
      </trkpt>
      <trkpt lat="48.87794" lon="2.27946">
        <ele>42.799999237061</ele>
        <time>2017-04-10T19:06:33.000Z</time>
      </trkpt>
      <trkpt lat="48.87785" lon="2.27929">
        <ele>43.599998474121</ele>
        <time>2017-04-10T19:06:37.000Z</time>
      </trkpt>
      <trkpt lat="48.87788" lon="2.27901">
        <ele>45</ele>
        <time>2017-04-10T19:06:42.000Z</time>
      </trkpt>
      <trkpt lat="48.87788" lon="2.27895">
        <ele>45.200000762939</ele>
        <time>2017-04-10T19:06:43.000Z</time>
      </trkpt>
      <trkpt lat="48.87793" lon="2.27864">
        <ele>46.200000762939</ele>
        <time>2017-04-10T19:06:48.000Z</time>
      </trkpt>
      <trkpt lat="48.87801" lon="2.27833">
        <ele>46.599998474121</ele>
        <time>2017-04-10T19:06:53.000Z</time>
      </trkpt>
      <trkpt lat="48.87809" lon="2.27802">
        <ele>46.799999237061</ele>
        <time>2017-04-10T19:06:58.000Z</time>
      </trkpt>
      <trkpt lat="48.87816" lon="2.27772">
        <ele>46.599998474121</ele>
        <time>2017-04-10T19:07:03.000Z</time>
      </trkpt>
      <trkpt lat="48.87822" lon="2.27739">
        <ele>45.599998474121</ele>
        <time>2017-04-10T19:07:08.000Z</time>
      </trkpt>
      <trkpt lat="48.87828" lon="2.27709">
        <ele>44.599998474121</ele>
        <time>2017-04-10T19:07:12.000Z</time>
      </trkpt>
      <trkpt lat="48.87834" lon="2.27682">
        <ele>44.400001525879</ele>
        <time>2017-04-10T19:07:16.000Z</time>
      </trkpt>
      <trkpt lat="48.8784" lon="2.27656">
        <ele>44</ele>
        <time>2017-04-10T19:07:20.000Z</time>
      </trkpt>
      <trkpt lat="48.87844" lon="2.27628">
        <ele>44.400001525879</ele>
        <time>2017-04-10T19:07:24.000Z</time>
      </trkpt>
      <trkpt lat="48.87848" lon="2.276">
        <ele>45.400001525879</ele>
        <time>2017-04-10T19:07:28.000Z</time>
      </trkpt>
      <trkpt lat="48.8785" lon="2.27571">
        <ele>46.400001525879</ele>
        <time>2017-04-10T19:07:32.000Z</time>
      </trkpt>
      <trkpt lat="48.87853" lon="2.27544">
        <ele>47.400001525879</ele>
        <time>2017-04-10T19:07:36.000Z</time>
      </trkpt>
      <trkpt lat="48.87857" lon="2.27516">
        <ele>48.599998474121</ele>
        <time>2017-04-10T19:07:40.000Z</time>
      </trkpt>
      <trkpt lat="48.87859" lon="2.27489">
        <ele>48.599998474121</ele>
        <time>2017-04-10T19:07:44.000Z</time>
      </trkpt>
      <trkpt lat="48.87864" lon="2.27464">
        <ele>47.400001525879</ele>
        <time>2017-04-10T19:07:48.000Z</time>
      </trkpt>
      <trkpt lat="48.8787" lon="2.27432">
        <ele>46</ele>
        <time>2017-04-10T19:07:53.000Z</time>
      </trkpt>
      <trkpt lat="48.87875" lon="2.27406">
        <ele>45.599998474121</ele>
        <time>2017-04-10T19:07:57.000Z</time>
      </trkpt>
      <trkpt lat="48.87878" lon="2.27378">
        <ele>46</ele>
        <time>2017-04-10T19:08:01.000Z</time>
      </trkpt>
      <trkpt lat="48.8788" lon="2.2735">
        <ele>46.200000762939</ele>
        <time>2017-04-10T19:08:05.000Z</time>
      </trkpt>
      <trkpt lat="48.87883" lon="2.27317">
        <ele>45.200000762939</ele>
        <time>2017-04-10T19:08:10.000Z</time>
      </trkpt>
      <trkpt lat="48.87888" lon="2.27285">
        <ele>42.599998474121</ele>
        <time>2017-04-10T19:08:15.000Z</time>
      </trkpt>
      <trkpt lat="48.87892" lon="2.27253">
        <ele>43.400001525879</ele>
        <time>2017-04-10T19:08:20.000Z</time>
      </trkpt>
      <trkpt lat="48.87897" lon="2.27224">
        <ele>44.200000762939</ele>
        <time>2017-04-10T19:08:25.000Z</time>
      </trkpt>
      <trkpt lat="48.87899" lon="2.27212">
        <ele>44.400001525879</ele>
        <time>2017-04-10T19:08:27.000Z</time>
      </trkpt>
      <trkpt lat="48.87901" lon="2.27178">
        <ele>45</ele>
        <time>2017-04-10T19:08:32.000Z</time>
      </trkpt>
      <trkpt lat="48.87903" lon="2.2715">
        <ele>45.599998474121</ele>
        <time>2017-04-10T19:08:36.000Z</time>
      </trkpt>
      <trkpt lat="48.8791" lon="2.2712">
        <ele>46.400001525879</ele>
        <time>2017-04-10T19:08:41.000Z</time>
      </trkpt>
      <trkpt lat="48.87912" lon="2.27102">
        <ele>46.799999237061</ele>
        <time>2017-04-10T19:08:44.000Z</time>
      </trkpt>
      <trkpt lat="48.87914" lon="2.27073">
        <ele>46.799999237061</ele>
        <time>2017-04-10T19:08:49.000Z</time>
      </trkpt>
      <trkpt lat="48.87916" lon="2.27045">
        <ele>46.200000762939</ele>
        <time>2017-04-10T19:08:53.000Z</time>
      </trkpt>
      <trkpt lat="48.87917" lon="2.27013">
        <ele>46.400001525879</ele>
        <time>2017-04-10T19:08:58.000Z</time>
      </trkpt>
      <trkpt lat="48.87921" lon="2.26982">
        <ele>46.599998474121</ele>
        <time>2017-04-10T19:09:03.000Z</time>
      </trkpt>
      <trkpt lat="48.87925" lon="2.26952">
        <ele>46.799999237061</ele>
        <time>2017-04-10T19:09:08.000Z</time>
      </trkpt>
      <trkpt lat="48.87928" lon="2.26922">
        <ele>46.799999237061</ele>
        <time>2017-04-10T19:09:13.000Z</time>
      </trkpt>
      <trkpt lat="48.87933" lon="2.26892">
        <ele>46.799999237061</ele>
        <time>2017-04-10T19:09:18.000Z</time>
      </trkpt>
      <trkpt lat="48.87936" lon="2.26864">
        <ele>46</ele>
        <time>2017-04-10T19:09:23.000Z</time>
      </trkpt>
      <trkpt lat="48.8794" lon="2.26835">
        <ele>45.200000762939</ele>
        <time>2017-04-10T19:09:28.000Z</time>
      </trkpt>
      <trkpt lat="48.87941" lon="2.26829">
        <ele>45</ele>
        <time>2017-04-10T19:09:29.000Z</time>
      </trkpt>
      <trkpt lat="48.87944" lon="2.26799">
        <ele>45.400001525879</ele>
        <time>2017-04-10T19:09:34.000Z</time>
      </trkpt>
      <trkpt lat="48.87948" lon="2.26769">
        <ele>45.799999237061</ele>
        <time>2017-04-10T19:09:39.000Z</time>
      </trkpt>
      <trkpt lat="48.87954" lon="2.2674">
        <ele>46.400001525879</ele>
        <time>2017-04-10T19:09:44.000Z</time>
      </trkpt>
      <trkpt lat="48.87959" lon="2.26708">
        <ele>46.400001525879</ele>
        <time>2017-04-10T19:09:49.000Z</time>
      </trkpt>
      <trkpt lat="48.87964" lon="2.26676">
        <ele>46.599998474121</ele>
        <time>2017-04-10T19:09:54.000Z</time>
      </trkpt>
      <trkpt lat="48.87966" lon="2.26649">
        <ele>46</ele>
        <time>2017-04-10T19:09:58.000Z</time>
      </trkpt>
      <trkpt lat="48.87966" lon="2.26628">
        <ele>45</ele>
        <time>2017-04-10T19:10:01.000Z</time>
      </trkpt>
      <trkpt lat="48.87968" lon="2.26601">
        <ele>43.599998474121</ele>
        <time>2017-04-10T19:10:05.000Z</time>
      </trkpt>
      <trkpt lat="48.87971" lon="2.26576">
        <ele>41.799999237061</ele>
        <time>2017-04-10T19:10:09.000Z</time>
      </trkpt>
      <trkpt lat="48.87974" lon="2.26557">
        <ele>41.200000762939</ele>
        <time>2017-04-10T19:10:12.000Z</time>
      </trkpt>
      <trkpt lat="48.87977" lon="2.26531">
        <ele>40.599998474121</ele>
        <time>2017-04-10T19:10:16.000Z</time>
      </trkpt>
      <trkpt lat="48.8798" lon="2.26502">
        <ele>42</ele>
        <time>2017-04-10T19:10:20.000Z</time>
      </trkpt>
      <trkpt lat="48.87983" lon="2.26474">
        <ele>42.200000762939</ele>
        <time>2017-04-10T19:10:24.000Z</time>
      </trkpt>
      <trkpt lat="48.87987" lon="2.26447">
        <ele>42</ele>
        <time>2017-04-10T19:10:28.000Z</time>
      </trkpt>
      <trkpt lat="48.8799" lon="2.26419">
        <ele>42</ele>
        <time>2017-04-10T19:10:32.000Z</time>
      </trkpt>
      <trkpt lat="48.87995" lon="2.26387">
        <ele>41.599998474121</ele>
        <time>2017-04-10T19:10:37.000Z</time>
      </trkpt>
      <trkpt lat="48.87999" lon="2.26361">
        <ele>39.799999237061</ele>
        <time>2017-04-10T19:10:41.000Z</time>
      </trkpt>
      <trkpt lat="48.88" lon="2.26354">
        <ele>39.200000762939</ele>
        <time>2017-04-10T19:10:42.000Z</time>
      </trkpt>
      <trkpt lat="48.88005" lon="2.26324">
        <ele>37.400001525879</ele>
        <time>2017-04-10T19:10:47.000Z</time>
      </trkpt>
      <trkpt lat="48.8801" lon="2.26294">
        <ele>37.799999237061</ele>
        <time>2017-04-10T19:10:52.000Z</time>
      </trkpt>
      <trkpt lat="48.88014" lon="2.26274">
        <ele>38.200000762939</ele>
        <time>2017-04-10T19:10:55.000Z</time>
      </trkpt>
      <trkpt lat="48.88018" lon="2.2625">
        <ele>38.799999237061</ele>
        <time>2017-04-10T19:10:59.000Z</time>
      </trkpt>
      <trkpt lat="48.88022" lon="2.26216">
        <ele>39.599998474121</ele>
        <time>2017-04-10T19:11:04.000Z</time>
      </trkpt>
      <trkpt lat="48.88022" lon="2.262">
        <ele>40</ele>
        <time>2017-04-10T19:11:06.000Z</time>
      </trkpt>
      <trkpt lat="48.88024" lon="2.26169">
        <ele>40.799999237061</ele>
        <time>2017-04-10T19:11:10.000Z</time>
      </trkpt>
      <trkpt lat="48.8803" lon="2.26139">
        <ele>40.799999237061</ele>
        <time>2017-04-10T19:11:14.000Z</time>
      </trkpt>
      <trkpt lat="48.88034" lon="2.26107">
        <ele>40.400001525879</ele>
        <time>2017-04-10T19:11:18.000Z</time>
      </trkpt>
      <trkpt lat="48.88037" lon="2.26083">
        <ele>40.200000762939</ele>
        <time>2017-04-10T19:11:21.000Z</time>
      </trkpt>
      <trkpt lat="48.88043" lon="2.26055">
        <ele>40.799999237061</ele>
        <time>2017-04-10T19:11:25.000Z</time>
      </trkpt>
      <trkpt lat="48.88048" lon="2.26026">
        <ele>41.200000762939</ele>
        <time>2017-04-10T19:11:29.000Z</time>
      </trkpt>
      <trkpt lat="48.8805" lon="2.25993">
        <ele>42</ele>
        <time>2017-04-10T19:11:33.000Z</time>
      </trkpt>
      <trkpt lat="48.88051" lon="2.25964">
        <ele>42</ele>
        <time>2017-04-10T19:11:37.000Z</time>
      </trkpt>
      <trkpt lat="48.88052" lon="2.25943">
        <ele>42</ele>
        <time>2017-04-10T19:11:40.000Z</time>
      </trkpt>
      <trkpt lat="48.88055" lon="2.25926">
        <ele>42.400001525879</ele>
        <time>2017-04-10T19:11:43.000Z</time>
      </trkpt>
      <trkpt lat="48.88055" lon="2.25915">
        <ele>42.599998474121</ele>
        <time>2017-04-10T19:11:45.000Z</time>
      </trkpt>
      <trkpt lat="48.88055" lon="2.25895">
        <ele>41.799999237061</ele>
        <time>2017-04-10T19:11:49.000Z</time>
      </trkpt>
      <trkpt lat="48.8805" lon="2.25866">
        <ele>40.599998474121</ele>
        <time>2017-04-10T19:12:04.000Z</time>
      </trkpt>
      <trkpt lat="48.8804" lon="2.25852">
        <ele>39.599998474121</ele>
        <time>2017-04-10T19:12:06.000Z</time>
      </trkpt>
      <trkpt lat="48.88032" lon="2.25841">
        <ele>38.799999237061</ele>
        <time>2017-04-10T19:12:14.000Z</time>
      </trkpt>
      <trkpt lat="48.88042" lon="2.2583">
        <ele>39.400001525879</ele>
        <time>2017-04-10T19:13:19.000Z</time>
      </trkpt>
      <trkpt lat="48.88038" lon="2.25831">
        <ele>39</ele>
        <time>2017-04-10T19:13:44.000Z</time>
      </trkpt>
      <trkpt lat="48.88032" lon="2.25841">
        <ele>38.799999237061</ele>
        <time>2017-04-10T19:14:55.000Z</time>
      </trkpt>
      <trkpt lat="48.88051" lon="2.25846">
        <ele>40.200000762939</ele>
        <time>2017-04-10T19:15:04.000Z</time>
      </trkpt>
      <trkpt lat="48.88074" lon="2.25862">
        <ele>42</ele>
        <time>2017-04-10T19:15:11.000Z</time>
      </trkpt>
      <trkpt lat="48.88094" lon="2.25871">
        <ele>43.599998474121</ele>
        <time>2017-04-10T19:15:16.000Z</time>
      </trkpt>
      <trkpt lat="48.88113" lon="2.25879">
        <ele>44.400001525879</ele>
        <time>2017-04-10T19:15:21.000Z</time>
      </trkpt>
      <trkpt lat="48.88132" lon="2.25886">
        <ele>43.799999237061</ele>
        <time>2017-04-10T19:15:25.000Z</time>
      </trkpt>
      <trkpt lat="48.88153" lon="2.25895">
        <ele>43.200000762939</ele>
        <time>2017-04-10T19:15:30.000Z</time>
      </trkpt>
      <trkpt lat="48.88172" lon="2.25904">
        <ele>42.599998474121</ele>
        <time>2017-04-10T19:15:34.000Z</time>
      </trkpt>
      <trkpt lat="48.88191" lon="2.25911">
        <ele>42</ele>
        <time>2017-04-10T19:15:38.000Z</time>
      </trkpt>
      <trkpt lat="48.88209" lon="2.2592">
        <ele>41.400001525879</ele>
        <time>2017-04-10T19:15:42.000Z</time>
      </trkpt>
      <trkpt lat="48.88226" lon="2.25926">
        <ele>41</ele>
        <time>2017-04-10T19:15:46.000Z</time>
      </trkpt>
      <trkpt lat="48.88247" lon="2.2593">
        <ele>40.400001525879</ele>
        <time>2017-04-10T19:15:51.000Z</time>
      </trkpt>
      <trkpt lat="48.88255" lon="2.25933">
        <ele>40.200000762939</ele>
        <time>2017-04-10T19:15:53.000Z</time>
      </trkpt>
      <trkpt lat="48.88273" lon="2.25943">
        <ele>39.799999237061</ele>
        <time>2017-04-10T19:15:57.000Z</time>
      </trkpt>
      <trkpt lat="48.88278" lon="2.25945">
        <ele>40</ele>
        <time>2017-04-10T19:15:58.000Z</time>
      </trkpt>
      <trkpt lat="48.88288" lon="2.25952">
        <ele>40.599998474121</ele>
        <time>2017-04-10T19:16:01.000Z</time>
      </trkpt>
      <trkpt lat="48.88305" lon="2.25961">
        <ele>41.599998474121</ele>
        <time>2017-04-10T19:16:07.000Z</time>
      </trkpt>
      <trkpt lat="48.8832" lon="2.25968">
        <ele>42.599998474121</ele>
        <time>2017-04-10T19:16:12.000Z</time>
      </trkpt>
      <trkpt lat="48.88341" lon="2.25975">
        <ele>43.599998474121</ele>
        <time>2017-04-10T19:16:18.000Z</time>
      </trkpt>
      <trkpt lat="48.8836" lon="2.25983">
        <ele>44.599998474121</ele>
        <time>2017-04-10T19:16:23.000Z</time>
      </trkpt>
      <trkpt lat="48.88378" lon="2.25991">
        <ele>44.799999237061</ele>
        <time>2017-04-10T19:16:27.000Z</time>
      </trkpt>
      <trkpt lat="48.88397" lon="2.25997">
        <ele>45</ele>
        <time>2017-04-10T19:16:32.000Z</time>
      </trkpt>
      <trkpt lat="48.88415" lon="2.26009">
        <ele>44.599998474121</ele>
        <time>2017-04-10T19:16:38.000Z</time>
      </trkpt>
      <trkpt lat="48.88431" lon="2.26021">
        <ele>44.400001525879</ele>
        <time>2017-04-10T19:16:44.000Z</time>
      </trkpt>
      <trkpt lat="48.88433" lon="2.26024">
        <ele>44.400001525879</ele>
        <time>2017-04-10T19:16:45.000Z</time>
      </trkpt>
      <trkpt lat="48.88441" lon="2.26032">
        <ele>44.200000762939</ele>
        <time>2017-04-10T19:16:50.000Z</time>
      </trkpt>
      <trkpt lat="48.88443" lon="2.26033">
        <ele>44.200000762939</ele>
        <time>2017-04-10T19:16:52.000Z</time>
      </trkpt>
      <trkpt lat="48.88456" lon="2.26055">
        <ele>43.599998474121</ele>
        <time>2017-04-10T19:17:25.000Z</time>
      </trkpt>
      <trkpt lat="48.8847" lon="2.26077">
        <ele>43</ele>
        <time>2017-04-10T19:17:32.000Z</time>
      </trkpt>
      <trkpt lat="48.88488" lon="2.26079">
        <ele>43</ele>
        <time>2017-04-10T19:17:38.000Z</time>
      </trkpt>
      <trkpt lat="48.8851" lon="2.26077">
        <ele>43</ele>
        <time>2017-04-10T19:17:42.000Z</time>
      </trkpt>
      <trkpt lat="48.88529" lon="2.2608">
        <ele>42.799999237061</ele>
        <time>2017-04-10T19:17:47.000Z</time>
      </trkpt>
      <trkpt lat="48.8855" lon="2.26085">
        <ele>42.200000762939</ele>
        <time>2017-04-10T19:17:54.000Z</time>
      </trkpt>
      <trkpt lat="48.88571" lon="2.26089">
        <ele>41.599998474121</ele>
        <time>2017-04-10T19:18:02.000Z</time>
      </trkpt>
      <trkpt lat="48.88589" lon="2.261">
        <ele>41</ele>
        <time>2017-04-10T19:18:07.000Z</time>
      </trkpt>
      <trkpt lat="48.88603" lon="2.26116">
        <ele>40.200000762939</ele>
        <time>2017-04-10T19:18:11.000Z</time>
      </trkpt>
      <trkpt lat="48.88613" lon="2.26144">
        <ele>39.400001525879</ele>
        <time>2017-04-10T19:18:15.000Z</time>
      </trkpt>
      <trkpt lat="48.88627" lon="2.26162">
        <ele>39</ele>
        <time>2017-04-10T19:18:20.000Z</time>
      </trkpt>
      <trkpt lat="48.88644" lon="2.26178">
        <ele>39.400001525879</ele>
        <time>2017-04-10T19:18:26.000Z</time>
      </trkpt>
      <trkpt lat="48.88659" lon="2.26202">
        <ele>40</ele>
        <time>2017-04-10T19:18:33.000Z</time>
      </trkpt>
      <trkpt lat="48.88673" lon="2.26222">
        <ele>40.400001525879</ele>
        <time>2017-04-10T19:18:37.000Z</time>
      </trkpt>
      <trkpt lat="48.88686" lon="2.26243">
        <ele>41</ele>
        <time>2017-04-10T19:18:41.000Z</time>
      </trkpt>
      <trkpt lat="48.88699" lon="2.26263">
        <ele>41</ele>
        <time>2017-04-10T19:18:45.000Z</time>
      </trkpt>
      <trkpt lat="48.88714" lon="2.26283">
        <ele>40.599998474121</ele>
        <time>2017-04-10T19:18:49.000Z</time>
      </trkpt>
      <trkpt lat="48.88729" lon="2.26305">
        <ele>40.200000762939</ele>
        <time>2017-04-10T19:18:54.000Z</time>
      </trkpt>
      <trkpt lat="48.88742" lon="2.26322">
        <ele>40</ele>
        <time>2017-04-10T19:19:01.000Z</time>
      </trkpt>
      <trkpt lat="48.88756" lon="2.26341">
        <ele>39.400001525879</ele>
        <time>2017-04-10T19:19:06.000Z</time>
      </trkpt>
      <trkpt lat="48.88771" lon="2.2637">
        <ele>38.599998474121</ele>
        <time>2017-04-10T19:19:09.000Z</time>
      </trkpt>
      <trkpt lat="48.88783" lon="2.26394">
        <ele>38.599998474121</ele>
        <time>2017-04-10T19:19:12.000Z</time>
      </trkpt>
      <trkpt lat="48.88796" lon="2.26416">
        <ele>38.400001525879</ele>
        <time>2017-04-10T19:19:16.000Z</time>
      </trkpt>
      <trkpt lat="48.88811" lon="2.2644">
        <ele>37.799999237061</ele>
        <time>2017-04-10T19:19:21.000Z</time>
      </trkpt>
      <trkpt lat="48.88816" lon="2.26449">
        <ele>37.599998474121</ele>
        <time>2017-04-10T19:19:23.000Z</time>
      </trkpt>
      <trkpt lat="48.88823" lon="2.26462">
        <ele>37.200000762939</ele>
        <time>2017-04-10T19:19:26.000Z</time>
      </trkpt>
      <trkpt lat="48.88827" lon="2.2647">
        <ele>37</ele>
        <time>2017-04-10T19:19:28.000Z</time>
      </trkpt>
      <trkpt lat="48.88832" lon="2.26482">
        <ele>36.799999237061</ele>
        <time>2017-04-10T19:19:31.000Z</time>
      </trkpt>
      <trkpt lat="48.88841" lon="2.26498">
        <ele>36.599998474121</ele>
        <time>2017-04-10T19:19:35.000Z</time>
      </trkpt>
      <trkpt lat="48.88852" lon="2.26523">
        <ele>36.599998474121</ele>
        <time>2017-04-10T19:19:40.000Z</time>
      </trkpt>
      <trkpt lat="48.88854" lon="2.26527">
        <ele>36.400001525879</ele>
        <time>2017-04-10T19:19:41.000Z</time>
      </trkpt>
      <trkpt lat="48.88866" lon="2.26551">
        <ele>36</ele>
        <time>2017-04-10T19:19:47.000Z</time>
      </trkpt>
      <trkpt lat="48.88879" lon="2.26579">
        <ele>35.599998474121</ele>
        <time>2017-04-10T19:19:52.000Z</time>
      </trkpt>
      <trkpt lat="48.88889" lon="2.26608">
        <ele>35.799999237061</ele>
        <time>2017-04-10T19:19:57.000Z</time>
      </trkpt>
      <trkpt lat="48.88902" lon="2.26633">
        <ele>35.400001525879</ele>
        <time>2017-04-10T19:20:00.000Z</time>
      </trkpt>
      <trkpt lat="48.88916" lon="2.26657">
        <ele>34.799999237061</ele>
        <time>2017-04-10T19:20:03.000Z</time>
      </trkpt>
      <trkpt lat="48.88919" lon="2.26665">
        <ele>34.799999237061</ele>
        <time>2017-04-10T19:20:04.000Z</time>
      </trkpt>
      <trkpt lat="48.88932" lon="2.26692">
        <ele>34.599998474121</ele>
        <time>2017-04-10T19:20:08.000Z</time>
      </trkpt>
      <trkpt lat="48.88943" lon="2.26716">
        <ele>34.599998474121</ele>
        <time>2017-04-10T19:20:12.000Z</time>
      </trkpt>
      <trkpt lat="48.88954" lon="2.26739">
        <ele>35</ele>
        <time>2017-04-10T19:20:16.000Z</time>
      </trkpt>
      <trkpt lat="48.88959" lon="2.26751">
        <ele>35</ele>
        <time>2017-04-10T19:20:18.000Z</time>
      </trkpt>
      <trkpt lat="48.88969" lon="2.26777">
        <ele>34.400001525879</ele>
        <time>2017-04-10T19:20:22.000Z</time>
      </trkpt>
      <trkpt lat="48.88981" lon="2.26801">
        <ele>34.599998474121</ele>
        <time>2017-04-10T19:20:26.000Z</time>
      </trkpt>
      <trkpt lat="48.88992" lon="2.26827">
        <ele>34.799999237061</ele>
        <time>2017-04-10T19:20:30.000Z</time>
      </trkpt>
      <trkpt lat="48.89" lon="2.26852">
        <ele>34.400001525879</ele>
        <time>2017-04-10T19:20:34.000Z</time>
      </trkpt>
      <trkpt lat="48.8901" lon="2.26877">
        <ele>33.799999237061</ele>
        <time>2017-04-10T19:20:38.000Z</time>
      </trkpt>
      <trkpt lat="48.89021" lon="2.26902">
        <ele>33.200000762939</ele>
        <time>2017-04-10T19:20:42.000Z</time>
      </trkpt>
      <trkpt lat="48.89023" lon="2.26909">
        <ele>33</ele>
        <time>2017-04-10T19:20:43.000Z</time>
      </trkpt>
      <trkpt lat="48.89033" lon="2.26933">
        <ele>33.200000762939</ele>
        <time>2017-04-10T19:20:47.000Z</time>
      </trkpt>
      <trkpt lat="48.89038" lon="2.26945">
        <ele>33.400001525879</ele>
        <time>2017-04-10T19:20:49.000Z</time>
      </trkpt>
      <trkpt lat="48.89046" lon="2.26966">
        <ele>33.799999237061</ele>
        <time>2017-04-10T19:20:53.000Z</time>
      </trkpt>
      <trkpt lat="48.89057" lon="2.26993">
        <ele>34.200000762939</ele>
        <time>2017-04-10T19:20:58.000Z</time>
      </trkpt>
      <trkpt lat="48.89064" lon="2.27009">
        <ele>33.799999237061</ele>
        <time>2017-04-10T19:21:01.000Z</time>
      </trkpt>
      <trkpt lat="48.89072" lon="2.27029">
        <ele>33.400001525879</ele>
        <time>2017-04-10T19:21:06.000Z</time>
      </trkpt>
      <trkpt lat="48.89074" lon="2.27036">
        <ele>33.200000762939</ele>
        <time>2017-04-10T19:21:10.000Z</time>
      </trkpt>
      <trkpt lat="48.89085" lon="2.27062">
        <ele>32.599998474121</ele>
        <time>2017-04-10T19:21:28.000Z</time>
      </trkpt>
      <trkpt lat="48.89098" lon="2.27088">
        <ele>32.400001525879</ele>
        <time>2017-04-10T19:21:34.000Z</time>
      </trkpt>
      <trkpt lat="48.8911" lon="2.27116">
        <ele>33</ele>
        <time>2017-04-10T19:21:40.000Z</time>
      </trkpt>
      <trkpt lat="48.89123" lon="2.27142">
        <ele>33.799999237061</ele>
        <time>2017-04-10T19:21:45.000Z</time>
      </trkpt>
      <trkpt lat="48.89136" lon="2.27167">
        <ele>34.200000762939</ele>
        <time>2017-04-10T19:21:49.000Z</time>
      </trkpt>
      <trkpt lat="48.89147" lon="2.27191">
        <ele>33.799999237061</ele>
        <time>2017-04-10T19:21:53.000Z</time>
      </trkpt>
      <trkpt lat="48.89159" lon="2.27216">
        <ele>33.400001525879</ele>
        <time>2017-04-10T19:21:57.000Z</time>
      </trkpt>
      <trkpt lat="48.8917" lon="2.27242">
        <ele>33.599998474121</ele>
        <time>2017-04-10T19:22:01.000Z</time>
      </trkpt>
      <trkpt lat="48.89176" lon="2.27255">
        <ele>33.799999237061</ele>
        <time>2017-04-10T19:22:03.000Z</time>
      </trkpt>
      <trkpt lat="48.89181" lon="2.27268">
        <ele>33.799999237061</ele>
        <time>2017-04-10T19:22:05.000Z</time>
      </trkpt>
      <trkpt lat="48.89192" lon="2.2729">
        <ele>34</ele>
        <time>2017-04-10T19:22:08.000Z</time>
      </trkpt>
      <trkpt lat="48.89204" lon="2.27313">
        <ele>34.799999237061</ele>
        <time>2017-04-10T19:22:11.000Z</time>
      </trkpt>
      <trkpt lat="48.89218" lon="2.27341">
        <ele>35</ele>
        <time>2017-04-10T19:22:15.000Z</time>
      </trkpt>
      <trkpt lat="48.89231" lon="2.27369">
        <ele>34.599998474121</ele>
        <time>2017-04-10T19:22:19.000Z</time>
      </trkpt>
      <trkpt lat="48.89242" lon="2.27396">
        <ele>34.400001525879</ele>
        <time>2017-04-10T19:22:23.000Z</time>
      </trkpt>
      <trkpt lat="48.8925" lon="2.27422">
        <ele>34.200000762939</ele>
        <time>2017-04-10T19:22:27.000Z</time>
      </trkpt>
      <trkpt lat="48.89259" lon="2.27448">
        <ele>34.200000762939</ele>
        <time>2017-04-10T19:22:31.000Z</time>
      </trkpt>
      <trkpt lat="48.89263" lon="2.27461">
        <ele>34.200000762939</ele>
        <time>2017-04-10T19:22:33.000Z</time>
      </trkpt>
      <trkpt lat="48.89273" lon="2.27486">
        <ele>34</ele>
        <time>2017-04-10T19:22:37.000Z</time>
      </trkpt>
      <trkpt lat="48.89285" lon="2.2751">
        <ele>33.799999237061</ele>
        <time>2017-04-10T19:22:41.000Z</time>
      </trkpt>
      <trkpt lat="48.89299" lon="2.27535">
        <ele>33.599998474121</ele>
        <time>2017-04-10T19:22:45.000Z</time>
      </trkpt>
      <trkpt lat="48.89308" lon="2.27554">
        <ele>33.799999237061</ele>
        <time>2017-04-10T19:22:48.000Z</time>
      </trkpt>
      <trkpt lat="48.8932" lon="2.27581">
        <ele>33.799999237061</ele>
        <time>2017-04-10T19:22:52.000Z</time>
      </trkpt>
      <trkpt lat="48.89323" lon="2.27587">
        <ele>33.799999237061</ele>
        <time>2017-04-10T19:22:53.000Z</time>
      </trkpt>
      <trkpt lat="48.89333" lon="2.2761">
        <ele>34.200000762939</ele>
        <time>2017-04-10T19:22:57.000Z</time>
      </trkpt>
      <trkpt lat="48.89335" lon="2.27617">
        <ele>34.400001525879</ele>
        <time>2017-04-10T19:22:59.000Z</time>
      </trkpt>
      <trkpt lat="48.89338" lon="2.27644">
        <ele>35.200000762939</ele>
        <time>2017-04-10T19:23:29.000Z</time>
      </trkpt>
      <trkpt lat="48.89348" lon="2.27672">
        <ele>35</ele>
        <time>2017-04-10T19:23:34.000Z</time>
      </trkpt>
      <trkpt lat="48.89359" lon="2.27702">
        <ele>35.200000762939</ele>
        <time>2017-04-10T19:23:38.000Z</time>
      </trkpt>
      <trkpt lat="48.89368" lon="2.2773">
        <ele>35.599998474121</ele>
        <time>2017-04-10T19:23:42.000Z</time>
      </trkpt>
      <trkpt lat="48.8938" lon="2.27759">
        <ele>36</ele>
        <time>2017-04-10T19:23:46.000Z</time>
      </trkpt>
      <trkpt lat="48.8939" lon="2.27785">
        <ele>36.200000762939</ele>
        <time>2017-04-10T19:23:50.000Z</time>
      </trkpt>
      <trkpt lat="48.89403" lon="2.27811">
        <ele>36.799999237061</ele>
        <time>2017-04-10T19:23:54.000Z</time>
      </trkpt>
      <trkpt lat="48.89411" lon="2.27836">
        <ele>36.799999237061</ele>
        <time>2017-04-10T19:23:58.000Z</time>
      </trkpt>
      <trkpt lat="48.89421" lon="2.27867">
        <ele>35.400001525879</ele>
        <time>2017-04-10T19:24:03.000Z</time>
      </trkpt>
      <trkpt lat="48.89434" lon="2.27895">
        <ele>34</ele>
        <time>2017-04-10T19:24:08.000Z</time>
      </trkpt>
      <trkpt lat="48.89446" lon="2.2792">
        <ele>32.799999237061</ele>
        <time>2017-04-10T19:24:13.000Z</time>
      </trkpt>
      <trkpt lat="48.89457" lon="2.27946">
        <ele>33</ele>
        <time>2017-04-10T19:24:18.000Z</time>
      </trkpt>
      <trkpt lat="48.89463" lon="2.27963">
        <ele>33</ele>
        <time>2017-04-10T19:24:21.000Z</time>
      </trkpt>
      <trkpt lat="48.89474" lon="2.27984">
        <ele>33</ele>
        <time>2017-04-10T19:24:25.000Z</time>
      </trkpt>
      <trkpt lat="48.89483" lon="2.28011">
        <ele>33</ele>
        <time>2017-04-10T19:24:29.000Z</time>
      </trkpt>
      <trkpt lat="48.89492" lon="2.28037">
        <ele>32.400001525879</ele>
        <time>2017-04-10T19:24:33.000Z</time>
      </trkpt>
      <trkpt lat="48.89497" lon="2.28051">
        <ele>32.200000762939</ele>
        <time>2017-04-10T19:24:35.000Z</time>
      </trkpt>
      <trkpt lat="48.89505" lon="2.28076">
        <ele>31.60000038147</ele>
        <time>2017-04-10T19:24:39.000Z</time>
      </trkpt>
      <trkpt lat="48.89514" lon="2.28101">
        <ele>32</ele>
        <time>2017-04-10T19:24:43.000Z</time>
      </trkpt>
      <trkpt lat="48.89524" lon="2.28128">
        <ele>32.799999237061</ele>
        <time>2017-04-10T19:24:47.000Z</time>
      </trkpt>
      <trkpt lat="48.89534" lon="2.28154">
        <ele>33.599998474121</ele>
        <time>2017-04-10T19:24:51.000Z</time>
      </trkpt>
      <trkpt lat="48.8954" lon="2.28173">
        <ele>34</ele>
        <time>2017-04-10T19:24:54.000Z</time>
      </trkpt>
      <trkpt lat="48.89546" lon="2.28191">
        <ele>34</ele>
        <time>2017-04-10T19:24:58.000Z</time>
      </trkpt>
      <trkpt lat="48.89549" lon="2.28197">
        <ele>33.799999237061</ele>
        <time>2017-04-10T19:25:02.000Z</time>
      </trkpt>
      <trkpt lat="48.8955" lon="2.28198">
        <ele>33.799999237061</ele>
        <time>2017-04-10T19:25:03.000Z</time>
      </trkpt>
      <trkpt lat="48.89554" lon="2.28224">
        <ele>33.599998474121</ele>
        <time>2017-04-10T19:25:40.000Z</time>
      </trkpt>
      <trkpt lat="48.89564" lon="2.28248">
        <ele>33.400001525879</ele>
        <time>2017-04-10T19:25:45.000Z</time>
      </trkpt>
      <trkpt lat="48.89576" lon="2.28271">
        <ele>33.400001525879</ele>
        <time>2017-04-10T19:25:50.000Z</time>
      </trkpt>
      <trkpt lat="48.89587" lon="2.28295">
        <ele>33.200000762939</ele>
        <time>2017-04-10T19:25:55.000Z</time>
      </trkpt>
      <trkpt lat="48.896" lon="2.28321">
        <ele>33</ele>
        <time>2017-04-10T19:26:00.000Z</time>
      </trkpt>
      <trkpt lat="48.8961" lon="2.28345">
        <ele>33</ele>
        <time>2017-04-10T19:26:04.000Z</time>
      </trkpt>
      <trkpt lat="48.89621" lon="2.28368">
        <ele>33.200000762939</ele>
        <time>2017-04-10T19:26:08.000Z</time>
      </trkpt>
      <trkpt lat="48.89633" lon="2.28395">
        <ele>33.400001525879</ele>
        <time>2017-04-10T19:26:13.000Z</time>
      </trkpt>
      <trkpt lat="48.89641" lon="2.28409">
        <ele>33.400001525879</ele>
        <time>2017-04-10T19:26:16.000Z</time>
      </trkpt>
      <trkpt lat="48.8965" lon="2.28431">
        <ele>33.599998474121</ele>
        <time>2017-04-10T19:26:20.000Z</time>
      </trkpt>
      <trkpt lat="48.89655" lon="2.28448">
        <ele>33.599998474121</ele>
        <time>2017-04-10T19:26:23.000Z</time>
      </trkpt>
      <trkpt lat="48.89656" lon="2.2848">
        <ele>34.799999237061</ele>
        <time>2017-04-10T19:26:28.000Z</time>
      </trkpt>
      <trkpt lat="48.89659" lon="2.28513">
        <ele>35.799999237061</ele>
        <time>2017-04-10T19:26:33.000Z</time>
      </trkpt>
      <trkpt lat="48.89658" lon="2.28527">
        <ele>36</ele>
        <time>2017-04-10T19:26:35.000Z</time>
      </trkpt>
      <trkpt lat="48.89657" lon="2.28534">
        <ele>36</ele>
        <time>2017-04-10T19:26:36.000Z</time>
      </trkpt>
      <trkpt lat="48.89658" lon="2.28566">
        <ele>36.200000762939</ele>
        <time>2017-04-10T19:26:41.000Z</time>
      </trkpt>
      <trkpt lat="48.89657" lon="2.28579">
        <ele>36.400001525879</ele>
        <time>2017-04-10T19:26:43.000Z</time>
      </trkpt>
      <trkpt lat="48.89656" lon="2.28605">
        <ele>37.599998474121</ele>
        <time>2017-04-10T19:26:47.000Z</time>
      </trkpt>
      <trkpt lat="48.89658" lon="2.28623">
        <ele>38.400001525879</ele>
        <time>2017-04-10T19:26:50.000Z</time>
      </trkpt>
      <trkpt lat="48.89655" lon="2.28639">
        <ele>38.599998474121</ele>
        <time>2017-04-10T19:26:53.000Z</time>
      </trkpt>
      <trkpt lat="48.89653" lon="2.28653">
        <ele>38.200000762939</ele>
        <time>2017-04-10T19:26:56.000Z</time>
      </trkpt>
      <trkpt lat="48.89652" lon="2.28661">
        <ele>38</ele>
        <time>2017-04-10T19:26:58.000Z</time>
      </trkpt>
      <trkpt lat="48.89653" lon="2.28664">
        <ele>38</ele>
        <time>2017-04-10T19:27:00.000Z</time>
      </trkpt>
      <trkpt lat="48.89661" lon="2.28689">
        <ele>38.599998474121</ele>
        <time>2017-04-10T19:27:18.000Z</time>
      </trkpt>
      <trkpt lat="48.8967" lon="2.28718">
        <ele>39.400001525879</ele>
        <time>2017-04-10T19:27:24.000Z</time>
      </trkpt>
      <trkpt lat="48.89677" lon="2.28745">
        <ele>39.599998474121</ele>
        <time>2017-04-10T19:27:29.000Z</time>
      </trkpt>
      <trkpt lat="48.89688" lon="2.28774">
        <ele>38.599998474121</ele>
        <time>2017-04-10T19:27:35.000Z</time>
      </trkpt>
      <trkpt lat="48.89695" lon="2.288">
        <ele>37.599998474121</ele>
        <time>2017-04-10T19:27:39.000Z</time>
      </trkpt>
      <trkpt lat="48.89702" lon="2.28826">
        <ele>36.599998474121</ele>
        <time>2017-04-10T19:27:43.000Z</time>
      </trkpt>
      <trkpt lat="48.89714" lon="2.28853">
        <ele>36</ele>
        <time>2017-04-10T19:27:48.000Z</time>
      </trkpt>
      <trkpt lat="48.89721" lon="2.28883">
        <ele>35</ele>
        <time>2017-04-10T19:27:53.000Z</time>
      </trkpt>
      <trkpt lat="48.89726" lon="2.28911">
        <ele>33.799999237061</ele>
        <time>2017-04-10T19:27:58.000Z</time>
      </trkpt>
      <trkpt lat="48.8973" lon="2.2893">
        <ele>33.599998474121</ele>
        <time>2017-04-10T19:28:01.000Z</time>
      </trkpt>
      <trkpt lat="48.89737" lon="2.28961">
        <ele>33.200000762939</ele>
        <time>2017-04-10T19:28:06.000Z</time>
      </trkpt>
      <trkpt lat="48.89742" lon="2.28988">
        <ele>34</ele>
        <time>2017-04-10T19:28:10.000Z</time>
      </trkpt>
      <trkpt lat="48.89744" lon="2.29001">
        <ele>34.400001525879</ele>
        <time>2017-04-10T19:28:12.000Z</time>
      </trkpt>
      <trkpt lat="48.89748" lon="2.29012">
        <ele>34.400001525879</ele>
        <time>2017-04-10T19:28:14.000Z</time>
      </trkpt>
      <trkpt lat="48.89752" lon="2.29027">
        <ele>34.599998474121</ele>
        <time>2017-04-10T19:28:17.000Z</time>
      </trkpt>
      <trkpt lat="48.89756" lon="2.2905">
        <ele>34.799999237061</ele>
        <time>2017-04-10T19:28:21.000Z</time>
      </trkpt>
      <trkpt lat="48.8976" lon="2.29081">
        <ele>35.200000762939</ele>
        <time>2017-04-10T19:28:26.000Z</time>
      </trkpt>
      <trkpt lat="48.89761" lon="2.29087">
        <ele>35</ele>
        <time>2017-04-10T19:28:27.000Z</time>
      </trkpt>
      <trkpt lat="48.89768" lon="2.29115">
        <ele>34.599998474121</ele>
        <time>2017-04-10T19:28:31.000Z</time>
      </trkpt>
      <trkpt lat="48.89772" lon="2.29142">
        <ele>34.200000762939</ele>
        <time>2017-04-10T19:28:35.000Z</time>
      </trkpt>
      <trkpt lat="48.89774" lon="2.29157">
        <ele>34</ele>
        <time>2017-04-10T19:28:37.000Z</time>
      </trkpt>
      <trkpt lat="48.89775" lon="2.29171">
        <ele>34.200000762939</ele>
        <time>2017-04-10T19:28:39.000Z</time>
      </trkpt>
      <trkpt lat="48.89779" lon="2.29202">
        <ele>35.200000762939</ele>
        <time>2017-04-10T19:28:44.000Z</time>
      </trkpt>
      <trkpt lat="48.89781" lon="2.29206">
        <ele>35.400001525879</ele>
        <time>2017-04-10T19:28:45.000Z</time>
      </trkpt>
      <trkpt lat="48.8979" lon="2.29233">
        <ele>36.200000762939</ele>
        <time>2017-04-10T19:28:49.000Z</time>
      </trkpt>
      <trkpt lat="48.89798" lon="2.29257">
        <ele>36.599998474121</ele>
        <time>2017-04-10T19:28:53.000Z</time>
      </trkpt>
      <trkpt lat="48.89806" lon="2.29278">
        <ele>36.599998474121</ele>
        <time>2017-04-10T19:28:57.000Z</time>
      </trkpt>
      <trkpt lat="48.89813" lon="2.29308">
        <ele>36.200000762939</ele>
        <time>2017-04-10T19:29:01.000Z</time>
      </trkpt>
      <trkpt lat="48.89821" lon="2.29337">
        <ele>36</ele>
        <time>2017-04-10T19:29:05.000Z</time>
      </trkpt>
      <trkpt lat="48.89825" lon="2.29349">
        <ele>36</ele>
        <time>2017-04-10T19:29:07.000Z</time>
      </trkpt>
      <trkpt lat="48.89833" lon="2.29375">
        <ele>36</ele>
        <time>2017-04-10T19:29:11.000Z</time>
      </trkpt>
      <trkpt lat="48.8984" lon="2.29398">
        <ele>36</ele>
        <time>2017-04-10T19:29:15.000Z</time>
      </trkpt>
      <trkpt lat="48.89842" lon="2.29417">
        <ele>36.400001525879</ele>
        <time>2017-04-10T19:29:19.000Z</time>
      </trkpt>
      <trkpt lat="48.89842" lon="2.29423">
        <ele>36.200000762939</ele>
        <time>2017-04-10T19:29:22.000Z</time>
      </trkpt>
      <trkpt lat="48.89842" lon="2.29426">
        <ele>36.200000762939</ele>
        <time>2017-04-10T19:29:24.000Z</time>
      </trkpt>
      <trkpt lat="48.89838" lon="2.29438">
        <ele>36.200000762939</ele>
        <time>2017-04-10T19:29:51.000Z</time>
      </trkpt>
      <trkpt lat="48.89845" lon="2.29466">
        <ele>35.599998474121</ele>
        <time>2017-04-10T19:29:57.000Z</time>
      </trkpt>
      <trkpt lat="48.89854" lon="2.29494">
        <ele>35.200000762939</ele>
        <time>2017-04-10T19:30:02.000Z</time>
      </trkpt>
      <trkpt lat="48.89862" lon="2.2952">
        <ele>34.599998474121</ele>
        <time>2017-04-10T19:30:07.000Z</time>
      </trkpt>
      <trkpt lat="48.89867" lon="2.29546">
        <ele>34.200000762939</ele>
        <time>2017-04-10T19:30:12.000Z</time>
      </trkpt>
      <trkpt lat="48.89877" lon="2.29579">
        <ele>33.799999237061</ele>
        <time>2017-04-10T19:30:18.000Z</time>
      </trkpt>
      <trkpt lat="48.89886" lon="2.29604">
        <ele>33.599998474121</ele>
        <time>2017-04-10T19:30:22.000Z</time>
      </trkpt>
      <trkpt lat="48.899" lon="2.29628">
        <ele>33.599998474121</ele>
        <time>2017-04-10T19:30:26.000Z</time>
      </trkpt>
      <trkpt lat="48.89914" lon="2.2965">
        <ele>33.400001525879</ele>
        <time>2017-04-10T19:30:30.000Z</time>
      </trkpt>
      <trkpt lat="48.89927" lon="2.29672">
        <ele>33.400001525879</ele>
        <time>2017-04-10T19:30:34.000Z</time>
      </trkpt>
      <trkpt lat="48.89941" lon="2.29694">
        <ele>33.400001525879</ele>
        <time>2017-04-10T19:30:38.000Z</time>
      </trkpt>
      <trkpt lat="48.89944" lon="2.297">
        <ele>33.400001525879</ele>
        <time>2017-04-10T19:30:39.000Z</time>
      </trkpt>
      <trkpt lat="48.89952" lon="2.29711">
        <ele>33.400001525879</ele>
        <time>2017-04-10T19:30:41.000Z</time>
      </trkpt>
      <trkpt lat="48.89967" lon="2.29732">
        <ele>33.599998474121</ele>
        <time>2017-04-10T19:30:45.000Z</time>
      </trkpt>
      <trkpt lat="48.89981" lon="2.29753">
        <ele>33.599998474121</ele>
        <time>2017-04-10T19:30:49.000Z</time>
      </trkpt>
      <trkpt lat="48.89994" lon="2.29775">
        <ele>33.599998474121</ele>
        <time>2017-04-10T19:30:53.000Z</time>
      </trkpt>
      <trkpt lat="48.90006" lon="2.29796">
        <ele>33.799999237061</ele>
        <time>2017-04-10T19:30:57.000Z</time>
      </trkpt>
      <trkpt lat="48.9002" lon="2.29823">
        <ele>34</ele>
        <time>2017-04-10T19:31:02.000Z</time>
      </trkpt>
      <trkpt lat="48.90028" lon="2.2984">
        <ele>33.799999237061</ele>
        <time>2017-04-10T19:31:05.000Z</time>
      </trkpt>
      <trkpt lat="48.90037" lon="2.29858">
        <ele>33.599998474121</ele>
        <time>2017-04-10T19:31:08.000Z</time>
      </trkpt>
      <trkpt lat="48.90048" lon="2.2988">
        <ele>33.400001525879</ele>
        <time>2017-04-10T19:31:12.000Z</time>
      </trkpt>
      <trkpt lat="48.9006" lon="2.29903">
        <ele>33.200000762939</ele>
        <time>2017-04-10T19:31:16.000Z</time>
      </trkpt>
      <trkpt lat="48.90062" lon="2.29909">
        <ele>33</ele>
        <time>2017-04-10T19:31:17.000Z</time>
      </trkpt>
      <trkpt lat="48.90074" lon="2.29931">
        <ele>32.799999237061</ele>
        <time>2017-04-10T19:31:21.000Z</time>
      </trkpt>
      <trkpt lat="48.90086" lon="2.2995">
        <ele>32.599998474121</ele>
        <time>2017-04-10T19:31:25.000Z</time>
      </trkpt>
      <trkpt lat="48.90098" lon="2.29976">
        <ele>32.200000762939</ele>
        <time>2017-04-10T19:31:30.000Z</time>
      </trkpt>
      <trkpt lat="48.90102" lon="2.29988">
        <ele>32.200000762939</ele>
        <time>2017-04-10T19:31:32.000Z</time>
      </trkpt>
      <trkpt lat="48.90107" lon="2.30007">
        <ele>32.200000762939</ele>
        <time>2017-04-10T19:31:35.000Z</time>
      </trkpt>
      <trkpt lat="48.90118" lon="2.3003">
        <ele>32.799999237061</ele>
        <time>2017-04-10T19:31:39.000Z</time>
      </trkpt>
      <trkpt lat="48.90129" lon="2.30052">
        <ele>33.400001525879</ele>
        <time>2017-04-10T19:31:43.000Z</time>
      </trkpt>
      <trkpt lat="48.90141" lon="2.3008">
        <ele>34</ele>
        <time>2017-04-10T19:31:48.000Z</time>
      </trkpt>
      <trkpt lat="48.90147" lon="2.30096">
        <ele>33.799999237061</ele>
        <time>2017-04-10T19:31:51.000Z</time>
      </trkpt>
      <trkpt lat="48.90157" lon="2.30118">
        <ele>33.599998474121</ele>
        <time>2017-04-10T19:31:56.000Z</time>
      </trkpt>
      <trkpt lat="48.90168" lon="2.30146">
        <ele>33.200000762939</ele>
        <time>2017-04-10T19:32:01.000Z</time>
      </trkpt>
      <trkpt lat="48.90176" lon="2.30161">
        <ele>33.200000762939</ele>
        <time>2017-04-10T19:32:04.000Z</time>
      </trkpt>
      <trkpt lat="48.9019" lon="2.30178">
        <ele>32.799999237061</ele>
        <time>2017-04-10T19:32:08.000Z</time>
      </trkpt>
      <trkpt lat="48.90193" lon="2.30183">
        <ele>32.799999237061</ele>
        <time>2017-04-10T19:32:09.000Z</time>
      </trkpt>
      <trkpt lat="48.90206" lon="2.30208">
        <ele>33</ele>
        <time>2017-04-10T19:32:14.000Z</time>
      </trkpt>
      <trkpt lat="48.90216" lon="2.30235">
        <ele>33</ele>
        <time>2017-04-10T19:32:19.000Z</time>
      </trkpt>
      <trkpt lat="48.9022" lon="2.30246">
        <ele>33</ele>
        <time>2017-04-10T19:32:22.000Z</time>
      </trkpt>
      <trkpt lat="48.90222" lon="2.30254">
        <ele>33</ele>
        <time>2017-04-10T19:32:30.000Z</time>
      </trkpt>
      <trkpt lat="48.90223" lon="2.30257">
        <ele>33</ele>
        <time>2017-04-10T19:32:31.000Z</time>
      </trkpt>
      <trkpt lat="48.90227" lon="2.30269">
        <ele>33</ele>
        <time>2017-04-10T19:32:35.000Z</time>
      </trkpt>
      <trkpt lat="48.90239" lon="2.30292">
        <ele>33.200000762939</ele>
        <time>2017-04-10T19:32:41.000Z</time>
      </trkpt>
      <trkpt lat="48.90253" lon="2.30313">
        <ele>33.599998474121</ele>
        <time>2017-04-10T19:32:46.000Z</time>
      </trkpt>
      <trkpt lat="48.90265" lon="2.30339">
        <ele>34.200000762939</ele>
        <time>2017-04-10T19:32:51.000Z</time>
      </trkpt>
      <trkpt lat="48.90275" lon="2.30363">
        <ele>34.400001525879</ele>
        <time>2017-04-10T19:32:56.000Z</time>
      </trkpt>
      <trkpt lat="48.90286" lon="2.30387">
        <ele>34.599998474121</ele>
        <time>2017-04-10T19:33:05.000Z</time>
      </trkpt>
      <trkpt lat="48.90287" lon="2.30387">
        <ele>34.599998474121</ele>
        <time>2017-04-10T19:33:06.000Z</time>
      </trkpt>
      <trkpt lat="48.90279" lon="2.30404">
        <ele>34.799999237061</ele>
        <time>2017-04-10T19:33:40.000Z</time>
      </trkpt>
      <trkpt lat="48.90261" lon="2.30419">
        <ele>35</ele>
        <time>2017-04-10T19:33:46.000Z</time>
      </trkpt>
      <trkpt lat="48.90245" lon="2.30437">
        <ele>35</ele>
        <time>2017-04-10T19:33:52.000Z</time>
      </trkpt>
      <trkpt lat="48.90245" lon="2.30466">
        <ele>35</ele>
        <time>2017-04-10T19:33:57.000Z</time>
      </trkpt>
      <trkpt lat="48.90251" lon="2.30495">
        <ele>35</ele>
        <time>2017-04-10T19:34:02.000Z</time>
      </trkpt>
      <trkpt lat="48.90262" lon="2.30522">
        <ele>34.599998474121</ele>
        <time>2017-04-10T19:34:07.000Z</time>
      </trkpt>
      <trkpt lat="48.90271" lon="2.30545">
        <ele>34.400001525879</ele>
        <time>2017-04-10T19:34:12.000Z</time>
      </trkpt>
      <trkpt lat="48.90283" lon="2.30567">
        <ele>34.400001525879</ele>
        <time>2017-04-10T19:34:17.000Z</time>
      </trkpt>
      <trkpt lat="48.90291" lon="2.30592">
        <ele>34.200000762939</ele>
        <time>2017-04-10T19:34:25.000Z</time>
      </trkpt>
      <trkpt lat="48.90294" lon="2.30612">
        <ele>34.400001525879</ele>
        <time>2017-04-10T19:34:33.000Z</time>
      </trkpt>
      <trkpt lat="48.90295" lon="2.30625">
        <ele>34.599998474121</ele>
        <time>2017-04-10T19:35:12.000Z</time>
      </trkpt>
      <trkpt lat="48.90308" lon="2.30615">
        <ele>34.400001525879</ele>
        <time>2017-04-10T19:35:23.000Z</time>
      </trkpt>
      <trkpt lat="48.90325" lon="2.30597">
        <ele>35</ele>
        <time>2017-04-10T19:35:30.000Z</time>
      </trkpt>
      <trkpt lat="48.90329" lon="2.30584">
        <ele>35.200000762939</ele>
        <time>2017-04-10T19:35:34.000Z</time>
      </trkpt>
      <trkpt lat="48.90345" lon="2.30598">
        <ele>35.400001525879</ele>
        <time>2017-04-10T19:35:39.000Z</time>
      </trkpt>
      <trkpt lat="48.9036" lon="2.30621">
        <ele>35.400001525879</ele>
        <time>2017-04-10T19:35:43.000Z</time>
      </trkpt>
      <trkpt lat="48.90374" lon="2.30639">
        <ele>35</ele>
        <time>2017-04-10T19:35:47.000Z</time>
      </trkpt>
      <trkpt lat="48.90388" lon="2.3066">
        <ele>34.599998474121</ele>
        <time>2017-04-10T19:35:52.000Z</time>
      </trkpt>
      <trkpt lat="48.90404" lon="2.30681">
        <ele>34.599998474121</ele>
        <time>2017-04-10T19:35:57.000Z</time>
      </trkpt>
      <trkpt lat="48.90421" lon="2.30705">
        <ele>34.799999237061</ele>
        <time>2017-04-10T19:36:02.000Z</time>
      </trkpt>
      <trkpt lat="48.90428" lon="2.30715">
        <ele>34.799999237061</ele>
        <time>2017-04-10T19:36:04.000Z</time>
      </trkpt>
      <trkpt lat="48.9044" lon="2.30738">
        <ele>34.799999237061</ele>
        <time>2017-04-10T19:36:08.000Z</time>
      </trkpt>
      <trkpt lat="48.90442" lon="2.30744">
        <ele>35</ele>
        <time>2017-04-10T19:36:09.000Z</time>
      </trkpt>
      <trkpt lat="48.90451" lon="2.30766">
        <ele>35.200000762939</ele>
        <time>2017-04-10T19:36:13.000Z</time>
      </trkpt>
      <trkpt lat="48.90462" lon="2.30791">
        <ele>35.599998474121</ele>
        <time>2017-04-10T19:36:18.000Z</time>
      </trkpt>
      <trkpt lat="48.90473" lon="2.3082">
        <ele>35.799999237061</ele>
        <time>2017-04-10T19:36:23.000Z</time>
      </trkpt>
      <trkpt lat="48.90481" lon="2.30835">
        <ele>35.799999237061</ele>
        <time>2017-04-10T19:36:26.000Z</time>
      </trkpt>
      <trkpt lat="48.90486" lon="2.30848">
        <ele>35.599998474121</ele>
        <time>2017-04-10T19:36:28.000Z</time>
      </trkpt>
      <trkpt lat="48.90498" lon="2.30871">
        <ele>35.400001525879</ele>
        <time>2017-04-10T19:36:32.000Z</time>
      </trkpt>
      <trkpt lat="48.90502" lon="2.30882">
        <ele>35.200000762939</ele>
        <time>2017-04-10T19:36:34.000Z</time>
      </trkpt>
      <trkpt lat="48.90509" lon="2.3091">
        <ele>35.200000762939</ele>
        <time>2017-04-10T19:36:39.000Z</time>
      </trkpt>
      <trkpt lat="48.90514" lon="2.30925">
        <ele>35.400001525879</ele>
        <time>2017-04-10T19:36:42.000Z</time>
      </trkpt>
      <trkpt lat="48.90521" lon="2.30953">
        <ele>35.599998474121</ele>
        <time>2017-04-10T19:36:47.000Z</time>
      </trkpt>
      <trkpt lat="48.9053" lon="2.3098">
        <ele>35.200000762939</ele>
        <time>2017-04-10T19:36:52.000Z</time>
      </trkpt>
      <trkpt lat="48.90533" lon="2.30984">
        <ele>35.200000762939</ele>
        <time>2017-04-10T19:36:53.000Z</time>
      </trkpt>
      <trkpt lat="48.90537" lon="2.30995">
        <ele>35</ele>
        <time>2017-04-10T19:36:56.000Z</time>
      </trkpt>
      <trkpt lat="48.90542" lon="2.31014">
        <ele>34.799999237061</ele>
        <time>2017-04-10T19:37:04.000Z</time>
      </trkpt>
      <trkpt lat="48.90542" lon="2.31017">
        <ele>35</ele>
        <time>2017-04-10T19:37:06.000Z</time>
      </trkpt>
      <trkpt lat="48.90547" lon="2.31043">
        <ele>34.599998474121</ele>
        <time>2017-04-10T19:37:17.000Z</time>
      </trkpt>
      <trkpt lat="48.90558" lon="2.31068">
        <ele>34</ele>
        <time>2017-04-10T19:37:22.000Z</time>
      </trkpt>
      <trkpt lat="48.90567" lon="2.31097">
        <ele>34.200000762939</ele>
        <time>2017-04-10T19:37:27.000Z</time>
      </trkpt>
      <trkpt lat="48.90575" lon="2.31127">
        <ele>35.200000762939</ele>
        <time>2017-04-10T19:37:32.000Z</time>
      </trkpt>
      <trkpt lat="48.90582" lon="2.31156">
        <ele>35</ele>
        <time>2017-04-10T19:37:37.000Z</time>
      </trkpt>
      <trkpt lat="48.90592" lon="2.31187">
        <ele>35.200000762939</ele>
        <time>2017-04-10T19:37:42.000Z</time>
      </trkpt>
      <trkpt lat="48.90599" lon="2.31217">
        <ele>35.599998474121</ele>
        <time>2017-04-10T19:37:47.000Z</time>
      </trkpt>
      <trkpt lat="48.90608" lon="2.31243">
        <ele>35.799999237061</ele>
        <time>2017-04-10T19:37:52.000Z</time>
      </trkpt>
      <trkpt lat="48.90618" lon="2.31269">
        <ele>35.400001525879</ele>
        <time>2017-04-10T19:38:00.000Z</time>
      </trkpt>
      <trkpt lat="48.90624" lon="2.31299">
        <ele>35</ele>
        <time>2017-04-10T19:38:08.000Z</time>
      </trkpt>
      <trkpt lat="48.90631" lon="2.3133">
        <ele>34.599998474121</ele>
        <time>2017-04-10T19:38:14.000Z</time>
      </trkpt>
      <trkpt lat="48.90638" lon="2.31358">
        <ele>35.200000762939</ele>
        <time>2017-04-10T19:38:20.000Z</time>
      </trkpt>
      <trkpt lat="48.90646" lon="2.31385">
        <ele>34.400001525879</ele>
        <time>2017-04-10T19:38:27.000Z</time>
      </trkpt>
      <trkpt lat="48.90653" lon="2.31416">
        <ele>33</ele>
        <time>2017-04-10T19:38:33.000Z</time>
      </trkpt>
      <trkpt lat="48.90664" lon="2.31438">
        <ele>33</ele>
        <time>2017-04-10T19:38:38.000Z</time>
      </trkpt>
      <trkpt lat="48.90677" lon="2.31457">
        <ele>33.200000762939</ele>
        <time>2017-04-10T19:38:43.000Z</time>
      </trkpt>
      <trkpt lat="48.90693" lon="2.31476">
        <ele>33.200000762939</ele>
        <time>2017-04-10T19:38:48.000Z</time>
      </trkpt>
      <trkpt lat="48.90701" lon="2.31502">
        <ele>32.400001525879</ele>
        <time>2017-04-10T19:38:53.000Z</time>
      </trkpt>
      <trkpt lat="48.90713" lon="2.31529">
        <ele>31.200000762939</ele>
        <time>2017-04-10T19:38:59.000Z</time>
      </trkpt>
      <trkpt lat="48.90723" lon="2.31556">
        <ele>30</ele>
        <time>2017-04-10T19:39:05.000Z</time>
      </trkpt>
      <trkpt lat="48.90732" lon="2.31584">
        <ele>29</ele>
        <time>2017-04-10T19:39:11.000Z</time>
      </trkpt>
      <trkpt lat="48.90741" lon="2.31614">
        <ele>29.60000038147</ele>
        <time>2017-04-10T19:39:16.000Z</time>
      </trkpt>
      <trkpt lat="48.9075" lon="2.3164">
        <ele>30</ele>
        <time>2017-04-10T19:39:20.000Z</time>
      </trkpt>
      <trkpt lat="48.9076" lon="2.31665">
        <ele>30.200000762939</ele>
        <time>2017-04-10T19:39:24.000Z</time>
      </trkpt>
      <trkpt lat="48.90769" lon="2.31688">
        <ele>30.39999961853</ele>
        <time>2017-04-10T19:39:28.000Z</time>
      </trkpt>
      <trkpt lat="48.90778" lon="2.31714">
        <ele>30.60000038147</ele>
        <time>2017-04-10T19:39:32.000Z</time>
      </trkpt>
      <trkpt lat="48.90782" lon="2.31741">
        <ele>31</ele>
        <time>2017-04-10T19:39:36.000Z</time>
      </trkpt>
      <trkpt lat="48.9079" lon="2.31766">
        <ele>31</ele>
        <time>2017-04-10T19:39:40.000Z</time>
      </trkpt>
      <trkpt lat="48.90799" lon="2.3179">
        <ele>31.200000762939</ele>
        <time>2017-04-10T19:39:44.000Z</time>
      </trkpt>
      <trkpt lat="48.90804" lon="2.31809">
        <ele>31.39999961853</ele>
        <time>2017-04-10T19:39:47.000Z</time>
      </trkpt>
      <trkpt lat="48.90812" lon="2.31836">
        <ele>31.60000038147</ele>
        <time>2017-04-10T19:39:51.000Z</time>
      </trkpt>
      <trkpt lat="48.90812" lon="2.31843">
        <ele>31.60000038147</ele>
        <time>2017-04-10T19:39:52.000Z</time>
      </trkpt>
      <trkpt lat="48.90814" lon="2.31872">
        <ele>31.60000038147</ele>
        <time>2017-04-10T19:39:56.000Z</time>
      </trkpt>
      <trkpt lat="48.90815" lon="2.3188">
        <ele>32</ele>
        <time>2017-04-10T19:39:57.000Z</time>
      </trkpt>
      <trkpt lat="48.90822" lon="2.31909">
        <ele>33.200000762939</ele>
        <time>2017-04-10T19:40:01.000Z</time>
      </trkpt>
      <trkpt lat="48.90828" lon="2.31936">
        <ele>33.200000762939</ele>
        <time>2017-04-10T19:40:05.000Z</time>
      </trkpt>
      <trkpt lat="48.90834" lon="2.31964">
        <ele>32.599998474121</ele>
        <time>2017-04-10T19:40:10.000Z</time>
      </trkpt>
      <trkpt lat="48.90835" lon="2.31976">
        <ele>32.599998474121</ele>
        <time>2017-04-10T19:40:12.000Z</time>
      </trkpt>
      <trkpt lat="48.90841" lon="2.32008">
        <ele>32</ele>
        <time>2017-04-10T19:40:18.000Z</time>
      </trkpt>
      <trkpt lat="48.90847" lon="2.32037">
        <ele>33.599998474121</ele>
        <time>2017-04-10T19:40:23.000Z</time>
      </trkpt>
      <trkpt lat="48.90855" lon="2.32067">
        <ele>35.200000762939</ele>
        <time>2017-04-10T19:40:28.000Z</time>
      </trkpt>
      <trkpt lat="48.9086" lon="2.32095">
        <ele>35.400001525879</ele>
        <time>2017-04-10T19:40:33.000Z</time>
      </trkpt>
      <trkpt lat="48.90865" lon="2.32127">
        <ele>34</ele>
        <time>2017-04-10T19:40:39.000Z</time>
      </trkpt>
      <trkpt lat="48.90856" lon="2.32154">
        <ele>33.200000762939</ele>
        <time>2017-04-10T19:40:44.000Z</time>
      </trkpt>
      <trkpt lat="48.90842" lon="2.32176">
        <ele>32.599998474121</ele>
        <time>2017-04-10T19:40:48.000Z</time>
      </trkpt>
      <trkpt lat="48.90829" lon="2.32196">
        <ele>32</ele>
        <time>2017-04-10T19:40:52.000Z</time>
      </trkpt>
      <trkpt lat="48.90825" lon="2.32202">
        <ele>31.799999237061</ele>
        <time>2017-04-10T19:40:53.000Z</time>
      </trkpt>
      <trkpt lat="48.90815" lon="2.32218">
        <ele>31.799999237061</ele>
        <time>2017-04-10T19:40:57.000Z</time>
      </trkpt>
      <trkpt lat="48.90801" lon="2.32241">
        <ele>32.599998474121</ele>
        <time>2017-04-10T19:41:03.000Z</time>
      </trkpt>
      <trkpt lat="48.90799" lon="2.32245">
        <ele>32.599998474121</ele>
        <time>2017-04-10T19:41:04.000Z</time>
      </trkpt>
      <trkpt lat="48.90786" lon="2.32263">
        <ele>32.400001525879</ele>
        <time>2017-04-10T19:41:08.000Z</time>
      </trkpt>
      <trkpt lat="48.90772" lon="2.32283">
        <ele>32.200000762939</ele>
        <time>2017-04-10T19:41:12.000Z</time>
      </trkpt>
      <trkpt lat="48.90769" lon="2.32288">
        <ele>32</ele>
        <time>2017-04-10T19:41:13.000Z</time>
      </trkpt>
      <trkpt lat="48.90762" lon="2.32297">
        <ele>31.60000038147</ele>
        <time>2017-04-10T19:41:15.000Z</time>
      </trkpt>
      <trkpt lat="48.90755" lon="2.32306">
        <ele>31.39999961853</ele>
        <time>2017-04-10T19:41:17.000Z</time>
      </trkpt>
      <trkpt lat="48.90741" lon="2.32327">
        <ele>32</ele>
        <time>2017-04-10T19:41:22.000Z</time>
      </trkpt>
      <trkpt lat="48.90728" lon="2.3235">
        <ele>32.400001525879</ele>
        <time>2017-04-10T19:41:27.000Z</time>
      </trkpt>
      <trkpt lat="48.90725" lon="2.32355">
        <ele>32.400001525879</ele>
        <time>2017-04-10T19:41:28.000Z</time>
      </trkpt>
      <trkpt lat="48.90709" lon="2.32376">
        <ele>32.799999237061</ele>
        <time>2017-04-10T19:41:33.000Z</time>
      </trkpt>
      <trkpt lat="48.90694" lon="2.32394">
        <ele>33.200000762939</ele>
        <time>2017-04-10T19:41:38.000Z</time>
      </trkpt>
      <trkpt lat="48.90686" lon="2.32401">
        <ele>33.200000762939</ele>
        <time>2017-04-10T19:41:41.000Z</time>
      </trkpt>
      <trkpt lat="48.90681" lon="2.3241">
        <ele>33</ele>
        <time>2017-04-10T19:41:43.000Z</time>
      </trkpt>
      <trkpt lat="48.90668" lon="2.32433">
        <ele>32.200000762939</ele>
        <time>2017-04-10T19:41:49.000Z</time>
      </trkpt>
      <trkpt lat="48.90654" lon="2.32453">
        <ele>31.60000038147</ele>
        <time>2017-04-10T19:41:55.000Z</time>
      </trkpt>
      <trkpt lat="48.90644" lon="2.32463">
        <ele>31.60000038147</ele>
        <time>2017-04-10T19:41:59.000Z</time>
      </trkpt>
      <trkpt lat="48.9065" lon="2.32476">
        <ele>31.799999237061</ele>
        <time>2017-04-10T19:43:23.000Z</time>
      </trkpt>
      <trkpt lat="48.90642" lon="2.32499">
        <ele>32.200000762939</ele>
        <time>2017-04-10T19:43:49.000Z</time>
      </trkpt>
      <trkpt lat="48.90641" lon="2.32499">
        <ele>32.200000762939</ele>
        <time>2017-04-10T19:43:50.000Z</time>
      </trkpt>
      <trkpt lat="48.90628" lon="2.32483">
        <ele>32.400001525879</ele>
        <time>2017-04-10T19:44:45.000Z</time>
      </trkpt>
      <trkpt lat="48.90629" lon="2.32476">
        <ele>32.200000762939</ele>
        <time>2017-04-10T19:45:27.000Z</time>
      </trkpt>
      <trkpt lat="48.90621" lon="2.32482">
        <ele>32.400001525879</ele>
        <time>2017-04-10T19:45:33.000Z</time>
      </trkpt>
      <trkpt lat="48.90601" lon="2.3249">
        <ele>33</ele>
        <time>2017-04-10T19:45:39.000Z</time>
      </trkpt>
      <trkpt lat="48.9058" lon="2.32498">
        <ele>33.599998474121</ele>
        <time>2017-04-10T19:45:44.000Z</time>
      </trkpt>
      <trkpt lat="48.90563" lon="2.32505">
        <ele>34.200000762939</ele>
        <time>2017-04-10T19:45:49.000Z</time>
      </trkpt>
      <trkpt lat="48.90545" lon="2.32518">
        <ele>34.799999237061</ele>
        <time>2017-04-10T19:45:55.000Z</time>
      </trkpt>
      <trkpt lat="48.9053" lon="2.32524">
        <ele>35.200000762939</ele>
        <time>2017-04-10T19:46:02.000Z</time>
      </trkpt>
      <trkpt lat="48.90513" lon="2.32526">
        <ele>35.599998474121</ele>
        <time>2017-04-10T19:46:21.000Z</time>
      </trkpt>
      <trkpt lat="48.90504" lon="2.32523">
        <ele>35.799999237061</ele>
        <time>2017-04-10T19:46:24.000Z</time>
      </trkpt>
      <trkpt lat="48.90496" lon="2.32549">
        <ele>36.200000762939</ele>
        <time>2017-04-10T19:46:30.000Z</time>
      </trkpt>
      <trkpt lat="48.90495" lon="2.32558">
        <ele>36.400001525879</ele>
        <time>2017-04-10T19:46:32.000Z</time>
      </trkpt>
      <trkpt lat="48.90494" lon="2.32562">
        <ele>36.400001525879</ele>
        <time>2017-04-10T19:46:33.000Z</time>
      </trkpt>
      <trkpt lat="48.9048" lon="2.32578">
        <ele>36.599998474121</ele>
        <time>2017-04-10T19:46:39.000Z</time>
      </trkpt>
      <trkpt lat="48.90478" lon="2.32582">
        <ele>36.599998474121</ele>
        <time>2017-04-10T19:46:40.000Z</time>
      </trkpt>
      <trkpt lat="48.90467" lon="2.32604">
        <ele>37.200000762939</ele>
        <time>2017-04-10T19:46:45.000Z</time>
      </trkpt>
      <trkpt lat="48.90453" lon="2.32627">
        <ele>37.200000762939</ele>
        <time>2017-04-10T19:46:50.000Z</time>
      </trkpt>
      <trkpt lat="48.90442" lon="2.32648">
        <ele>37</ele>
        <time>2017-04-10T19:46:55.000Z</time>
      </trkpt>
      <trkpt lat="48.90429" lon="2.32671">
        <ele>37.200000762939</ele>
        <time>2017-04-10T19:47:00.000Z</time>
      </trkpt>
      <trkpt lat="48.90415" lon="2.32694">
        <ele>38</ele>
        <time>2017-04-10T19:47:05.000Z</time>
      </trkpt>
      <trkpt lat="48.904" lon="2.3272">
        <ele>38.599998474121</ele>
        <time>2017-04-10T19:47:10.000Z</time>
      </trkpt>
      <trkpt lat="48.90388" lon="2.32741">
        <ele>38.400001525879</ele>
        <time>2017-04-10T19:47:14.000Z</time>
      </trkpt>
      <trkpt lat="48.90378" lon="2.3276">
        <ele>38.200000762939</ele>
        <time>2017-04-10T19:47:18.000Z</time>
      </trkpt>
      <trkpt lat="48.90386" lon="2.3278">
        <ele>38</ele>
        <time>2017-04-10T19:47:24.000Z</time>
      </trkpt>
      <trkpt lat="48.90403" lon="2.32799">
        <ele>38</ele>
        <time>2017-04-10T19:47:30.000Z</time>
      </trkpt>
      <trkpt lat="48.90419" lon="2.32819">
        <ele>38</ele>
        <time>2017-04-10T19:47:36.000Z</time>
      </trkpt>
      <trkpt lat="48.90433" lon="2.32837">
        <ele>38</ele>
        <time>2017-04-10T19:47:41.000Z</time>
      </trkpt>
      <trkpt lat="48.90449" lon="2.32855">
        <ele>38</ele>
        <time>2017-04-10T19:47:47.000Z</time>
      </trkpt>
      <trkpt lat="48.90452" lon="2.32868">
        <ele>37.799999237061</ele>
        <time>2017-04-10T19:47:49.000Z</time>
      </trkpt>
      <trkpt lat="48.90454" lon="2.32898">
        <ele>37.599998474121</ele>
        <time>2017-04-10T19:47:55.000Z</time>
      </trkpt>
      <trkpt lat="48.90455" lon="2.32926">
        <ele>37.400001525879</ele>
        <time>2017-04-10T19:48:00.000Z</time>
      </trkpt>
      <trkpt lat="48.90455" lon="2.32958">
        <ele>38</ele>
        <time>2017-04-10T19:48:05.000Z</time>
      </trkpt>
      <trkpt lat="48.90455" lon="2.3299">
        <ele>38.799999237061</ele>
        <time>2017-04-10T19:48:10.000Z</time>
      </trkpt>
      <trkpt lat="48.90458" lon="2.33017">
        <ele>38.799999237061</ele>
        <time>2017-04-10T19:48:15.000Z</time>
      </trkpt>
      <trkpt lat="48.90459" lon="2.33046">
        <ele>38.400001525879</ele>
        <time>2017-04-10T19:48:20.000Z</time>
      </trkpt>
      <trkpt lat="48.90459" lon="2.33074">
        <ele>38</ele>
        <time>2017-04-10T19:48:25.000Z</time>
      </trkpt>
      <trkpt lat="48.9046" lon="2.33105">
        <ele>37.799999237061</ele>
        <time>2017-04-10T19:48:31.000Z</time>
      </trkpt>
      <trkpt lat="48.90454" lon="2.33123">
        <ele>38.599998474121</ele>
        <time>2017-04-10T19:48:37.000Z</time>
      </trkpt>
      <trkpt lat="48.90447" lon="2.33124">
        <ele>38.799999237061</ele>
        <time>2017-04-10T19:48:41.000Z</time>
      </trkpt>
      <trkpt lat="48.90444" lon="2.33128">
        <ele>39</ele>
        <time>2017-04-10T19:48:43.000Z</time>
      </trkpt>
      <trkpt lat="48.90451" lon="2.33136">
        <ele>39</ele>
        <time>2017-04-10T19:48:47.000Z</time>
      </trkpt>
      <trkpt lat="48.90471" lon="2.33144">
        <ele>38.400001525879</ele>
        <time>2017-04-10T19:48:54.000Z</time>
      </trkpt>
      <trkpt lat="48.90492" lon="2.33148">
        <ele>37.799999237061</ele>
        <time>2017-04-10T19:49:02.000Z</time>
      </trkpt>
      <trkpt lat="48.90513" lon="2.33155">
        <ele>37.200000762939</ele>
        <time>2017-04-10T19:49:08.000Z</time>
      </trkpt>
      <trkpt lat="48.90532" lon="2.33161">
        <ele>37.200000762939</ele>
        <time>2017-04-10T19:49:13.000Z</time>
      </trkpt>
      <trkpt lat="48.90551" lon="2.33167">
        <ele>37.400001525879</ele>
        <time>2017-04-10T19:49:18.000Z</time>
      </trkpt>
      <trkpt lat="48.90572" lon="2.33174">
        <ele>37.599998474121</ele>
        <time>2017-04-10T19:49:23.000Z</time>
      </trkpt>
      <trkpt lat="48.90593" lon="2.33181">
        <ele>37.799999237061</ele>
        <time>2017-04-10T19:49:28.000Z</time>
      </trkpt>
      <trkpt lat="48.90611" lon="2.33187">
        <ele>37.799999237061</ele>
        <time>2017-04-10T19:49:33.000Z</time>
      </trkpt>
      <trkpt lat="48.90632" lon="2.33195">
        <ele>37.400001525879</ele>
        <time>2017-04-10T19:49:39.000Z</time>
      </trkpt>
      <trkpt lat="48.90653" lon="2.33199">
        <ele>37</ele>
        <time>2017-04-10T19:49:44.000Z</time>
      </trkpt>
      <trkpt lat="48.90675" lon="2.33205">
        <ele>36.599998474121</ele>
        <time>2017-04-10T19:49:49.000Z</time>
      </trkpt>
      <trkpt lat="48.90692" lon="2.33214">
        <ele>36.400001525879</ele>
        <time>2017-04-10T19:49:53.000Z</time>
      </trkpt>
      <trkpt lat="48.90711" lon="2.33219">
        <ele>36</ele>
        <time>2017-04-10T19:49:57.000Z</time>
      </trkpt>
      <trkpt lat="48.90732" lon="2.33226">
        <ele>35.799999237061</ele>
        <time>2017-04-10T19:50:02.000Z</time>
      </trkpt>
      <trkpt lat="48.90753" lon="2.33234">
        <ele>35.400001525879</ele>
        <time>2017-04-10T19:50:06.000Z</time>
      </trkpt>
      <trkpt lat="48.9077" lon="2.33242">
        <ele>35</ele>
        <time>2017-04-10T19:50:10.000Z</time>
      </trkpt>
      <trkpt lat="48.90791" lon="2.33251">
        <ele>35</ele>
        <time>2017-04-10T19:50:15.000Z</time>
      </trkpt>
      <trkpt lat="48.90809" lon="2.33258">
        <ele>35</ele>
        <time>2017-04-10T19:50:20.000Z</time>
      </trkpt>
      <trkpt lat="48.90829" lon="2.33267">
        <ele>35</ele>
        <time>2017-04-10T19:50:28.000Z</time>
      </trkpt>
      <trkpt lat="48.90826" lon="2.3329">
        <ele>35</ele>
        <time>2017-04-10T19:50:37.000Z</time>
      </trkpt>
      <trkpt lat="48.90812" lon="2.33312">
        <ele>35.400001525879</ele>
        <time>2017-04-10T19:50:43.000Z</time>
      </trkpt>
      <trkpt lat="48.908" lon="2.33336">
        <ele>35.799999237061</ele>
        <time>2017-04-10T19:50:48.000Z</time>
      </trkpt>
      <trkpt lat="48.90787" lon="2.33358">
        <ele>36</ele>
        <time>2017-04-10T19:50:53.000Z</time>
      </trkpt>
      <trkpt lat="48.90775" lon="2.33379">
        <ele>36</ele>
        <time>2017-04-10T19:50:58.000Z</time>
      </trkpt>
      <trkpt lat="48.90764" lon="2.33403">
        <ele>36</ele>
        <time>2017-04-10T19:51:03.000Z</time>
      </trkpt>
      <trkpt lat="48.9075" lon="2.33423">
        <ele>36.400001525879</ele>
        <time>2017-04-10T19:51:07.000Z</time>
      </trkpt>
      <trkpt lat="48.90733" lon="2.33444">
        <ele>37</ele>
        <time>2017-04-10T19:51:12.000Z</time>
      </trkpt>
      <trkpt lat="48.90719" lon="2.33462">
        <ele>37.400001525879</ele>
        <time>2017-04-10T19:51:16.000Z</time>
      </trkpt>
      <trkpt lat="48.90706" lon="2.33481">
        <ele>37.799999237061</ele>
        <time>2017-04-10T19:51:20.000Z</time>
      </trkpt>
      <trkpt lat="48.90692" lon="2.33499">
        <ele>38</ele>
        <time>2017-04-10T19:51:24.000Z</time>
      </trkpt>
      <trkpt lat="48.90677" lon="2.33523">
        <ele>38.599998474121</ele>
        <time>2017-04-10T19:51:29.000Z</time>
      </trkpt>
      <trkpt lat="48.90663" lon="2.33538">
        <ele>39</ele>
        <time>2017-04-10T19:51:33.000Z</time>
      </trkpt>
      <trkpt lat="48.90654" lon="2.33551">
        <ele>39.200000762939</ele>
        <time>2017-04-10T19:51:36.000Z</time>
      </trkpt>
      <trkpt lat="48.90647" lon="2.33559">
        <ele>39.200000762939</ele>
        <time>2017-04-10T19:51:38.000Z</time>
      </trkpt>
      <trkpt lat="48.90633" lon="2.33585">
        <ele>39.400001525879</ele>
        <time>2017-04-10T19:51:43.000Z</time>
      </trkpt>
      <trkpt lat="48.90618" lon="2.3361">
        <ele>39.400001525879</ele>
        <time>2017-04-10T19:51:48.000Z</time>
      </trkpt>
      <trkpt lat="48.90612" lon="2.33619">
        <ele>39.599998474121</ele>
        <time>2017-04-10T19:51:50.000Z</time>
      </trkpt>
      <trkpt lat="48.90598" lon="2.33638">
        <ele>40</ele>
        <time>2017-04-10T19:51:55.000Z</time>
      </trkpt>
      <trkpt lat="48.90595" lon="2.33641">
        <ele>40</ele>
        <time>2017-04-10T19:51:56.000Z</time>
      </trkpt>
      <trkpt lat="48.9058" lon="2.3366">
        <ele>40</ele>
        <time>2017-04-10T19:52:01.000Z</time>
      </trkpt>
      <trkpt lat="48.90565" lon="2.33679">
        <ele>40.200000762939</ele>
        <time>2017-04-10T19:52:06.000Z</time>
      </trkpt>
      <trkpt lat="48.90551" lon="2.33701">
        <ele>40.400001525879</ele>
        <time>2017-04-10T19:52:11.000Z</time>
      </trkpt>
      <trkpt lat="48.90537" lon="2.33721">
        <ele>40.599998474121</ele>
        <time>2017-04-10T19:52:17.000Z</time>
      </trkpt>
      <trkpt lat="48.90535" lon="2.33725">
        <ele>40.799999237061</ele>
        <time>2017-04-10T19:52:18.000Z</time>
      </trkpt>
      <trkpt lat="48.90523" lon="2.33743">
        <ele>41</ele>
        <time>2017-04-10T19:52:44.000Z</time>
      </trkpt>
      <trkpt lat="48.90508" lon="2.33764">
        <ele>41.200000762939</ele>
        <time>2017-04-10T19:52:49.000Z</time>
      </trkpt>
      <trkpt lat="48.90492" lon="2.33786">
        <ele>41.400001525879</ele>
        <time>2017-04-10T19:52:54.000Z</time>
      </trkpt>
      <trkpt lat="48.90477" lon="2.33808">
        <ele>41.200000762939</ele>
        <time>2017-04-10T19:52:59.000Z</time>
      </trkpt>
      <trkpt lat="48.90464" lon="2.33829">
        <ele>40.599998474121</ele>
        <time>2017-04-10T19:53:04.000Z</time>
      </trkpt>
      <trkpt lat="48.9045" lon="2.33853">
        <ele>40.200000762939</ele>
        <time>2017-04-10T19:53:09.000Z</time>
      </trkpt>
      <trkpt lat="48.90433" lon="2.33875">
        <ele>40.200000762939</ele>
        <time>2017-04-10T19:53:14.000Z</time>
      </trkpt>
      <trkpt lat="48.90417" lon="2.33895">
        <ele>40.400001525879</ele>
        <time>2017-04-10T19:53:19.000Z</time>
      </trkpt>
      <trkpt lat="48.90409" lon="2.33908">
        <ele>40.400001525879</ele>
        <time>2017-04-10T19:53:22.000Z</time>
      </trkpt>
      <trkpt lat="48.90395" lon="2.33928">
        <ele>40.799999237061</ele>
        <time>2017-04-10T19:53:27.000Z</time>
      </trkpt>
      <trkpt lat="48.90387" lon="2.3394">
        <ele>41.200000762939</ele>
        <time>2017-04-10T19:53:30.000Z</time>
      </trkpt>
      <trkpt lat="48.90372" lon="2.33957">
        <ele>40.599998474121</ele>
        <time>2017-04-10T19:53:35.000Z</time>
      </trkpt>
      <trkpt lat="48.90359" lon="2.33978">
        <ele>39.599998474121</ele>
        <time>2017-04-10T19:53:40.000Z</time>
      </trkpt>
      <trkpt lat="48.90344" lon="2.33999">
        <ele>39.400001525879</ele>
        <time>2017-04-10T19:53:46.000Z</time>
      </trkpt>
      <trkpt lat="48.90334" lon="2.34025">
        <ele>40.200000762939</ele>
        <time>2017-04-10T19:53:53.000Z</time>
      </trkpt>
      <trkpt lat="48.90329" lon="2.34028">
        <ele>40.400001525879</ele>
        <time>2017-04-10T19:53:56.000Z</time>
      </trkpt>
      <trkpt lat="48.90318" lon="2.34021">
        <ele>40.599998474121</ele>
        <time>2017-04-10T19:54:01.000Z</time>
      </trkpt>
      <trkpt lat="48.90302" lon="2.34004">
        <ele>41</ele>
        <time>2017-04-10T19:54:09.000Z</time>
      </trkpt>
      <trkpt lat="48.90287" lon="2.33988">
        <ele>41.599998474121</ele>
        <time>2017-04-10T19:54:14.000Z</time>
      </trkpt>
      <trkpt lat="48.90272" lon="2.33972">
        <ele>42.400001525879</ele>
        <time>2017-04-10T19:54:19.000Z</time>
      </trkpt>
      <trkpt lat="48.90255" lon="2.33953">
        <ele>42.599998474121</ele>
        <time>2017-04-10T19:54:24.000Z</time>
      </trkpt>
      <trkpt lat="48.90238" lon="2.33932">
        <ele>42.799999237061</ele>
        <time>2017-04-10T19:54:29.000Z</time>
      </trkpt>
      <trkpt lat="48.90225" lon="2.33913">
        <ele>43</ele>
        <time>2017-04-10T19:54:33.000Z</time>
      </trkpt>
      <trkpt lat="48.90209" lon="2.33893">
        <ele>43.200000762939</ele>
        <time>2017-04-10T19:54:38.000Z</time>
      </trkpt>
      <trkpt lat="48.90195" lon="2.33877">
        <ele>43.400001525879</ele>
        <time>2017-04-10T19:54:44.000Z</time>
      </trkpt>
      <trkpt lat="48.90193" lon="2.33877">
        <ele>43.400001525879</ele>
        <time>2017-04-10T19:54:45.000Z</time>
      </trkpt>
      <trkpt lat="48.9018" lon="2.33893">
        <ele>43.400001525879</ele>
        <time>2017-04-10T19:54:51.000Z</time>
      </trkpt>
      <trkpt lat="48.90169" lon="2.33917">
        <ele>43.799999237061</ele>
        <time>2017-04-10T19:54:59.000Z</time>
      </trkpt>
      <trkpt lat="48.90157" lon="2.33939">
        <ele>44.599998474121</ele>
        <time>2017-04-10T19:55:06.000Z</time>
      </trkpt>
      <trkpt lat="48.90145" lon="2.33962">
        <ele>45.400001525879</ele>
        <time>2017-04-10T19:55:12.000Z</time>
      </trkpt>
      <trkpt lat="48.90132" lon="2.33984">
        <ele>46.400001525879</ele>
        <time>2017-04-10T19:55:19.000Z</time>
      </trkpt>
      <trkpt lat="48.90124" lon="2.3401">
        <ele>47.400001525879</ele>
        <time>2017-04-10T19:55:29.000Z</time>
      </trkpt>
      <trkpt lat="48.90124" lon="2.34042">
        <ele>47.799999237061</ele>
        <time>2017-04-10T19:55:37.000Z</time>
      </trkpt>
      <trkpt lat="48.90126" lon="2.34072">
        <ele>48.200000762939</ele>
        <time>2017-04-10T19:55:44.000Z</time>
      </trkpt>
      <trkpt lat="48.90128" lon="2.34102">
        <ele>48.400001525879</ele>
        <time>2017-04-10T19:55:50.000Z</time>
      </trkpt>
      <trkpt lat="48.9013" lon="2.34131">
        <ele>48.200000762939</ele>
        <time>2017-04-10T19:55:56.000Z</time>
      </trkpt>
      <trkpt lat="48.90132" lon="2.3416">
        <ele>47.799999237061</ele>
        <time>2017-04-10T19:56:02.000Z</time>
      </trkpt>
      <trkpt lat="48.90133" lon="2.34191">
        <ele>47</ele>
        <time>2017-04-10T19:56:09.000Z</time>
      </trkpt>
      <trkpt lat="48.90133" lon="2.34218">
        <ele>46.400001525879</ele>
        <time>2017-04-10T19:56:17.000Z</time>
      </trkpt>
      <trkpt lat="48.90133" lon="2.34234">
        <ele>46</ele>
        <time>2017-04-10T19:56:22.000Z</time>
      </trkpt>
      <trkpt lat="48.90134" lon="2.34249">
        <ele>45.599998474121</ele>
        <time>2017-04-10T19:56:26.000Z</time>
      </trkpt>
      <trkpt lat="48.90134" lon="2.34249">
        <ele>45.599998474121</ele>
        <time>2017-04-10T19:56:28.000Z</time>
      </trkpt>
      <trkpt lat="48.90137" lon="2.34235">
        <ele>46</ele>
        <time>2017-04-10T19:56:35.000Z</time>
      </trkpt>
      <trkpt lat="48.90139" lon="2.34239">
        <ele>45.799999237061</ele>
        <time>2017-04-10T19:56:38.000Z</time>
      </trkpt>
      <trkpt lat="48.90153" lon="2.34258">
        <ele>45.400001525879</ele>
        <time>2017-04-10T19:56:49.000Z</time>
      </trkpt>
      <trkpt lat="48.90167" lon="2.34276">
        <ele>45</ele>
        <time>2017-04-10T19:56:57.000Z</time>
      </trkpt>
      <trkpt lat="48.90178" lon="2.34291">
        <ele>44.599998474121</ele>
        <time>2017-04-10T19:57:04.000Z</time>
      </trkpt>
      <trkpt lat="48.90183" lon="2.34297">
        <ele>44.400001525879</ele>
        <time>2017-04-10T19:57:08.000Z</time>
      </trkpt>
      <trkpt lat="48.9019" lon="2.34301">
        <ele>44.400001525879</ele>
        <time>2017-04-10T19:57:51.000Z</time>
      </trkpt>
      <trkpt lat="48.90178" lon="2.34327">
        <ele>44.200000762939</ele>
        <time>2017-04-10T19:57:58.000Z</time>
      </trkpt>
      <trkpt lat="48.90166" lon="2.34353">
        <ele>44</ele>
        <time>2017-04-10T19:58:04.000Z</time>
      </trkpt>
      <trkpt lat="48.90155" lon="2.34377">
        <ele>43.799999237061</ele>
        <time>2017-04-10T19:58:11.000Z</time>
      </trkpt>
      <trkpt lat="48.90147" lon="2.34393">
        <ele>43.799999237061</ele>
        <time>2017-04-10T19:58:19.000Z</time>
      </trkpt>
      <trkpt lat="48.90143" lon="2.34404">
        <ele>43.799999237061</ele>
        <time>2017-04-10T19:58:29.000Z</time>
      </trkpt>
      <trkpt lat="48.90135" lon="2.34406">
        <ele>44</ele>
        <time>2017-04-10T19:58:33.000Z</time>
      </trkpt>
      <trkpt lat="48.90115" lon="2.34401">
        <ele>44.799999237061</ele>
        <time>2017-04-10T19:58:40.000Z</time>
      </trkpt>
      <trkpt lat="48.90095" lon="2.34397">
        <ele>45.400001525879</ele>
        <time>2017-04-10T19:58:47.000Z</time>
      </trkpt>
      <trkpt lat="48.90081" lon="2.34404">
        <ele>45.799999237061</ele>
        <time>2017-04-10T19:58:53.000Z</time>
      </trkpt>
      <trkpt lat="48.90078" lon="2.34402">
        <ele>45.799999237061</ele>
        <time>2017-04-10T19:58:55.000Z</time>
      </trkpt>
      <trkpt lat="48.90061" lon="2.34397">
        <ele>46.400001525879</ele>
        <time>2017-04-10T19:59:02.000Z</time>
      </trkpt>
      <trkpt lat="48.90042" lon="2.3439">
        <ele>47</ele>
        <time>2017-04-10T19:59:08.000Z</time>
      </trkpt>
      <trkpt lat="48.90024" lon="2.3439">
        <ele>47.799999237061</ele>
        <time>2017-04-10T19:59:13.000Z</time>
      </trkpt>
      <trkpt lat="48.90005" lon="2.3439">
        <ele>49</ele>
        <time>2017-04-10T19:59:18.000Z</time>
      </trkpt>
      <trkpt lat="48.89985" lon="2.34388">
        <ele>49.799999237061</ele>
        <time>2017-04-10T19:59:23.000Z</time>
      </trkpt>
      <trkpt lat="48.89966" lon="2.34387">
        <ele>50.400001525879</ele>
        <time>2017-04-10T19:59:28.000Z</time>
      </trkpt>
      <trkpt lat="48.89948" lon="2.34388">
        <ele>50.799999237061</ele>
        <time>2017-04-10T19:59:34.000Z</time>
      </trkpt>
      <trkpt lat="48.8993" lon="2.34398">
        <ele>50.799999237061</ele>
        <time>2017-04-10T19:59:43.000Z</time>
      </trkpt>
      <trkpt lat="48.8991" lon="2.344">
        <ele>51</ele>
        <time>2017-04-10T19:59:50.000Z</time>
      </trkpt>
      <trkpt lat="48.89888" lon="2.34401">
        <ele>51.200000762939</ele>
        <time>2017-04-10T19:59:56.000Z</time>
      </trkpt>
      <trkpt lat="48.89867" lon="2.34401">
        <ele>51.599998474121</ele>
        <time>2017-04-10T20:00:02.000Z</time>
      </trkpt>
      <trkpt lat="48.89847" lon="2.34402">
        <ele>51.599998474121</ele>
        <time>2017-04-10T20:00:08.000Z</time>
      </trkpt>
      <trkpt lat="48.89828" lon="2.34403">
        <ele>52.400001525879</ele>
        <time>2017-04-10T20:00:15.000Z</time>
      </trkpt>
      <trkpt lat="48.89826" lon="2.34403">
        <ele>52.400001525879</ele>
        <time>2017-04-10T20:00:16.000Z</time>
      </trkpt>
      <trkpt lat="48.89817" lon="2.34405">
        <ele>53</ele>
        <time>2017-04-10T20:00:21.000Z</time>
      </trkpt>
      <trkpt lat="48.89811" lon="2.34384">
        <ele>53.200000762939</ele>
        <time>2017-04-10T20:00:48.000Z</time>
      </trkpt>
      <trkpt lat="48.89806" lon="2.34366">
        <ele>53.400001525879</ele>
        <time>2017-04-10T20:00:58.000Z</time>
      </trkpt>
      <trkpt lat="48.89791" lon="2.3436">
        <ele>54.200000762939</ele>
        <time>2017-04-10T20:01:24.000Z</time>
      </trkpt>
      <trkpt lat="48.89792" lon="2.34389">
        <ele>54.200000762939</ele>
        <time>2017-04-10T20:01:31.000Z</time>
      </trkpt>
      <trkpt lat="48.89791" lon="2.34416">
        <ele>54</ele>
        <time>2017-04-10T20:01:36.000Z</time>
      </trkpt>
      <trkpt lat="48.89785" lon="2.34446">
        <ele>54.200000762939</ele>
        <time>2017-04-10T20:01:42.000Z</time>
      </trkpt>
      <trkpt lat="48.89772" lon="2.34463">
        <ele>55.599998474121</ele>
        <time>2017-04-10T20:01:48.000Z</time>
      </trkpt>
      <trkpt lat="48.89764" lon="2.34487">
        <ele>56.400001525879</ele>
        <time>2017-04-10T20:01:56.000Z</time>
      </trkpt>
      <trkpt lat="48.89766" lon="2.34515">
        <ele>55.799999237061</ele>
        <time>2017-04-10T20:02:02.000Z</time>
      </trkpt>
      <trkpt lat="48.89769" lon="2.34543">
        <ele>55</ele>
        <time>2017-04-10T20:02:07.000Z</time>
      </trkpt>
      <trkpt lat="48.89772" lon="2.34575">
        <ele>54.200000762939</ele>
        <time>2017-04-10T20:02:12.000Z</time>
      </trkpt>
      <trkpt lat="48.89776" lon="2.34606">
        <ele>53.200000762939</ele>
        <time>2017-04-10T20:02:17.000Z</time>
      </trkpt>
      <trkpt lat="48.89779" lon="2.34634">
        <ele>52.599998474121</ele>
        <time>2017-04-10T20:02:22.000Z</time>
      </trkpt>
      <trkpt lat="48.89782" lon="2.34662">
        <ele>51.799999237061</ele>
        <time>2017-04-10T20:02:27.000Z</time>
      </trkpt>
      <trkpt lat="48.89785" lon="2.34689">
        <ele>51.400001525879</ele>
        <time>2017-04-10T20:02:32.000Z</time>
      </trkpt>
      <trkpt lat="48.89787" lon="2.3472">
        <ele>51.400001525879</ele>
        <time>2017-04-10T20:02:37.000Z</time>
      </trkpt>
      <trkpt lat="48.89789" lon="2.34754">
        <ele>51</ele>
        <time>2017-04-10T20:02:42.000Z</time>
      </trkpt>
      <trkpt lat="48.89792" lon="2.34782">
        <ele>50.200000762939</ele>
        <time>2017-04-10T20:02:46.000Z</time>
      </trkpt>
      <trkpt lat="48.89794" lon="2.34813">
        <ele>49.400001525879</ele>
        <time>2017-04-10T20:02:50.000Z</time>
      </trkpt>
      <trkpt lat="48.89794" lon="2.34842">
        <ele>49.200000762939</ele>
        <time>2017-04-10T20:02:53.000Z</time>
      </trkpt>
      <trkpt lat="48.89795" lon="2.34874">
        <ele>49</ele>
        <time>2017-04-10T20:02:56.000Z</time>
      </trkpt>
      <trkpt lat="48.89796" lon="2.34909">
        <ele>48.200000762939</ele>
        <time>2017-04-10T20:02:59.000Z</time>
      </trkpt>
      <trkpt lat="48.89795" lon="2.34948">
        <ele>47.599998474121</ele>
        <time>2017-04-10T20:03:02.000Z</time>
      </trkpt>
      <trkpt lat="48.89795" lon="2.34988">
        <ele>48.200000762939</ele>
        <time>2017-04-10T20:03:05.000Z</time>
      </trkpt>
      <trkpt lat="48.89795" lon="2.35029">
        <ele>47.799999237061</ele>
        <time>2017-04-10T20:03:08.000Z</time>
      </trkpt>
      <trkpt lat="48.89795" lon="2.35068">
        <ele>47.400001525879</ele>
        <time>2017-04-10T20:03:11.000Z</time>
      </trkpt>
      <trkpt lat="48.89795" lon="2.35106">
        <ele>47.599998474121</ele>
        <time>2017-04-10T20:03:14.000Z</time>
      </trkpt>
      <trkpt lat="48.89795" lon="2.35142">
        <ele>49.400001525879</ele>
        <time>2017-04-10T20:03:17.000Z</time>
      </trkpt>
      <trkpt lat="48.89796" lon="2.35171">
        <ele>50.200000762939</ele>
        <time>2017-04-10T20:03:20.000Z</time>
      </trkpt>
      <trkpt lat="48.89797" lon="2.35207">
        <ele>49.599998474121</ele>
        <time>2017-04-10T20:03:24.000Z</time>
      </trkpt>
      <trkpt lat="48.89798" lon="2.35235">
        <ele>49</ele>
        <time>2017-04-10T20:03:28.000Z</time>
      </trkpt>
      <trkpt lat="48.89798" lon="2.35244">
        <ele>49</ele>
        <time>2017-04-10T20:03:30.000Z</time>
      </trkpt>
      <trkpt lat="48.89797" lon="2.35251">
        <ele>49</ele>
        <time>2017-04-10T20:03:33.000Z</time>
      </trkpt>
      <trkpt lat="48.89784" lon="2.35257">
        <ele>50</ele>
        <time>2017-04-10T20:04:38.000Z</time>
      </trkpt>
      <trkpt lat="48.89762" lon="2.35259">
        <ele>50</ele>
        <time>2017-04-10T20:04:43.000Z</time>
      </trkpt>
      <trkpt lat="48.89743" lon="2.35264">
        <ele>49.200000762939</ele>
        <time>2017-04-10T20:04:47.000Z</time>
      </trkpt>
      <trkpt lat="48.89721" lon="2.3527">
        <ele>48.400001525879</ele>
        <time>2017-04-10T20:04:51.000Z</time>
      </trkpt>
      <trkpt lat="48.897" lon="2.35275">
        <ele>48</ele>
        <time>2017-04-10T20:04:55.000Z</time>
      </trkpt>
      <trkpt lat="48.89684" lon="2.35278">
        <ele>48</ele>
        <time>2017-04-10T20:04:58.000Z</time>
      </trkpt>
      <trkpt lat="48.89674" lon="2.35279">
        <ele>47.799999237061</ele>
        <time>2017-04-10T20:05:00.000Z</time>
      </trkpt>
      <trkpt lat="48.89664" lon="2.35281">
        <ele>47.799999237061</ele>
        <time>2017-04-10T20:05:02.000Z</time>
      </trkpt>
      <trkpt lat="48.89645" lon="2.35281">
        <ele>47.799999237061</ele>
        <time>2017-04-10T20:05:06.000Z</time>
      </trkpt>
      <trkpt lat="48.89626" lon="2.35283">
        <ele>48.400001525879</ele>
        <time>2017-04-10T20:05:10.000Z</time>
      </trkpt>
      <trkpt lat="48.89606" lon="2.35287">
        <ele>49</ele>
        <time>2017-04-10T20:05:14.000Z</time>
      </trkpt>
      <trkpt lat="48.89586" lon="2.35289">
        <ele>49.200000762939</ele>
        <time>2017-04-10T20:05:18.000Z</time>
      </trkpt>
      <trkpt lat="48.89568" lon="2.35292">
        <ele>49.400001525879</ele>
        <time>2017-04-10T20:05:22.000Z</time>
      </trkpt>
      <trkpt lat="48.89557" lon="2.35294">
        <ele>49.400001525879</ele>
        <time>2017-04-10T20:05:25.000Z</time>
      </trkpt>
      <trkpt lat="48.89545" lon="2.35291">
        <ele>49.400001525879</ele>
        <time>2017-04-10T20:05:32.000Z</time>
      </trkpt>
      <trkpt lat="48.89525" lon="2.35291">
        <ele>49.400001525879</ele>
        <time>2017-04-10T20:05:38.000Z</time>
      </trkpt>
      <trkpt lat="48.89504" lon="2.35298">
        <ele>48.599998474121</ele>
        <time>2017-04-10T20:05:43.000Z</time>
      </trkpt>
      <trkpt lat="48.89484" lon="2.35301">
        <ele>48.200000762939</ele>
        <time>2017-04-10T20:05:48.000Z</time>
      </trkpt>
      <trkpt lat="48.89463" lon="2.35302">
        <ele>48</ele>
        <time>2017-04-10T20:05:54.000Z</time>
      </trkpt>
      <trkpt lat="48.89445" lon="2.353">
        <ele>47.599998474121</ele>
        <time>2017-04-10T20:05:59.000Z</time>
      </trkpt>
      <trkpt lat="48.89427" lon="2.35298">
        <ele>48.200000762939</ele>
        <time>2017-04-10T20:06:04.000Z</time>
      </trkpt>
      <trkpt lat="48.89409" lon="2.35292">
        <ele>49</ele>
        <time>2017-04-10T20:06:09.000Z</time>
      </trkpt>
      <trkpt lat="48.8939" lon="2.35288">
        <ele>49.799999237061</ele>
        <time>2017-04-10T20:06:14.000Z</time>
      </trkpt>
      <trkpt lat="48.89368" lon="2.35285">
        <ele>50.200000762939</ele>
        <time>2017-04-10T20:06:19.000Z</time>
      </trkpt>
      <trkpt lat="48.89349" lon="2.3528">
        <ele>50.599998474121</ele>
        <time>2017-04-10T20:06:23.000Z</time>
      </trkpt>
      <trkpt lat="48.89329" lon="2.35273">
        <ele>51</ele>
        <time>2017-04-10T20:06:28.000Z</time>
      </trkpt>
      <trkpt lat="48.89311" lon="2.35267">
        <ele>51.400001525879</ele>
        <time>2017-04-10T20:06:32.000Z</time>
      </trkpt>
      <trkpt lat="48.89296" lon="2.3526">
        <ele>51.599998474121</ele>
        <time>2017-04-10T20:06:35.000Z</time>
      </trkpt>
      <trkpt lat="48.89276" lon="2.35253">
        <ele>52</ele>
        <time>2017-04-10T20:06:39.000Z</time>
      </trkpt>
      <trkpt lat="48.8926" lon="2.35247">
        <ele>52.400001525879</ele>
        <time>2017-04-10T20:06:42.000Z</time>
      </trkpt>
      <trkpt lat="48.89241" lon="2.35237">
        <ele>53.200000762939</ele>
        <time>2017-04-10T20:06:45.000Z</time>
      </trkpt>
      <trkpt lat="48.89234" lon="2.35233">
        <ele>53.400001525879</ele>
        <time>2017-04-10T20:06:46.000Z</time>
      </trkpt>
      <trkpt lat="48.89215" lon="2.35225">
        <ele>54.200000762939</ele>
        <time>2017-04-10T20:06:49.000Z</time>
      </trkpt>
      <trkpt lat="48.8921" lon="2.35223">
        <ele>54.400001525879</ele>
        <time>2017-04-10T20:06:50.000Z</time>
      </trkpt>
      <trkpt lat="48.89192" lon="2.35217">
        <ele>55</ele>
        <time>2017-04-10T20:06:53.000Z</time>
      </trkpt>
      <trkpt lat="48.89183" lon="2.35213">
        <ele>55.599998474121</ele>
        <time>2017-04-10T20:06:55.000Z</time>
      </trkpt>
      <trkpt lat="48.89163" lon="2.352">
        <ele>57</ele>
        <time>2017-04-10T20:07:00.000Z</time>
      </trkpt>
      <trkpt lat="48.89155" lon="2.35188">
        <ele>57.799999237061</ele>
        <time>2017-04-10T20:07:03.000Z</time>
      </trkpt>
      <trkpt lat="48.89141" lon="2.35176">
        <ele>59</ele>
        <time>2017-04-10T20:07:09.000Z</time>
      </trkpt>
      <trkpt lat="48.89132" lon="2.35173">
        <ele>59.400001525879</ele>
        <time>2017-04-10T20:07:13.000Z</time>
      </trkpt>
      <trkpt lat="48.89128" lon="2.35156">
        <ele>60.200000762939</ele>
        <time>2017-04-10T20:07:44.000Z</time>
      </trkpt>
      <trkpt lat="48.89109" lon="2.35161">
        <ele>61</ele>
        <time>2017-04-10T20:07:51.000Z</time>
      </trkpt>
      <trkpt lat="48.8909" lon="2.35159">
        <ele>62</ele>
        <time>2017-04-10T20:07:57.000Z</time>
      </trkpt>
      <trkpt lat="48.89071" lon="2.35161">
        <ele>62.799999237061</ele>
        <time>2017-04-10T20:08:03.000Z</time>
      </trkpt>
      <trkpt lat="48.89052" lon="2.35152">
        <ele>64.199996948242</ele>
        <time>2017-04-10T20:08:10.000Z</time>
      </trkpt>
      <trkpt lat="48.89046" lon="2.35149">
        <ele>64.599998474121</ele>
        <time>2017-04-10T20:08:14.000Z</time>
      </trkpt>
      <trkpt lat="48.89029" lon="2.35144">
        <ele>65.599998474121</ele>
        <time>2017-04-10T20:08:26.000Z</time>
      </trkpt>
      <trkpt lat="48.89009" lon="2.35145">
        <ele>66.199996948242</ele>
        <time>2017-04-10T20:08:32.000Z</time>
      </trkpt>
      <trkpt lat="48.8899" lon="2.35148">
        <ele>67.199996948242</ele>
        <time>2017-04-10T20:08:37.000Z</time>
      </trkpt>
      <trkpt lat="48.88972" lon="2.35157">
        <ele>68.199996948242</ele>
        <time>2017-04-10T20:08:42.000Z</time>
      </trkpt>
      <trkpt lat="48.88951" lon="2.3516">
        <ele>69.400001525879</ele>
        <time>2017-04-10T20:08:47.000Z</time>
      </trkpt>
      <trkpt lat="48.88932" lon="2.3516">
        <ele>70.199996948242</ele>
        <time>2017-04-10T20:08:52.000Z</time>
      </trkpt>
      <trkpt lat="48.88914" lon="2.35163">
        <ele>70.599998474121</ele>
        <time>2017-04-10T20:08:57.000Z</time>
      </trkpt>
      <trkpt lat="48.88893" lon="2.3516">
        <ele>71.199996948242</ele>
        <time>2017-04-10T20:09:02.000Z</time>
      </trkpt>
      <trkpt lat="48.88873" lon="2.35163">
        <ele>71.599998474121</ele>
        <time>2017-04-10T20:09:07.000Z</time>
      </trkpt>
      <trkpt lat="48.88852" lon="2.35158">
        <ele>72.199996948242</ele>
        <time>2017-04-10T20:09:12.000Z</time>
      </trkpt>
      <trkpt lat="48.88843" lon="2.35158">
        <ele>72.599998474121</ele>
        <time>2017-04-10T20:09:18.000Z</time>
      </trkpt>
      <trkpt lat="48.88842" lon="2.35167">
        <ele>72.599998474121</ele>
        <time>2017-04-10T20:09:50.000Z</time>
      </trkpt>
      <trkpt lat="48.88841" lon="2.35165">
        <ele>72.599998474121</ele>
        <time>2017-04-10T20:09:52.000Z</time>
      </trkpt>
      <trkpt lat="48.88824" lon="2.35152">
        <ele>73.400001525879</ele>
        <time>2017-04-10T20:10:02.000Z</time>
      </trkpt>
      <trkpt lat="48.88819" lon="2.35148">
        <ele>73.800003051758</ele>
        <time>2017-04-10T20:10:06.000Z</time>
      </trkpt>
      <trkpt lat="48.88812" lon="2.3514">
        <ele>74.199996948242</ele>
        <time>2017-04-10T20:10:13.000Z</time>
      </trkpt>
      <trkpt lat="48.88803" lon="2.35137">
        <ele>74.599998474121</ele>
        <time>2017-04-10T20:10:18.000Z</time>
      </trkpt>
      <trkpt lat="48.88784" lon="2.35133">
        <ele>75.400001525879</ele>
        <time>2017-04-10T20:10:28.000Z</time>
      </trkpt>
      <trkpt lat="48.88765" lon="2.35123">
        <ele>76</ele>
        <time>2017-04-10T20:10:35.000Z</time>
      </trkpt>
      <trkpt lat="48.88747" lon="2.35116">
        <ele>76.199996948242</ele>
        <time>2017-04-10T20:10:41.000Z</time>
      </trkpt>
      <trkpt lat="48.88727" lon="2.35108">
        <ele>76.400001525879</ele>
        <time>2017-04-10T20:10:48.000Z</time>
      </trkpt>
      <trkpt lat="48.8871" lon="2.35095">
        <ele>76.599998474121</ele>
        <time>2017-04-10T20:10:56.000Z</time>
      </trkpt>
      <trkpt lat="48.88691" lon="2.35088">
        <ele>76.800003051758</ele>
        <time>2017-04-10T20:11:05.000Z</time>
      </trkpt>
      <trkpt lat="48.88674" lon="2.35079">
        <ele>76</ele>
        <time>2017-04-10T20:11:15.000Z</time>
      </trkpt>
      <trkpt lat="48.88661" lon="2.35065">
        <ele>75.599998474121</ele>
        <time>2017-04-10T20:11:41.000Z</time>
      </trkpt>
      <trkpt lat="48.88643" lon="2.35053">
        <ele>74.800003051758</ele>
        <time>2017-04-10T20:11:50.000Z</time>
      </trkpt>
      <trkpt lat="48.88625" lon="2.35042">
        <ele>74</ele>
        <time>2017-04-10T20:11:58.000Z</time>
      </trkpt>
      <trkpt lat="48.88608" lon="2.35026">
        <ele>73.400001525879</ele>
        <time>2017-04-10T20:12:06.000Z</time>
      </trkpt>
      <trkpt lat="48.88589" lon="2.35017">
        <ele>73.199996948242</ele>
        <time>2017-04-10T20:12:15.000Z</time>
      </trkpt>
      <trkpt lat="48.88571" lon="2.35008">
        <ele>73</ele>
        <time>2017-04-10T20:12:23.000Z</time>
      </trkpt>
      <trkpt lat="48.88566" lon="2.35003">
        <ele>72.800003051758</ele>
        <time>2017-04-10T20:12:27.000Z</time>
      </trkpt>
      <trkpt lat="48.88565" lon="2.35">
        <ele>73</ele>
        <time>2017-04-10T20:12:30.000Z</time>
      </trkpt>
      <trkpt lat="48.88567" lon="2.34991">
        <ele>73.199996948242</ele>
        <time>2017-04-10T20:12:37.000Z</time>
      </trkpt>
      <trkpt lat="48.8856" lon="2.34979">
        <ele>73.199996948242</ele>
        <time>2017-04-10T20:13:05.000Z</time>
      </trkpt>
      <trkpt lat="48.88555" lon="2.34958">
        <ele>73.199996948242</ele>
        <time>2017-04-10T20:13:32.000Z</time>
      </trkpt>
      <trkpt lat="48.88537" lon="2.34958">
        <ele>72.800003051758</ele>
        <time>2017-04-10T20:13:38.000Z</time>
      </trkpt>
      <trkpt lat="48.88517" lon="2.34954">
        <ele>72.400001525879</ele>
        <time>2017-04-10T20:13:43.000Z</time>
      </trkpt>
      <trkpt lat="48.88496" lon="2.34952">
        <ele>71.800003051758</ele>
        <time>2017-04-10T20:13:48.000Z</time>
      </trkpt>
      <trkpt lat="48.88476" lon="2.3495">
        <ele>71.400001525879</ele>
        <time>2017-04-10T20:13:53.000Z</time>
      </trkpt>
      <trkpt lat="48.88458" lon="2.34951">
        <ele>70.599998474121</ele>
        <time>2017-04-10T20:13:57.000Z</time>
      </trkpt>
      <trkpt lat="48.88436" lon="2.34947">
        <ele>69.800003051758</ele>
        <time>2017-04-10T20:14:02.000Z</time>
      </trkpt>
      <trkpt lat="48.88417" lon="2.34946">
        <ele>69.199996948242</ele>
        <time>2017-04-10T20:14:06.000Z</time>
      </trkpt>
      <trkpt lat="48.88395" lon="2.34945">
        <ele>68.800003051758</ele>
        <time>2017-04-10T20:14:11.000Z</time>
      </trkpt>
      <trkpt lat="48.88392" lon="2.34943">
        <ele>68.800003051758</ele>
        <time>2017-04-10T20:14:12.000Z</time>
      </trkpt>
      <trkpt lat="48.88382" lon="2.34941">
        <ele>68.599998474121</ele>
        <time>2017-04-10T20:14:15.000Z</time>
      </trkpt>
      <trkpt lat="48.88373" lon="2.3494">
        <ele>68.599998474121</ele>
        <time>2017-04-10T20:14:18.000Z</time>
      </trkpt>
      <trkpt lat="48.88359" lon="2.34947">
        <ele>68.599998474121</ele>
        <time>2017-04-10T20:14:33.000Z</time>
      </trkpt>
      <trkpt lat="48.88342" lon="2.34964">
        <ele>68.199996948242</ele>
        <time>2017-04-10T20:14:38.000Z</time>
      </trkpt>
      <trkpt lat="48.88323" lon="2.34978">
        <ele>68</ele>
        <time>2017-04-10T20:14:43.000Z</time>
      </trkpt>
      <trkpt lat="48.88319" lon="2.34978">
        <ele>68</ele>
        <time>2017-04-10T20:14:44.000Z</time>
      </trkpt>
      <trkpt lat="48.883" lon="2.34964">
        <ele>68</ele>
        <time>2017-04-10T20:14:49.000Z</time>
      </trkpt>
      <trkpt lat="48.8828" lon="2.34966">
        <ele>68</ele>
        <time>2017-04-10T20:14:53.000Z</time>
      </trkpt>
      <trkpt lat="48.8826" lon="2.34969">
        <ele>67.599998474121</ele>
        <time>2017-04-10T20:14:57.000Z</time>
      </trkpt>
      <trkpt lat="48.8824" lon="2.34971">
        <ele>67.199996948242</ele>
        <time>2017-04-10T20:15:01.000Z</time>
      </trkpt>
      <trkpt lat="48.88217" lon="2.34971">
        <ele>67</ele>
        <time>2017-04-10T20:15:05.000Z</time>
      </trkpt>
      <trkpt lat="48.88196" lon="2.34973">
        <ele>66.800003051758</ele>
        <time>2017-04-10T20:15:09.000Z</time>
      </trkpt>
      <trkpt lat="48.88176" lon="2.34972">
        <ele>66.599998474121</ele>
        <time>2017-04-10T20:15:13.000Z</time>
      </trkpt>
      <trkpt lat="48.88154" lon="2.34975">
        <ele>66.599998474121</ele>
        <time>2017-04-10T20:15:17.000Z</time>
      </trkpt>
      <trkpt lat="48.88133" lon="2.34976">
        <ele>66.400001525879</ele>
        <time>2017-04-10T20:15:21.000Z</time>
      </trkpt>
      <trkpt lat="48.88113" lon="2.34979">
        <ele>66</ele>
        <time>2017-04-10T20:15:25.000Z</time>
      </trkpt>
      <trkpt lat="48.88092" lon="2.34982">
        <ele>65.400001525879</ele>
        <time>2017-04-10T20:15:29.000Z</time>
      </trkpt>
      <trkpt lat="48.88071" lon="2.34985">
        <ele>64.400001525879</ele>
        <time>2017-04-10T20:15:33.000Z</time>
      </trkpt>
      <trkpt lat="48.88061" lon="2.34987">
        <ele>64</ele>
        <time>2017-04-10T20:15:35.000Z</time>
      </trkpt>
      <trkpt lat="48.88039" lon="2.34984">
        <ele>63</ele>
        <time>2017-04-10T20:15:39.000Z</time>
      </trkpt>
      <trkpt lat="48.88025" lon="2.3498">
        <ele>62.400001525879</ele>
        <time>2017-04-10T20:15:42.000Z</time>
      </trkpt>
      <trkpt lat="48.88005" lon="2.3497">
        <ele>61.200000762939</ele>
        <time>2017-04-10T20:15:48.000Z</time>
      </trkpt>
      <trkpt lat="48.87998" lon="2.34967">
        <ele>60.799999237061</ele>
        <time>2017-04-10T20:15:50.000Z</time>
      </trkpt>
      <trkpt lat="48.87979" lon="2.34954">
        <ele>60</ele>
        <time>2017-04-10T20:15:55.000Z</time>
      </trkpt>
      <trkpt lat="48.87962" lon="2.34946">
        <ele>59.400001525879</ele>
        <time>2017-04-10T20:15:59.000Z</time>
      </trkpt>
      <trkpt lat="48.87942" lon="2.34943">
        <ele>58.799999237061</ele>
        <time>2017-04-10T20:16:04.000Z</time>
      </trkpt>
      <trkpt lat="48.87931" lon="2.34941">
        <ele>58.200000762939</ele>
        <time>2017-04-10T20:16:07.000Z</time>
      </trkpt>
      <trkpt lat="48.87913" lon="2.34937">
        <ele>57.200000762939</ele>
        <time>2017-04-10T20:16:11.000Z</time>
      </trkpt>
      <trkpt lat="48.879" lon="2.34933">
        <ele>56.599998474121</ele>
        <time>2017-04-10T20:16:14.000Z</time>
      </trkpt>
      <trkpt lat="48.87881" lon="2.3493">
        <ele>55.599998474121</ele>
        <time>2017-04-10T20:16:18.000Z</time>
      </trkpt>
      <trkpt lat="48.87862" lon="2.34926">
        <ele>54.400001525879</ele>
        <time>2017-04-10T20:16:22.000Z</time>
      </trkpt>
      <trkpt lat="48.87853" lon="2.34926">
        <ele>54.200000762939</ele>
        <time>2017-04-10T20:16:24.000Z</time>
      </trkpt>
      <trkpt lat="48.87834" lon="2.34926">
        <ele>54.200000762939</ele>
        <time>2017-04-10T20:16:28.000Z</time>
      </trkpt>
      <trkpt lat="48.87829" lon="2.34925">
        <ele>54.200000762939</ele>
        <time>2017-04-10T20:16:29.000Z</time>
      </trkpt>
      <trkpt lat="48.8781" lon="2.34924">
        <ele>54.200000762939</ele>
        <time>2017-04-10T20:16:33.000Z</time>
      </trkpt>
      <trkpt lat="48.87791" lon="2.34923">
        <ele>54.200000762939</ele>
        <time>2017-04-10T20:16:37.000Z</time>
      </trkpt>
      <trkpt lat="48.87771" lon="2.34922">
        <ele>54</ele>
        <time>2017-04-10T20:16:42.000Z</time>
      </trkpt>
      <trkpt lat="48.87752" lon="2.34922">
        <ele>53.599998474121</ele>
        <time>2017-04-10T20:16:47.000Z</time>
      </trkpt>
      <trkpt lat="48.8775" lon="2.34922">
        <ele>53.400001525879</ele>
        <time>2017-04-10T20:16:48.000Z</time>
      </trkpt>
      <trkpt lat="48.87742" lon="2.3492">
        <ele>53.200000762939</ele>
        <time>2017-04-10T20:16:52.000Z</time>
      </trkpt>
      <trkpt lat="48.87736" lon="2.34916">
        <ele>53.200000762939</ele>
        <time>2017-04-10T20:16:55.000Z</time>
      </trkpt>
      <trkpt lat="48.8772" lon="2.34915">
        <ele>52.799999237061</ele>
        <time>2017-04-10T20:17:18.000Z</time>
      </trkpt>
      <trkpt lat="48.87703" lon="2.34907">
        <ele>52.200000762939</ele>
        <time>2017-04-10T20:17:24.000Z</time>
      </trkpt>
      <trkpt lat="48.87683" lon="2.34896">
        <ele>51.400001525879</ele>
        <time>2017-04-10T20:17:29.000Z</time>
      </trkpt>
      <trkpt lat="48.87665" lon="2.34884">
        <ele>50.400001525879</ele>
        <time>2017-04-10T20:17:33.000Z</time>
      </trkpt>
      <trkpt lat="48.87648" lon="2.34869">
        <ele>49.400001525879</ele>
        <time>2017-04-10T20:17:37.000Z</time>
      </trkpt>
      <trkpt lat="48.87631" lon="2.34855">
        <ele>48.400001525879</ele>
        <time>2017-04-10T20:17:42.000Z</time>
      </trkpt>
      <trkpt lat="48.87608" lon="2.34847">
        <ele>47.200000762939</ele>
        <time>2017-04-10T20:17:49.000Z</time>
      </trkpt>
      <trkpt lat="48.8759" lon="2.34842">
        <ele>47.200000762939</ele>
        <time>2017-04-10T20:17:54.000Z</time>
      </trkpt>
      <trkpt lat="48.87587" lon="2.34838">
        <ele>47</ele>
        <time>2017-04-10T20:17:55.000Z</time>
      </trkpt>
      <trkpt lat="48.87564" lon="2.34836">
        <ele>47</ele>
        <time>2017-04-10T20:18:00.000Z</time>
      </trkpt>
      <trkpt lat="48.87542" lon="2.34834">
        <ele>47</ele>
        <time>2017-04-10T20:18:05.000Z</time>
      </trkpt>
      <trkpt lat="48.87521" lon="2.34831">
        <ele>47</ele>
        <time>2017-04-10T20:18:10.000Z</time>
      </trkpt>
      <trkpt lat="48.87502" lon="2.34827">
        <ele>47.799999237061</ele>
        <time>2017-04-10T20:18:14.000Z</time>
      </trkpt>
      <trkpt lat="48.87484" lon="2.34823">
        <ele>48.400001525879</ele>
        <time>2017-04-10T20:18:18.000Z</time>
      </trkpt>
      <trkpt lat="48.87471" lon="2.3482">
        <ele>48.799999237061</ele>
        <time>2017-04-10T20:18:21.000Z</time>
      </trkpt>
      <trkpt lat="48.87452" lon="2.34815">
        <ele>49.599998474121</ele>
        <time>2017-04-10T20:18:25.000Z</time>
      </trkpt>
      <trkpt lat="48.87439" lon="2.34811">
        <ele>50</ele>
        <time>2017-04-10T20:18:28.000Z</time>
      </trkpt>
      <trkpt lat="48.87419" lon="2.34803">
        <ele>49.799999237061</ele>
        <time>2017-04-10T20:18:34.000Z</time>
      </trkpt>
      <trkpt lat="48.87416" lon="2.34802">
        <ele>49.799999237061</ele>
        <time>2017-04-10T20:18:35.000Z</time>
      </trkpt>
      <trkpt lat="48.87409" lon="2.34803">
        <ele>49.599998474121</ele>
        <time>2017-04-10T20:18:37.000Z</time>
      </trkpt>
      <trkpt lat="48.87389" lon="2.34799">
        <ele>49</ele>
        <time>2017-04-10T20:18:42.000Z</time>
      </trkpt>
      <trkpt lat="48.87366" lon="2.34796">
        <ele>48.200000762939</ele>
        <time>2017-04-10T20:18:47.000Z</time>
      </trkpt>
      <trkpt lat="48.87348" lon="2.34794">
        <ele>47.799999237061</ele>
        <time>2017-04-10T20:18:51.000Z</time>
      </trkpt>
      <trkpt lat="48.87324" lon="2.34791">
        <ele>48</ele>
        <time>2017-04-10T20:18:55.000Z</time>
      </trkpt>
      <trkpt lat="48.87303" lon="2.34794">
        <ele>47.599998474121</ele>
        <time>2017-04-10T20:19:00.000Z</time>
      </trkpt>
      <trkpt lat="48.87282" lon="2.34793">
        <ele>47.400001525879</ele>
        <time>2017-04-10T20:19:04.000Z</time>
      </trkpt>
      <trkpt lat="48.8726" lon="2.3479">
        <ele>47.599998474121</ele>
        <time>2017-04-10T20:19:09.000Z</time>
      </trkpt>
      <trkpt lat="48.87256" lon="2.3479">
        <ele>47.599998474121</ele>
        <time>2017-04-10T20:19:10.000Z</time>
      </trkpt>
      <trkpt lat="48.87246" lon="2.3479">
        <ele>47.799999237061</ele>
        <time>2017-04-10T20:19:12.000Z</time>
      </trkpt>
      <trkpt lat="48.87224" lon="2.34792">
        <ele>48.599998474121</ele>
        <time>2017-04-10T20:19:17.000Z</time>
      </trkpt>
      <trkpt lat="48.87208" lon="2.34794">
        <ele>49.799999237061</ele>
        <time>2017-04-10T20:19:21.000Z</time>
      </trkpt>
      <trkpt lat="48.87187" lon="2.34795">
        <ele>51.200000762939</ele>
        <time>2017-04-10T20:19:26.000Z</time>
      </trkpt>
      <trkpt lat="48.87174" lon="2.34795">
        <ele>51.200000762939</ele>
        <time>2017-04-10T20:19:29.000Z</time>
      </trkpt>
      <trkpt lat="48.87156" lon="2.34795">
        <ele>51.200000762939</ele>
        <time>2017-04-10T20:19:33.000Z</time>
      </trkpt>
      <trkpt lat="48.87136" lon="2.34796">
        <ele>50.200000762939</ele>
        <time>2017-04-10T20:19:38.000Z</time>
      </trkpt>
      <trkpt lat="48.87132" lon="2.34795">
        <ele>50</ele>
        <time>2017-04-10T20:19:39.000Z</time>
      </trkpt>
      <trkpt lat="48.87113" lon="2.34794">
        <ele>49.200000762939</ele>
        <time>2017-04-10T20:19:44.000Z</time>
      </trkpt>
      <trkpt lat="48.87105" lon="2.34792">
        <ele>49</ele>
        <time>2017-04-10T20:19:46.000Z</time>
      </trkpt>
      <trkpt lat="48.87088" lon="2.34796">
        <ele>49.200000762939</ele>
        <time>2017-04-10T20:19:51.000Z</time>
      </trkpt>
      <trkpt lat="48.87085" lon="2.34798">
        <ele>49.200000762939</ele>
        <time>2017-04-10T20:19:53.000Z</time>
      </trkpt>
      <trkpt lat="48.87068" lon="2.34786">
        <ele>50</ele>
        <time>2017-04-10T20:20:51.000Z</time>
      </trkpt>
      <trkpt lat="48.87047" lon="2.34792">
        <ele>51</ele>
        <time>2017-04-10T20:20:59.000Z</time>
      </trkpt>
      <trkpt lat="48.87028" lon="2.34791">
        <ele>52.200000762939</ele>
        <time>2017-04-10T20:21:04.000Z</time>
      </trkpt>
      <trkpt lat="48.87007" lon="2.34789">
        <ele>53.200000762939</ele>
        <time>2017-04-10T20:21:09.000Z</time>
      </trkpt>
      <trkpt lat="48.86987" lon="2.34785">
        <ele>54.200000762939</ele>
        <time>2017-04-10T20:21:14.000Z</time>
      </trkpt>
      <trkpt lat="48.86965" lon="2.34785">
        <ele>55.200000762939</ele>
        <time>2017-04-10T20:21:19.000Z</time>
      </trkpt>
      <trkpt lat="48.86946" lon="2.34786">
        <ele>56.200000762939</ele>
        <time>2017-04-10T20:21:24.000Z</time>
      </trkpt>
      <trkpt lat="48.86928" lon="2.34778">
        <ele>56</ele>
        <time>2017-04-10T20:21:30.000Z</time>
      </trkpt>
      <trkpt lat="48.86907" lon="2.34772">
        <ele>55.599998474121</ele>
        <time>2017-04-10T20:21:36.000Z</time>
      </trkpt>
      <trkpt lat="48.86885" lon="2.34771">
        <ele>55</ele>
        <time>2017-04-10T20:21:41.000Z</time>
      </trkpt>
      <trkpt lat="48.86864" lon="2.34774">
        <ele>54.200000762939</ele>
        <time>2017-04-10T20:21:46.000Z</time>
      </trkpt>
      <trkpt lat="48.86845" lon="2.34774">
        <ele>53.200000762939</ele>
        <time>2017-04-10T20:21:54.000Z</time>
      </trkpt>
      <trkpt lat="48.86839" lon="2.34773">
        <ele>52.799999237061</ele>
        <time>2017-04-10T20:21:59.000Z</time>
      </trkpt>
      <trkpt lat="48.86838" lon="2.34765">
        <ele>52.599998474121</ele>
        <time>2017-04-10T20:22:11.000Z</time>
      </trkpt>
      <trkpt lat="48.86834" lon="2.34759">
        <ele>52.400001525879</ele>
        <time>2017-04-10T20:22:23.000Z</time>
      </trkpt>
      <trkpt lat="48.86815" lon="2.34752">
        <ele>51</ele>
        <time>2017-04-10T20:22:32.000Z</time>
      </trkpt>
      <trkpt lat="48.86797" lon="2.34743">
        <ele>49.799999237061</ele>
        <time>2017-04-10T20:22:42.000Z</time>
      </trkpt>
      <trkpt lat="48.86795" lon="2.34744">
        <ele>49.599998474121</ele>
        <time>2017-04-10T20:22:44.000Z</time>
      </trkpt>
      <trkpt lat="48.86776" lon="2.34745">
        <ele>48.200000762939</ele>
        <time>2017-04-10T20:22:52.000Z</time>
      </trkpt>
      <trkpt lat="48.86755" lon="2.34742">
        <ele>48.400001525879</ele>
        <time>2017-04-10T20:23:00.000Z</time>
      </trkpt>
      <trkpt lat="48.86739" lon="2.34732">
        <ele>48.400001525879</ele>
        <time>2017-04-10T20:23:17.000Z</time>
      </trkpt>
      <trkpt lat="48.86736" lon="2.34739">
        <ele>48.599998474121</ele>
        <time>2017-04-10T20:24:45.000Z</time>
      </trkpt>
      <trkpt lat="48.86727" lon="2.3475">
        <ele>49.200000762939</ele>
        <time>2017-04-10T20:25:31.000Z</time>
      </trkpt>
      <trkpt lat="48.86724" lon="2.34777">
        <ele>49.200000762939</ele>
        <time>2017-04-10T20:25:39.000Z</time>
      </trkpt>
      <trkpt lat="48.86722" lon="2.34806">
        <ele>48.200000762939</ele>
        <time>2017-04-10T20:25:45.000Z</time>
      </trkpt>
      <trkpt lat="48.8672" lon="2.34837">
        <ele>47.200000762939</ele>
        <time>2017-04-10T20:25:51.000Z</time>
      </trkpt>
      <trkpt lat="48.86714" lon="2.34866">
        <ele>46.799999237061</ele>
        <time>2017-04-10T20:25:56.000Z</time>
      </trkpt>
      <trkpt lat="48.86712" lon="2.34896">
        <ele>46</ele>
        <time>2017-04-10T20:26:01.000Z</time>
      </trkpt>
      <trkpt lat="48.86708" lon="2.34928">
        <ele>45.599998474121</ele>
        <time>2017-04-10T20:26:06.000Z</time>
      </trkpt>
      <trkpt lat="48.86702" lon="2.34942">
        <ele>46</ele>
        <time>2017-04-10T20:26:10.000Z</time>
      </trkpt>
      <trkpt lat="48.86692" lon="2.34937">
        <ele>45.799999237061</ele>
        <time>2017-04-10T20:26:15.000Z</time>
      </trkpt>
      <trkpt lat="48.86672" lon="2.34924">
        <ele>46</ele>
        <time>2017-04-10T20:26:22.000Z</time>
      </trkpt>
      <trkpt lat="48.8665" lon="2.3492">
        <ele>46.599998474121</ele>
        <time>2017-04-10T20:26:27.000Z</time>
      </trkpt>
      <trkpt lat="48.86627" lon="2.34925">
        <ele>47.599998474121</ele>
        <time>2017-04-10T20:26:31.000Z</time>
      </trkpt>
      <trkpt lat="48.86606" lon="2.34921">
        <ele>48</ele>
        <time>2017-04-10T20:26:37.000Z</time>
      </trkpt>
      <trkpt lat="48.86586" lon="2.34909">
        <ele>47.799999237061</ele>
        <time>2017-04-10T20:26:42.000Z</time>
      </trkpt>
      <trkpt lat="48.8657" lon="2.34895">
        <ele>48</ele>
        <time>2017-04-10T20:26:47.000Z</time>
      </trkpt>
      <trkpt lat="48.86552" lon="2.34877">
        <ele>48.200000762939</ele>
        <time>2017-04-10T20:26:52.000Z</time>
      </trkpt>
      <trkpt lat="48.86532" lon="2.34868">
        <ele>48.200000762939</ele>
        <time>2017-04-10T20:27:01.000Z</time>
      </trkpt>
      <trkpt lat="48.86513" lon="2.34867">
        <ele>47.799999237061</ele>
        <time>2017-04-10T20:27:11.000Z</time>
      </trkpt>
      <trkpt lat="48.86495" lon="2.3486">
        <ele>47.200000762939</ele>
        <time>2017-04-10T20:27:19.000Z</time>
      </trkpt>
      <trkpt lat="48.86484" lon="2.3486">
        <ele>47</ele>
        <time>2017-04-10T20:27:25.000Z</time>
      </trkpt>
      <trkpt lat="48.86479" lon="2.34878">
        <ele>46.599998474121</ele>
        <time>2017-04-10T20:27:29.000Z</time>
      </trkpt>
      <trkpt lat="48.86469" lon="2.34906">
        <ele>47.400001525879</ele>
        <time>2017-04-10T20:27:37.000Z</time>
      </trkpt>
      <trkpt lat="48.86461" lon="2.34932">
        <ele>47.799999237061</ele>
        <time>2017-04-10T20:27:42.000Z</time>
      </trkpt>
      <trkpt lat="48.86453" lon="2.34961">
        <ele>47.799999237061</ele>
        <time>2017-04-10T20:27:47.000Z</time>
      </trkpt>
      <trkpt lat="48.86445" lon="2.34991">
        <ele>48</ele>
        <time>2017-04-10T20:27:52.000Z</time>
      </trkpt>
      <trkpt lat="48.86432" lon="2.35014">
        <ele>47.799999237061</ele>
        <time>2017-04-10T20:27:57.000Z</time>
      </trkpt>
      <trkpt lat="48.86425" lon="2.35041">
        <ele>47.400001525879</ele>
        <time>2017-04-10T20:28:04.000Z</time>
      </trkpt>
      <trkpt lat="48.86425" lon="2.35046">
        <ele>47.200000762939</ele>
        <time>2017-04-10T20:28:07.000Z</time>
      </trkpt>
      <trkpt lat="48.86414" lon="2.35025">
        <ele>48</ele>
        <time>2017-04-10T20:28:27.000Z</time>
      </trkpt>
      <trkpt lat="48.86397" lon="2.35016">
        <ele>48.599998474121</ele>
        <time>2017-04-10T20:28:35.000Z</time>
      </trkpt>
      <trkpt lat="48.86379" lon="2.35014">
        <ele>49</ele>
        <time>2017-04-10T20:28:42.000Z</time>
      </trkpt>
      <trkpt lat="48.86362" lon="2.35">
        <ele>49.799999237061</ele>
        <time>2017-04-10T20:28:49.000Z</time>
      </trkpt>
      <trkpt lat="48.86342" lon="2.34992">
        <ele>49.599998474121</ele>
        <time>2017-04-10T20:28:57.000Z</time>
      </trkpt>
      <trkpt lat="48.86333" lon="2.3499">
        <ele>49.200000762939</ele>
        <time>2017-04-10T20:29:00.000Z</time>
      </trkpt>
      <trkpt lat="48.86313" lon="2.34982">
        <ele>48.599998474121</ele>
        <time>2017-04-10T20:29:07.000Z</time>
      </trkpt>
      <trkpt lat="48.86294" lon="2.34975">
        <ele>48</ele>
        <time>2017-04-10T20:29:12.000Z</time>
      </trkpt>
      <trkpt lat="48.86277" lon="2.34966">
        <ele>47.400001525879</ele>
        <time>2017-04-10T20:29:18.000Z</time>
      </trkpt>
      <trkpt lat="48.86256" lon="2.34958">
        <ele>47</ele>
        <time>2017-04-10T20:29:24.000Z</time>
      </trkpt>
      <trkpt lat="48.86239" lon="2.34952">
        <ele>47</ele>
        <time>2017-04-10T20:29:30.000Z</time>
      </trkpt>
      <trkpt lat="48.86222" lon="2.34939">
        <ele>46.599998474121</ele>
        <time>2017-04-10T20:29:38.000Z</time>
      </trkpt>
      <trkpt lat="48.86205" lon="2.34925">
        <ele>46.200000762939</ele>
        <time>2017-04-10T20:29:44.000Z</time>
      </trkpt>
      <trkpt lat="48.86187" lon="2.34916">
        <ele>46</ele>
        <time>2017-04-10T20:29:50.000Z</time>
      </trkpt>
      <trkpt lat="48.86168" lon="2.34908">
        <ele>46.200000762939</ele>
        <time>2017-04-10T20:29:56.000Z</time>
      </trkpt>
      <trkpt lat="48.86149" lon="2.34897">
        <ele>46</ele>
        <time>2017-04-10T20:30:02.000Z</time>
      </trkpt>
      <trkpt lat="48.8613" lon="2.3489">
        <ele>46.200000762939</ele>
        <time>2017-04-10T20:30:08.000Z</time>
      </trkpt>
      <trkpt lat="48.86112" lon="2.34883">
        <ele>46.200000762939</ele>
        <time>2017-04-10T20:30:14.000Z</time>
      </trkpt>
      <trkpt lat="48.86093" lon="2.34879">
        <ele>46.599998474121</ele>
        <time>2017-04-10T20:30:20.000Z</time>
      </trkpt>
      <trkpt lat="48.86076" lon="2.34869">
        <ele>47</ele>
        <time>2017-04-10T20:30:26.000Z</time>
      </trkpt>
      <trkpt lat="48.86059" lon="2.3486">
        <ele>47.400001525879</ele>
        <time>2017-04-10T20:30:33.000Z</time>
      </trkpt>
      <trkpt lat="48.86038" lon="2.34856">
        <ele>48</ele>
        <time>2017-04-10T20:30:42.000Z</time>
      </trkpt>
      <trkpt lat="48.86035" lon="2.34854">
        <ele>48</ele>
        <time>2017-04-10T20:30:43.000Z</time>
      </trkpt>
      <trkpt lat="48.86017" lon="2.34838">
        <ele>48</ele>
        <time>2017-04-10T20:30:49.000Z</time>
      </trkpt>
      <trkpt lat="48.85998" lon="2.34831">
        <ele>48</ele>
        <time>2017-04-10T20:30:56.000Z</time>
      </trkpt>
      <trkpt lat="48.85997" lon="2.34822">
        <ele>47.599998474121</ele>
        <time>2017-04-10T20:30:58.000Z</time>
      </trkpt>
      <trkpt lat="48.85983" lon="2.34808">
        <ele>47</ele>
        <time>2017-04-10T20:31:04.000Z</time>
      </trkpt>
      <trkpt lat="48.85974" lon="2.34802">
        <ele>46.599998474121</ele>
        <time>2017-04-10T20:31:08.000Z</time>
      </trkpt>
      <trkpt lat="48.85975" lon="2.34785">
        <ele>45.799999237061</ele>
        <time>2017-04-10T20:31:13.000Z</time>
      </trkpt>
      <trkpt lat="48.85975" lon="2.34758">
        <ele>44.799999237061</ele>
        <time>2017-04-10T20:31:23.000Z</time>
      </trkpt>
      <trkpt lat="48.85972" lon="2.34755">
        <ele>44.599998474121</ele>
        <time>2017-04-10T20:31:26.000Z</time>
      </trkpt>
    </trkseg>
  </trk>
</gpx>